Darstellungsparameter: Aktuell verwendete Einstellungen:
Skalierung der Graphiken ... ?
xyx+y,   Skalierungsfaktor:      Skalierung: Modus: x, Faktor: 1
Darstellungszeitraum ... ?
Vom - - bis: - -   Zeitraum: 03.08.2019 - 02.08.2020
Min/Max/Avg-Anzeige ... ?
Zeige MMA aktuell
Zeige MMA Monat
Zeige MMA alles
Zeige --A aktuell
Zeige --A Monat
Zeige --A alles
Keine MMA-Anzeige
MMA:
Keine MMA-Graphiken
MMA-Basis: 03.08.2019 - 02.08.2020
Quicknavigation für Darstellung... ?
Tage:      1T, 2T, 3T, 5T -1T -2T -3T -5T +1T +2T +3T +5T
Wochen: 1W, 2W, 3W -1W -2W -3W +1W +2W +3W
Monate: 1M, 3M, 6M -1M -3M -6M +1M +3M +6M
Jahre:    1J, 3J, 5J, 10J -1J -3J -5J -10J +1J +3J +5J +10J
Nutze für die Darstellung ... ?
Originaldaten oder Mittelwerte auf ...
Stundenbasis Tagesbasis Wochenbasis
Monatsbasis Jahresbasis      Datenbasis: Original-Daten
Darstellen als:
Statistik (Auto) Statistik J:M      Darstellung:
Zur Graphik,    zurück zur Übersicht aller Sensoren.
 
Tabellarische Datenbersicht: ?
 
Sensor: Nr:Datum:Temp:Abs-Feuchte:Windchill:Wind:
Aussen-T/F 1 03-08-2019 00:00:00 17.5 C 12.67 g/m*3 17.5 C 1.6 km/h
2 03-08-2019 00:05:00 17.4 C 12.75 g/m*3 17.4 C 1.6 km/h
3 03-08-2019 00:10:00 17.4 C 12.75 g/m*3 17.4 C 3.2 km/h
4 03-08-2019 00:15:00 17.4 C 12.75 g/m*3 17.4 C 1.6 km/h
5 03-08-2019 00:20:00 17.4 C 12.75 g/m*3 17.4 C 4.8 km/h
6 03-08-2019 00:25:00 17.7 C 12.82 g/m*3 17.7 C 6.4 km/h
7 03-08-2019 00:30:00 17.8 C 12.75 g/m*3 17.8 C 8.1 km/h
8 03-08-2019 00:35:00 17.9 C 12.83 g/m*3 17.9 C 9.7 km/h
9 03-08-2019 00:40:00 18.1 C 12.82 g/m*3 18.1 C 8.1 km/h
10 03-08-2019 00:45:00 18.1 C 12.82 g/m*3 18.1 C 8.1 km/h
11 03-08-2019 00:50:00 18.2 C 12.75 g/m*3 18.2 C 9.7 km/h
12 03-08-2019 00:55:00 18.2 C 12.75 g/m*3 18.2 C 8.1 km/h
13 03-08-2019 01:00:00 18.3 C 12.82 g/m*3 18.3 C 6.4 km/h
14 03-08-2019 01:05:00 18.3 C 12.82 g/m*3 18.3 C 12.9 km/h
15 03-08-2019 01:10:00 18.3 C 12.98 g/m*3 18.3 C 9.7 km/h
16 03-08-2019 01:15:00 18.3 C 12.82 g/m*3 18.3 C 8.1 km/h
17 03-08-2019 01:20:00 18.3 C 12.82 g/m*3 18.3 C 8.1 km/h
18 03-08-2019 01:25:00 18.3 C 12.82 g/m*3 18.3 C 16.1 km/h
19 03-08-2019 01:30:00 18.3 C 12.82 g/m*3 18.3 C 16.1 km/h
20 03-08-2019 01:35:00 18.3 C 12.82 g/m*3 18.3 C 9.7 km/h
21 03-08-2019 01:40:00 18.3 C 12.98 g/m*3 18.3 C 12.9 km/h
22 03-08-2019 01:45:00 18.3 C 12.98 g/m*3 18.3 C 9.7 km/h
23 03-08-2019 01:50:00 18.2 C 12.9 g/m*3 18.2 C 9.7 km/h
24 03-08-2019 01:55:00 18.2 C 13.06 g/m*3 18.2 C 11.3 km/h
25 03-08-2019 02:00:00 18.2 C 13.06 g/m*3 18.2 C 11.3 km/h
Sensor: Nr:Datum:Temp:Abs-Feuchte:Windchill:Wind:
Aussen-T/F 26 03-08-2019 02:05:00 18.2 C 13.06 g/m*3 18.2 C 8.1 km/h
27 03-08-2019 02:10:00 18.2 C 13.06 g/m*3 18.2 C 6.4 km/h
28 03-08-2019 02:15:00 18.2 C 13.06 g/m*3 18.2 C 11.3 km/h
29 03-08-2019 02:20:00 18.2 C 13.06 g/m*3 18.2 C 9.7 km/h
30 03-08-2019 02:25:00 18.2 C 13.06 g/m*3 18.2 C 9.7 km/h
31 03-08-2019 02:30:00 18.3 C 13.29 g/m*3 18.3 C 16.1 km/h
32 03-08-2019 02:35:00 18.3 C 13.13 g/m*3 18.3 C 12.9 km/h
33 03-08-2019 02:40:00 18.3 C 13.29 g/m*3 18.3 C 9.7 km/h
34 03-08-2019 02:45:00 18.3 C 13.29 g/m*3 18.3 C 9.7 km/h
35 03-08-2019 02:50:00 18.3 C 13.29 g/m*3 18.3 C 11.3 km/h
36 03-08-2019 02:55:00 18.2 C 13.21 g/m*3 18.2 C 19.3 km/h
37 03-08-2019 03:00:00 18.2 C 13.21 g/m*3 18.2 C 11.3 km/h
38 03-08-2019 03:05:00 18.2 C 13.21 g/m*3 18.2 C 6.4 km/h
39 03-08-2019 03:10:00 18.2 C 13.21 g/m*3 18.2 C 11.3 km/h
40 03-08-2019 03:15:00 18.2 C 13.21 g/m*3 18.2 C 6.4 km/h
41 03-08-2019 03:20:00 18.2 C 13.37 g/m*3 18.2 C 11.3 km/h
42 03-08-2019 03:25:00 18.2 C 13.37 g/m*3 18.2 C 8.1 km/h
43 03-08-2019 03:30:00 18.2 C 13.37 g/m*3 18.2 C 6.4 km/h
44 03-08-2019 03:35:00 18.2 C 13.37 g/m*3 18.2 C 8.1 km/h
45 03-08-2019 03:40:00 18.2 C 13.37 g/m*3 18.2 C 8.1 km/h
46 03-08-2019 03:45:00 18.2 C 13.37 g/m*3 18.2 C 1.6 km/h
47 03-08-2019 03:50:00 18.2 C 13.37 g/m*3 18.2 C 11.3 km/h
48 03-08-2019 03:55:00 18.2 C 13.37 g/m*3 18.2 C 6.4 km/h
49 03-08-2019 04:00:00 18.2 C 13.37 g/m*3 18.2 C 6.4 km/h
50 03-08-2019 04:05:00 18.1 C 13.44 g/m*3 18.1 C 4.8 km/h
Sensor: Nr:Datum:Temp:Abs-Feuchte:Windchill:Wind:
Aussen-T/F 51 03-08-2019 04:10:00 18.1 C 13.44 g/m*3 18.1 C 6.4 km/h
52 03-08-2019 04:15:00 18.1 C 13.44 g/m*3 18.1 C 4.8 km/h
53 03-08-2019 04:20:00 18.1 C 13.44 g/m*3 18.1 C 3.2 km/h
54 03-08-2019 04:25:00 18.1 C 13.44 g/m*3 18.1 C 6.4 km/h
55 03-08-2019 04:30:00 18.1 C 13.44 g/m*3 18.1 C 12.9 km/h
56 03-08-2019 04:35:00 18.2 C 13.52 g/m*3 18.2 C 14.5 km/h
57 03-08-2019 04:40:00 18.2 C 13.52 g/m*3 18.2 C 6.4 km/h
58 03-08-2019 04:45:00 18.2 C 13.52 g/m*3 18.2 C 6.4 km/h
59 03-08-2019 04:50:00 18.2 C 13.52 g/m*3 18.2 C 8.1 km/h
60 03-08-2019 04:55:00 18.2 C 13.52 g/m*3 18.2 C 6.4 km/h
61 03-08-2019 05:00:00 18.2 C 13.52 g/m*3 18.2 C 9.7 km/h
62 03-08-2019 05:05:00 18.2 C 13.52 g/m*3 18.2 C 9.7 km/h
63 03-08-2019 05:10:00 18.2 C 13.52 g/m*3 18.2 C 8.1 km/h
64 03-08-2019 05:15:00 18.2 C 13.52 g/m*3 18.2 C 3.2 km/h
65 03-08-2019 05:20:00 18.2 C 13.52 g/m*3 18.2 C 4.8 km/h
66 03-08-2019 05:25:00 18.1 C 13.44 g/m*3 18.1 C 1.6 km/h
67 03-08-2019 05:30:00 18.1 C 13.44 g/m*3 18.1 C 3.2 km/h
68 03-08-2019 05:35:00 18.1 C 13.44 g/m*3 18.1 C 8.1 km/h
69 03-08-2019 05:40:00 18.1 C 13.44 g/m*3 18.1 C 9.7 km/h
70 03-08-2019 05:45:00 18.1 C 13.44 g/m*3 18.1 C 8.1 km/h
71 03-08-2019 05:50:00 18.1 C 13.44 g/m*3 18.1 C 4.8 km/h
72 03-08-2019 05:55:00 18.1 C 13.44 g/m*3 18.1 C 4.8 km/h
73 03-08-2019 06:00:00 18 C 13.36 g/m*3 18 C 8.1 km/h
74 03-08-2019 06:05:00 18 C 13.36 g/m*3 18 C 9.7 km/h
75 03-08-2019 06:10:00 17.9 C 13.28 g/m*3 17.9 C 8.1 km/h
Sensor: Nr:Datum:Temp:Abs-Feuchte:Windchill:Wind:
Aussen-T/F 76 03-08-2019 06:15:00 17.9 C 13.44 g/m*3 17.9 C 4.8 km/h
77 03-08-2019 06:20:00 17.9 C 13.44 g/m*3 17.9 C 6.4 km/h
78 03-08-2019 06:25:00 17.9 C 13.44 g/m*3 17.9 C 4.8 km/h
79 03-08-2019 06:30:00 17.9 C 13.28 g/m*3 17.9 C 6.4 km/h
80 03-08-2019 06:35:00 17.9 C 13.28 g/m*3 17.9 C 4.8 km/h
81 03-08-2019 06:40:00 17.9 C 13.28 g/m*3 17.9 C 1.6 km/h
82 03-08-2019 06:45:00 17.8 C 13.2 g/m*3 17.8 C 4.8 km/h
83 03-08-2019 06:50:00 17.8 C 13.2 g/m*3 17.8 C 4.8 km/h
84 03-08-2019 06:55:00 17.8 C 13.2 g/m*3 17.8 C 4.8 km/h
85 03-08-2019 07:00:00 17.8 C 13.2 g/m*3 17.8 C 6.4 km/h
86 03-08-2019 07:05:00 17.8 C 13.05 g/m*3 17.8 C 6.4 km/h
87 03-08-2019 07:10:00 17.8 C 13.05 g/m*3 17.8 C 9.7 km/h
88 03-08-2019 07:15:00 17.8 C 13.05 g/m*3 17.8 C 4.8 km/h
89 03-08-2019 07:20:00 17.8 C 13.05 g/m*3 17.8 C 3.2 km/h
90 03-08-2019 07:25:00 17.8 C 13.05 g/m*3 17.8 C 8.1 km/h
91 03-08-2019 07:30:00 17.9 C 13.13 g/m*3 17.9 C 4.8 km/h
92 03-08-2019 07:35:00 17.9 C 12.98 g/m*3 17.9 C 4.8 km/h
93 03-08-2019 07:40:00 17.9 C 12.98 g/m*3 17.9 C 8.1 km/h
94 03-08-2019 07:45:00 17.9 C 12.98 g/m*3 17.9 C 11.3 km/h
95 03-08-2019 07:50:00 17.9 C 12.98 g/m*3 17.9 C 8.1 km/h
96 03-08-2019 07:55:00 17.8 C 12.9 g/m*3 17.8 C 6.4 km/h
97 03-08-2019 08:00:00 17.8 C 13.05 g/m*3 17.8 C 8.1 km/h
98 03-08-2019 08:05:00 17.8 C 13.05 g/m*3 17.8 C 9.7 km/h
99 03-08-2019 08:10:00 17.8 C 12.9 g/m*3 17.8 C 8.1 km/h
100 03-08-2019 08:15:00 17.8 C 12.9 g/m*3 17.8 C 8.1 km/h
Sensor: Nr:Datum:Temp:Abs-Feuchte:Windchill:Wind:
Aussen-T/F 101 03-08-2019 08:20:00 17.8 C 12.9 g/m*3 17.8 C 8.1 km/h
102 03-08-2019 08:25:00 17.8 C 12.9 g/m*3 17.8 C 4.8 km/h
103 03-08-2019 08:30:00 17.9 C 12.98 g/m*3 17.9 C 4.8 km/h
104 03-08-2019 08:35:00 18 C 12.9 g/m*3 18 C 9.7 km/h
105 03-08-2019 08:40:00 18.1 C 12.98 g/m*3 18.1 C 9.7 km/h
106 03-08-2019 08:45:00 18.2 C 13.06 g/m*3 18.2 C 6.4 km/h
107 03-08-2019 08:50:00 18.2 C 12.9 g/m*3 18.2 C 12.9 km/h
108 03-08-2019 08:55:00 18.2 C 12.75 g/m*3 18.2 C 12.9 km/h
109 03-08-2019 09:00:00 18.2 C 12.75 g/m*3 18.2 C 11.3 km/h
110 03-08-2019 09:05:00 18.3 C 12.66 g/m*3 18.3 C 12.9 km/h
111 03-08-2019 09:10:00 18.3 C 12.66 g/m*3 18.3 C 9.7 km/h
112 03-08-2019 09:15:00 18.4 C 12.43 g/m*3 18.4 C 12.9 km/h
113 03-08-2019 09:20:00 18.5 C 12.5 g/m*3 18.5 C 16.1 km/h
114 03-08-2019 09:25:00 18.6 C 12.57 g/m*3 18.6 C 11.3 km/h
115 03-08-2019 09:30:00 18.7 C 12.65 g/m*3 18.7 C 14.5 km/h
116 03-08-2019 09:35:00 18.8 C 12.72 g/m*3 18.8 C 12.9 km/h
117 03-08-2019 09:40:00 18.8 C 12.56 g/m*3 18.8 C 9.7 km/h
118 03-08-2019 09:45:00 18.8 C 12.56 g/m*3 18.8 C 9.7 km/h
119 03-08-2019 09:50:00 18.9 C 12.64 g/m*3 18.9 C 12.9 km/h
120 03-08-2019 09:55:00 18.9 C 12.64 g/m*3 18.9 C 9.7 km/h
121 03-08-2019 10:00:00 19.1 C 12.62 g/m*3 19.1 C 12.9 km/h
122 03-08-2019 10:05:00 19.2 C 12.53 g/m*3 19.2 C 14.5 km/h
123 03-08-2019 10:10:00 19.3 C 12.61 g/m*3 19.3 C 8.1 km/h
124 03-08-2019 10:15:00 19.4 C 12.68 g/m*3 19.4 C 11.3 km/h
125 03-08-2019 10:20:00 19.7 C 12.91 g/m*3 19.7 C 12.9 km/h
Sensor: Nr:Datum:Temp:Abs-Feuchte:Windchill:Wind:
Aussen-T/F 126 03-08-2019 10:25:00 19.9 C 13.06 g/m*3 19.9 C 12.9 km/h
127 03-08-2019 10:30:00 19.8 C 12.81 g/m*3 19.8 C 9.7 km/h
128 03-08-2019 10:35:00 19.8 C 12.81 g/m*3 19.8 C 12.9 km/h
129 03-08-2019 10:40:00 19.7 C 12.91 g/m*3 19.7 C 12.9 km/h
130 03-08-2019 10:45:00 19.8 C 12.64 g/m*3 19.8 C 9.7 km/h
131 03-08-2019 10:50:00 19.8 C 12.64 g/m*3 19.8 C 9.7 km/h
132 03-08-2019 10:55:00 19.9 C 12.89 g/m*3 19.9 C 8.1 km/h
133 03-08-2019 11:00:00 19.9 C 12.71 g/m*3 19.9 C 11.3 km/h
134 03-08-2019 11:05:00 20 C 12.79 g/m*3 20 C 8.1 km/h
135 03-08-2019 11:10:00 20 C 12.96 g/m*3 20 C 9.7 km/h
136 03-08-2019 11:15:00 20.1 C 12.86 g/m*3 20.1 C 11.3 km/h
137 03-08-2019 11:20:00 20.2 C 12.76 g/m*3 20.2 C 11.3 km/h
138 03-08-2019 11:25:00 20.3 C 12.84 g/m*3 20.3 C 12.9 km/h
139 03-08-2019 11:30:00 20.3 C 12.84 g/m*3 20.3 C 11.3 km/h
140 03-08-2019 11:35:00 20.4 C 13.09 g/m*3 20.4 C 11.3 km/h
141 03-08-2019 11:40:00 20.7 C 13.14 g/m*3 20.7 C 12.9 km/h
142 03-08-2019 11:45:00 20.8 C 13.04 g/m*3 20.8 C 11.3 km/h
143 03-08-2019 11:50:00 20.8 C 12.86 g/m*3 20.8 C 12.9 km/h
144 03-08-2019 11:55:00 20.8 C 13.04 g/m*3 20.8 C 9.7 km/h
145 03-08-2019 12:00:00 20.8 C 12.86 g/m*3 20.8 C 8.1 km/h
146 03-08-2019 12:05:00 21 C 13.01 g/m*3 21 C 8.1 km/h
147 03-08-2019 12:10:00 21.3 C 12.86 g/m*3 21.3 C 11.3 km/h
148 03-08-2019 12:15:00 21.3 C 13.05 g/m*3 21.3 C 8.1 km/h
149 03-08-2019 12:20:00 21.4 C 12.75 g/m*3 21.4 C 11.3 km/h
150 03-08-2019 12:25:00 21.6 C 12.52 g/m*3 21.6 C 11.3 km/h
Sensor: Nr:Datum:Temp:Abs-Feuchte:Windchill:Wind:
Aussen-T/F 151 03-08-2019 12:30:00 21.8 C 12.66 g/m*3 21.8 C 11.3 km/h
152 03-08-2019 12:35:00 21.9 C 12.54 g/m*3 21.9 C 9.7 km/h
153 03-08-2019 12:40:00 21.9 C 12.54 g/m*3 21.9 C 11.3 km/h
154 03-08-2019 12:45:00 21.9 C 12.35 g/m*3 21.9 C 11.3 km/h
155 03-08-2019 12:50:00 21.9 C 12.35 g/m*3 21.9 C 11.3 km/h
156 03-08-2019 12:55:00 21.9 C 12.35 g/m*3 21.9 C 16.1 km/h
157 03-08-2019 13:00:00 21.9 C 12.54 g/m*3 21.9 C 9.7 km/h
158 03-08-2019 13:05:00 21.9 C 12.74 g/m*3 21.9 C 6.4 km/h
159 03-08-2019 13:10:00 21.9 C 12.74 g/m*3 21.9 C 6.4 km/h
160 03-08-2019 13:15:00 22.2 C 12.96 g/m*3 22.2 C 11.3 km/h
161 03-08-2019 13:20:00 22.3 C 12.44 g/m*3 22.3 C 12.9 km/h
162 03-08-2019 13:25:00 22.3 C 12.64 g/m*3 22.3 C 12.9 km/h
163 03-08-2019 13:30:00 22.3 C 12.64 g/m*3 22.3 C 11.3 km/h
164 03-08-2019 13:35:00 22.3 C 13.43 g/m*3 22.3 C 16.1 km/h
165 03-08-2019 13:40:00 22 C 13.2 g/m*3 22 C 12.9 km/h
166 03-08-2019 13:45:00 21.9 C 13.31 g/m*3 21.9 C 6.4 km/h
167 03-08-2019 13:50:00 21.8 C 13.05 g/m*3 21.8 C 16.1 km/h
168 03-08-2019 13:55:00 21.8 C 13.24 g/m*3 21.8 C 9.7 km/h
169 03-08-2019 14:00:00 21.7 C 13.16 g/m*3 21.7 C 11.3 km/h
170 03-08-2019 14:05:00 21.7 C 13.35 g/m*3 21.7 C 9.7 km/h
171 03-08-2019 14:10:00 21.6 C 12.9 g/m*3 21.6 C 8.1 km/h
172 03-08-2019 14:15:00 21.7 C 12.97 g/m*3 21.7 C 6.4 km/h
173 03-08-2019 14:20:00 21.8 C 12.85 g/m*3 21.8 C 9.7 km/h
174 03-08-2019 14:25:00 22 C 12.81 g/m*3 22 C 11.3 km/h
175 03-08-2019 14:30:00 22.1 C 12.69 g/m*3 22.1 C 9.7 km/h
Sensor: Nr:Datum:Temp:Abs-Feuchte:Windchill:Wind:
Aussen-T/F 176 03-08-2019 14:35:00 22.3 C 12.83 g/m*3 22.3 C 8.1 km/h
177 03-08-2019 14:40:00 22.5 C 12.78 g/m*3 22.5 C 12.9 km/h
178 03-08-2019 14:45:00 22.8 C 13 g/m*3 22.8 C 16.1 km/h
179 03-08-2019 14:50:00 23.1 C 12.82 g/m*3 23.1 C 9.7 km/h
180 03-08-2019 14:55:00 23.2 C 12.89 g/m*3 23.2 C 12.9 km/h
181 03-08-2019 15:00:00 23.5 C 12.69 g/m*3 23.5 C 16.1 km/h
182 03-08-2019 15:05:00 23.4 C 12.2 g/m*3 23.4 C 14.5 km/h
183 03-08-2019 15:10:00 23.4 C 11.78 g/m*3 23.4 C 8.1 km/h
184 03-08-2019 15:15:00 23.7 C 12.41 g/m*3 23.7 C 6.4 km/h
185 03-08-2019 15:20:00 23.9 C 11.9 g/m*3 23.9 C 12.9 km/h
186 03-08-2019 15:25:00 23.7 C 11.98 g/m*3 23.7 C 11.3 km/h
187 03-08-2019 15:30:00 23.6 C 12.76 g/m*3 23.6 C 14.5 km/h
188 03-08-2019 15:35:00 23.6 C 12.76 g/m*3 23.6 C 16.1 km/h
189 03-08-2019 15:40:00 23.7 C 12.83 g/m*3 23.7 C 8.1 km/h
190 03-08-2019 15:45:00 24.2 C 12.76 g/m*3 24.2 C 12.9 km/h
191 03-08-2019 15:50:00 24.4 C 13.13 g/m*3 24.4 C 12.9 km/h
192 03-08-2019 15:55:00 24.6 C 12.6 g/m*3 24.6 C 14.5 km/h
193 03-08-2019 16:00:00 24.7 C 12.68 g/m*3 24.7 C 11.3 km/h
194 03-08-2019 16:05:00 24.9 C 12.59 g/m*3 24.9 C 11.3 km/h
195 03-08-2019 16:10:00 24.9 C 12.36 g/m*3 24.9 C 9.7 km/h
196 03-08-2019 16:15:00 25 C 12.2 g/m*3 25 C 11.3 km/h
197 03-08-2019 16:20:00 25.1 C 12.5 g/m*3 25.1 C 8.1 km/h
198 03-08-2019 16:25:00 25.1 C 12.5 g/m*3 25.1 C 14.5 km/h
199 03-08-2019 16:30:00 25.2 C 12.34 g/m*3 25.2 C 11.3 km/h
200 03-08-2019 16:35:00 25.4 C 12.24 g/m*3 25.4 C 19.3 km/h
Sensor: Nr:Datum:Temp:Abs-Feuchte:Windchill:Wind:
Aussen-T/F 201 03-08-2019 16:40:00 25.3 C 12.17 g/m*3 25.3 C 12.9 km/h
202 03-08-2019 16:45:00 25.4 C 12.24 g/m*3 25.4 C 11.3 km/h
203 03-08-2019 16:50:00 25.5 C 12.31 g/m*3 25.5 C 14.5 km/h
204 03-08-2019 16:55:00 25.5 C 12.07 g/m*3 25.5 C 12.9 km/h
205 03-08-2019 17:00:00 25.6 C 12.38 g/m*3 25.6 C 12.9 km/h
206 03-08-2019 17:05:00 25.7 C 12.45 g/m*3 25.7 C 19.3 km/h
207 03-08-2019 17:10:00 25.7 C 12.21 g/m*3 25.7 C 16.1 km/h
208 03-08-2019 17:15:00 25.4 C 12.01 g/m*3 25.4 C 12.9 km/h
209 03-08-2019 17:20:00 25.3 C 11.94 g/m*3 25.3 C 12.9 km/h
210 03-08-2019 17:25:00 25.2 C 12.11 g/m*3 25.2 C 11.3 km/h
211 03-08-2019 17:30:00 25.2 C 12.11 g/m*3 25.2 C 9.7 km/h
212 03-08-2019 17:35:00 25.3 C 11.94 g/m*3 25.3 C 12.9 km/h
213 03-08-2019 17:40:00 25.4 C 12.01 g/m*3 25.4 C 9.7 km/h
214 03-08-2019 17:45:00 25.7 C 11.73 g/m*3 25.7 C 11.3 km/h
215 03-08-2019 17:50:00 25.7 C 11.97 g/m*3 25.7 C 11.3 km/h
216 03-08-2019 17:55:00 25.7 C 11.97 g/m*3 25.7 C 11.3 km/h
217 03-08-2019 18:00:00 25.6 C 11.9 g/m*3 25.6 C 12.9 km/h
218 03-08-2019 18:05:00 25.6 C 11.9 g/m*3 25.6 C 9.7 km/h
219 03-08-2019 18:10:00 25.7 C 11.97 g/m*3 25.7 C 16.1 km/h
220 03-08-2019 18:15:00 25.6 C 12.14 g/m*3 25.6 C 11.3 km/h
221 03-08-2019 18:20:00 25.6 C 12.14 g/m*3 25.6 C 6.4 km/h
222 03-08-2019 18:25:00 25.6 C 11.9 g/m*3 25.6 C 11.3 km/h
223 03-08-2019 18:30:00 25.6 C 11.9 g/m*3 25.6 C 11.3 km/h
224 03-08-2019 18:35:00 25.6 C 12.14 g/m*3 25.6 C 9.7 km/h
225 03-08-2019 18:40:00 25.3 C 12.17 g/m*3 25.3 C 14.5 km/h
Sensor: Nr:Datum:Temp:Abs-Feuchte:Windchill:Wind:
Aussen-T/F 226 03-08-2019 18:45:00 25.2 C 12.11 g/m*3 25.2 C 12.9 km/h
227 03-08-2019 18:50:00 25.1 C 12.04 g/m*3 25.1 C 11.3 km/h
228 03-08-2019 18:55:00 25.1 C 12.27 g/m*3 25.1 C 14.5 km/h
229 03-08-2019 19:00:00 25.1 C 12.27 g/m*3 25.1 C 9.7 km/h
230 03-08-2019 19:05:00 25.1 C 12.27 g/m*3 25.1 C 11.3 km/h
231 03-08-2019 19:10:00 24.9 C 12.13 g/m*3 24.9 C 9.7 km/h
232 03-08-2019 19:15:00 24.8 C 12.06 g/m*3 24.8 C 11.3 km/h
233 03-08-2019 19:20:00 24.6 C 12.15 g/m*3 24.6 C 12.9 km/h
234 03-08-2019 19:25:00 24.3 C 11.95 g/m*3 24.3 C 14.5 km/h
235 03-08-2019 19:30:00 24.1 C 12.03 g/m*3 24.1 C 11.3 km/h
236 03-08-2019 19:35:00 23.9 C 12.11 g/m*3 23.9 C 12.9 km/h
237 03-08-2019 19:40:00 23.8 C 12.05 g/m*3 23.8 C 9.7 km/h
238 03-08-2019 19:45:00 23.8 C 11.83 g/m*3 23.8 C 12.9 km/h
239 03-08-2019 19:50:00 23.7 C 11.98 g/m*3 23.7 C 6.4 km/h
240 03-08-2019 19:55:00 23.6 C 11.91 g/m*3 23.6 C 11.3 km/h
241 03-08-2019 20:00:00 23.5 C 11.84 g/m*3 23.5 C 9.7 km/h
242 03-08-2019 20:05:00 23.4 C 11.99 g/m*3 23.4 C 11.3 km/h
243 03-08-2019 20:10:00 23.2 C 12.06 g/m*3 23.2 C 12.9 km/h
244 03-08-2019 20:15:00 23 C 12.13 g/m*3 23 C 8.1 km/h
245 03-08-2019 20:20:00 22.9 C 12.06 g/m*3 22.9 C 8.1 km/h
246 03-08-2019 20:25:00 22.7 C 12.12 g/m*3 22.7 C 8.1 km/h
247 03-08-2019 20:30:00 22.6 C 12.05 g/m*3 22.6 C 6.4 km/h
248 03-08-2019 20:35:00 22.3 C 12.05 g/m*3 22.3 C 8.1 km/h
249 03-08-2019 20:40:00 22.2 C 11.98 g/m*3 22.2 C 6.4 km/h
250 03-08-2019 20:45:00 22 C 12.03 g/m*3 22 C 4.8 km/h
Sensor: Nr:Datum:Temp:Abs-Feuchte:Windchill:Wind:
Aussen-T/F 251 03-08-2019 20:50:00 21.9 C 11.96 g/m*3 21.9 C 3.2 km/h
252 03-08-2019 20:55:00 21.7 C 12.02 g/m*3 21.7 C 1.6 km/h
253 03-08-2019 21:00:00 21.5 C 11.88 g/m*3 21.5 C 3.2 km/h
254 03-08-2019 21:05:00 21.3 C 11.93 g/m*3 21.3 C 6.4 km/h
255 03-08-2019 21:10:00 21.1 C 11.79 g/m*3 21.1 C 3.2 km/h
256 03-08-2019 21:15:00 20.9 C 11.84 g/m*3 20.9 C 3.2 km/h
257 03-08-2019 21:20:00 20.8 C 11.95 g/m*3 20.8 C 6.4 km/h
258 03-08-2019 21:25:00 20.6 C 11.63 g/m*3 20.6 C 6.4 km/h
259 03-08-2019 21:30:00 20.5 C 11.74 g/m*3 20.5 C 4.8 km/h
260 03-08-2019 21:35:00 20.3 C 11.61 g/m*3 20.3 C 8.1 km/h
261 03-08-2019 21:40:00 20.2 C 11.54 g/m*3 20.2 C 3.2 km/h
262 03-08-2019 21:45:00 20.1 C 11.65 g/m*3 20.1 C 0 km/h
263 03-08-2019 21:50:00 19.8 C 11.61 g/m*3 19.8 C 0 km/h
264 03-08-2019 21:55:00 19.6 C 11.65 g/m*3 19.6 C 1.6 km/h
265 03-08-2019 22:00:00 19.2 C 11.54 g/m*3 19.2 C 0 km/h
266 03-08-2019 22:05:00 18.9 C 11.5 g/m*3 18.9 C 0 km/h
267 03-08-2019 22:10:00 18.6 C 11.46 g/m*3 18.6 C 1.6 km/h
268 03-08-2019 22:15:00 18.4 C 11.48 g/m*3 18.4 C 0 km/h
269 03-08-2019 22:20:00 18.2 C 11.35 g/m*3 18.2 C 0 km/h
270 03-08-2019 22:25:00 18.1 C 11.43 g/m*3 18.1 C 0 km/h
271 03-08-2019 22:30:00 17.9 C 11.45 g/m*3 17.9 C 0 km/h
272 03-08-2019 22:35:00 17.8 C 11.38 g/m*3 17.8 C 0 km/h
273 03-08-2019 22:40:00 17.7 C 11.47 g/m*3 17.7 C 0 km/h
274 03-08-2019 22:45:00 17.6 C 11.4 g/m*3 17.6 C 0 km/h
275 03-08-2019 22:50:00 17.5 C 11.48 g/m*3 17.5 C 0 km/h
Sensor: Nr:Datum:Temp:Abs-Feuchte:Windchill:Wind:
Aussen-T/F 276 03-08-2019 22:55:00 17.4 C 11.56 g/m*3 17.4 C 0 km/h
277 03-08-2019 23:00:00 17.3 C 11.49 g/m*3 17.3 C 0 km/h
278 03-08-2019 23:05:00 17.3 C 11.49 g/m*3 17.3 C 0 km/h
279 03-08-2019 23:10:00 17.2 C 11.57 g/m*3 17.2 C 0 km/h
280 03-08-2019 23:15:00 17.2 C 11.57 g/m*3 17.2 C 0 km/h
281 03-08-2019 23:20:00 17.1 C 11.65 g/m*3 17.1 C 0 km/h
282 03-08-2019 23:25:00 17.1 C 11.65 g/m*3 17.1 C 0 km/h
283 03-08-2019 23:30:00 17.1 C 11.65 g/m*3 17.1 C 0 km/h
284 03-08-2019 23:35:00 17 C 11.43 g/m*3 17 C 0 km/h
285 03-08-2019 23:40:00 16.9 C 11.36 g/m*3 16.9 C 0 km/h
286 03-08-2019 23:45:00 16.9 C 11.51 g/m*3 16.9 C 0 km/h
287 03-08-2019 23:50:00 16.8 C 11.44 g/m*3 16.8 C 0 km/h
288 03-08-2019 23:55:00 16.7 C 11.37 g/m*3 16.7 C 0 km/h
289 04-08-2019 00:00:00 16.7 C 11.37 g/m*3 16.7 C 0 km/h
290 04-08-2019 00:05:00 16.6 C 11.44 g/m*3 16.6 C 0 km/h
291 04-08-2019 00:10:00 16.5 C 11.37 g/m*3 16.5 C 0 km/h
292 04-08-2019 00:15:00 16.4 C 11.31 g/m*3 16.4 C 0 km/h
293 04-08-2019 00:20:00 16.3 C 11.24 g/m*3 16.3 C 0 km/h
294 04-08-2019 00:25:00 16.3 C 11.24 g/m*3 16.3 C 0 km/h
295 04-08-2019 00:30:00 16.2 C 11.31 g/m*3 16.2 C 0 km/h
296 04-08-2019 00:35:00 16.1 C 11.38 g/m*3 16.1 C 0 km/h
297 04-08-2019 00:40:00 16.1 C 11.38 g/m*3 16.1 C 0 km/h
298 04-08-2019 00:45:00 15.9 C 11.24 g/m*3 15.9 C 0 km/h
299 04-08-2019 00:50:00 15.8 C 11.17 g/m*3 15.8 C 0 km/h
300 04-08-2019 00:55:00 15.8 C 11.17 g/m*3 15.8 C 0 km/h
Sensor: Nr:Datum:Temp:Abs-Feuchte:Windchill:Wind:
Aussen-T/F 301 04-08-2019 01:00:00 15.7 C 11.24 g/m*3 15.7 C 0 km/h
302 04-08-2019 01:05:00 15.6 C 11.17 g/m*3 15.6 C 0 km/h
303 04-08-2019 01:10:00 15.6 C 11.17 g/m*3 15.6 C 0 km/h
304 04-08-2019 01:15:00 15.4 C 11.17 g/m*3 15.4 C 0 km/h
305 04-08-2019 01:20:00 15.3 C 11.1 g/m*3 15.3 C 0 km/h
306 04-08-2019 01:25:00 15.2 C 11.03 g/m*3 15.2 C 0 km/h
307 04-08-2019 01:30:00 15.1 C 11.09 g/m*3 15.1 C 0 km/h
308 04-08-2019 01:35:00 14.9 C 10.96 g/m*3 14.9 C 0 km/h
309 04-08-2019 01:40:00 14.8 C 10.89 g/m*3 14.8 C 0 km/h
310 04-08-2019 01:45:00 14.7 C 10.95 g/m*3 14.7 C 0 km/h
311 04-08-2019 01:50:00 14.6 C 10.89 g/m*3 14.6 C 0 km/h
312 04-08-2019 01:55:00 14.6 C 10.89 g/m*3 14.6 C 0 km/h
313 04-08-2019 02:00:00 14.4 C 10.75 g/m*3 14.4 C 0 km/h
314 04-08-2019 02:05:00 14.3 C 10.81 g/m*3 14.3 C 0 km/h
315 04-08-2019 02:10:00 14.3 C 10.81 g/m*3 14.3 C 0 km/h
316 04-08-2019 02:15:00 14.2 C 10.75 g/m*3 14.2 C 0 km/h
317 04-08-2019 02:20:00 14.1 C 10.68 g/m*3 14.1 C 0 km/h
318 04-08-2019 02:25:00 14 C 10.74 g/m*3 14 C 0 km/h
319 04-08-2019 02:30:00 13.9 C 10.67 g/m*3 13.9 C 0 km/h
320 04-08-2019 02:35:00 13.9 C 10.67 g/m*3 13.9 C 0 km/h
321 04-08-2019 02:40:00 13.8 C 10.72 g/m*3 13.8 C 0 km/h
322 04-08-2019 02:45:00 13.7 C 10.54 g/m*3 13.7 C 0 km/h
323 04-08-2019 02:50:00 13.7 C 10.66 g/m*3 13.7 C 0 km/h
324 04-08-2019 02:55:00 13.7 C 10.66 g/m*3 13.7 C 0 km/h
325 04-08-2019 03:00:00 13.6 C 10.59 g/m*3 13.6 C 0 km/h
Sensor: Nr:Datum:Temp:Abs-Feuchte:Windchill:Wind:
Aussen-T/F 326 04-08-2019 03:05:00 13.5 C 10.53 g/m*3 13.5 C 0 km/h
327 04-08-2019 03:10:00 13.4 C 10.46 g/m*3 13.4 C 0 km/h
328 04-08-2019 03:15:00 13.3 C 10.51 g/m*3 13.3 C 0 km/h
329 04-08-2019 03:20:00 13.3 C 10.51 g/m*3 13.3 C 0 km/h
330 04-08-2019 03:25:00 13.3 C 10.51 g/m*3 13.3 C 0 km/h
331 04-08-2019 03:30:00 13.3 C 10.51 g/m*3 13.3 C 0 km/h
332 04-08-2019 03:35:00 13.2 C 10.45 g/m*3 13.2 C 0 km/h
333 04-08-2019 03:40:00 13.2 C 10.45 g/m*3 13.2 C 0 km/h
334 04-08-2019 03:45:00 13.2 C 10.45 g/m*3 13.2 C 0 km/h
335 04-08-2019 03:50:00 13.2 C 10.56 g/m*3 13.2 C 0 km/h
336 04-08-2019 03:55:00 13.1 C 10.5 g/m*3 13.1 C 0 km/h
337 04-08-2019 04:00:00 13.1 C 10.5 g/m*3 13.1 C 0 km/h
338 04-08-2019 04:05:00 13.1 C 10.5 g/m*3 13.1 C 0 km/h
339 04-08-2019 04:10:00 12.9 C 10.26 g/m*3 12.9 C 0 km/h
340 04-08-2019 04:15:00 12.9 C 10.37 g/m*3 12.9 C 0 km/h
341 04-08-2019 04:20:00 12.9 C 10.37 g/m*3 12.9 C 0 km/h
342 04-08-2019 04:25:00 12.9 C 10.37 g/m*3 12.9 C 0 km/h
343 04-08-2019 04:30:00 12.9 C 10.48 g/m*3 12.9 C 0 km/h
344 04-08-2019 04:35:00 12.9 C 10.37 g/m*3 12.9 C 0 km/h
345 04-08-2019 04:40:00 12.8 C 10.3 g/m*3 12.8 C 0 km/h
346 04-08-2019 04:45:00 12.8 C 10.3 g/m*3 12.8 C 0 km/h
347 04-08-2019 04:50:00 12.7 C 10.35 g/m*3 12.7 C 0 km/h
348 04-08-2019 04:55:00 12.7 C 10.24 g/m*3 12.7 C 0 km/h
349 04-08-2019 05:00:00 12.7 C 10.35 g/m*3 12.7 C 0 km/h
350 04-08-2019 05:05:00 12.7 C 10.35 g/m*3 12.7 C 0 km/h
Sensor: Nr:Datum:Temp:Abs-Feuchte:Windchill:Wind:
Aussen-T/F 351 04-08-2019 05:10:00 12.6 C 10.29 g/m*3 12.6 C 0 km/h
352 04-08-2019 05:15:00 12.6 C 10.29 g/m*3 12.6 C 0 km/h
353 04-08-2019 05:20:00 12.6 C 10.29 g/m*3 12.6 C 0 km/h
354 04-08-2019 05:25:00 12.5 C 10.22 g/m*3 12.5 C 0 km/h
355 04-08-2019 05:30:00 12.4 C 10.16 g/m*3 12.4 C 0 km/h
356 04-08-2019 05:35:00 12.4 C 10.16 g/m*3 12.4 C 0 km/h
357 04-08-2019 05:40:00 12.4 C 10.16 g/m*3 12.4 C 0 km/h
358 04-08-2019 05:45:00 12.4 C 10.16 g/m*3 12.4 C 0 km/h
359 04-08-2019 05:50:00 12.3 C 10.1 g/m*3 12.3 C 0 km/h
360 04-08-2019 05:55:00 12.3 C 10.1 g/m*3 12.3 C 0 km/h
361 04-08-2019 06:00:00 12.3 C 10.1 g/m*3 12.3 C 0 km/h
362 04-08-2019 06:05:00 12.3 C 10.21 g/m*3 12.3 C 0 km/h
363 04-08-2019 06:10:00 12.3 C 10.1 g/m*3 12.3 C 0 km/h
364 04-08-2019 06:15:00 12.2 C 10.14 g/m*3 12.2 C 0 km/h
365 04-08-2019 06:20:00 12.3 C 10.21 g/m*3 12.3 C 0 km/h
366 04-08-2019 06:25:00 12.3 C 10.21 g/m*3 12.3 C 0 km/h
367 04-08-2019 06:30:00 12.3 C 10.21 g/m*3 12.3 C 0 km/h
368 04-08-2019 06:35:00 12.3 C 10.21 g/m*3 12.3 C 0 km/h
369 04-08-2019 06:40:00 12.4 C 10.27 g/m*3 12.4 C 0 km/h
370 04-08-2019 06:45:00 12.4 C 10.27 g/m*3 12.4 C 0 km/h
371 04-08-2019 06:50:00 12.5 C 10.33 g/m*3 12.5 C 0 km/h
372 04-08-2019 06:55:00 12.5 C 10.33 g/m*3 12.5 C 0 km/h
373 04-08-2019 07:00:00 12.5 C 10.33 g/m*3 12.5 C 0 km/h
374 04-08-2019 07:05:00 12.5 C 10.33 g/m*3 12.5 C 0 km/h
375 04-08-2019 07:10:00 12.5 C 10.33 g/m*3 12.5 C 0 km/h
Sensor: Nr:Datum:Temp:Abs-Feuchte:Windchill:Wind:
Aussen-T/F 376 04-08-2019 07:15:00 12.6 C 10.4 g/m*3 12.6 C 0 km/h
377 04-08-2019 07:20:00 12.6 C 10.4 g/m*3 12.6 C 0 km/h
378 04-08-2019 07:25:00 12.7 C 10.46 g/m*3 12.7 C 0 km/h
379 04-08-2019 07:30:00 12.7 C 10.46 g/m*3 12.7 C 0 km/h
380 04-08-2019 07:35:00 12.8 C 10.64 g/m*3 12.8 C 0 km/h
381 04-08-2019 07:40:00 12.8 C 10.64 g/m*3 12.8 C 0 km/h
382 04-08-2019 07:45:00 12.9 C 10.71 g/m*3 12.9 C 0 km/h
383 04-08-2019 07:50:00 13 C 10.77 g/m*3 13 C 0 km/h
384 04-08-2019 07:55:00 13.1 C 10.84 g/m*3 13.1 C 0 km/h
385 04-08-2019 08:00:00 13.2 C 10.91 g/m*3 13.2 C 0 km/h
386 04-08-2019 08:05:00 13.3 C 10.98 g/m*3 13.3 C 0 km/h
387 04-08-2019 08:10:00 13.4 C 11.04 g/m*3 13.4 C 0 km/h
388 04-08-2019 08:15:00 13.4 C 11.04 g/m*3 13.4 C 0 km/h
389 04-08-2019 08:20:00 13.6 C 11.18 g/m*3 13.6 C 0 km/h
390 04-08-2019 08:25:00 13.7 C 11.25 g/m*3 13.7 C 0 km/h
391 04-08-2019 08:30:00 13.8 C 11.32 g/m*3 13.8 C 0 km/h
392 04-08-2019 08:35:00 13.8 C 11.32 g/m*3 13.8 C 0 km/h
393 04-08-2019 08:40:00 14 C 11.46 g/m*3 14 C 0 km/h
394 04-08-2019 08:45:00 14.1 C 11.53 g/m*3 14.1 C 0 km/h
395 04-08-2019 08:50:00 14.2 C 11.6 g/m*3 14.2 C 0 km/h
396 04-08-2019 08:55:00 14.3 C 11.67 g/m*3 14.3 C 0 km/h
397 04-08-2019 09:00:00 14.5 C 11.82 g/m*3 14.5 C 0 km/h
398 04-08-2019 09:05:00 14.7 C 11.83 g/m*3 14.7 C 0 km/h
399 04-08-2019 09:10:00 14.8 C 11.91 g/m*3 14.8 C 0 km/h
400 04-08-2019 09:15:00 14.9 C 11.98 g/m*3 14.9 C 0 km/h
Sensor: Nr:Datum:Temp:Abs-Feuchte:Windchill:Wind:
Aussen-T/F 401 04-08-2019 09:20:00 15.1 C 12.13 g/m*3 15.1 C 0 km/h
402 04-08-2019 09:25:00 15.2 C 12.2 g/m*3 15.2 C 0 km/h
403 04-08-2019 09:30:00 15.3 C 12.14 g/m*3 15.3 C 0 km/h
404 04-08-2019 09:35:00 15.6 C 12.37 g/m*3 15.6 C 0 km/h
405 04-08-2019 09:40:00 15.7 C 12.31 g/m*3 15.7 C 0 km/h
406 04-08-2019 09:45:00 15.9 C 12.46 g/m*3 15.9 C 3.2 km/h
407 04-08-2019 09:50:00 16.1 C 12.47 g/m*3 16.1 C 1.6 km/h
408 04-08-2019 09:55:00 16.3 C 12.62 g/m*3 16.3 C 3.2 km/h
409 04-08-2019 10:00:00 16.6 C 12.71 g/m*3 16.6 C 3.2 km/h
410 04-08-2019 10:05:00 16.8 C 12.72 g/m*3 16.8 C 1.6 km/h
411 04-08-2019 10:10:00 17 C 12.88 g/m*3 17 C 1.6 km/h
412 04-08-2019 10:15:00 17.2 C 12.89 g/m*3 17.2 C 1.6 km/h
413 04-08-2019 10:20:00 17.4 C 12.89 g/m*3 17.4 C 1.6 km/h
414 04-08-2019 10:25:00 17.8 C 12.75 g/m*3 17.8 C 3.2 km/h
415 04-08-2019 10:30:00 18.2 C 12.75 g/m*3 18.2 C 1.6 km/h
416 04-08-2019 10:35:00 18.6 C 13.21 g/m*3 18.6 C 0 km/h
417 04-08-2019 10:40:00 18.8 C 12.88 g/m*3 18.8 C 6.4 km/h
418 04-08-2019 10:45:00 19.2 C 12.7 g/m*3 19.2 C 6.4 km/h
419 04-08-2019 10:50:00 19.7 C 12.91 g/m*3 19.7 C 6.4 km/h
420 04-08-2019 10:55:00 20 C 12.96 g/m*3 20 C 6.4 km/h
421 04-08-2019 11:00:00 20.3 C 12.84 g/m*3 20.3 C 3.2 km/h
422 04-08-2019 11:05:00 20.6 C 12.71 g/m*3 20.6 C 6.4 km/h
423 04-08-2019 11:10:00 20.7 C 12.78 g/m*3 20.7 C 4.8 km/h
424 04-08-2019 11:15:00 20.9 C 12.57 g/m*3 20.9 C 9.7 km/h
425 04-08-2019 11:20:00 21.2 C 12.79 g/m*3 21.2 C 6.4 km/h
Sensor: Nr:Datum:Temp:Abs-Feuchte:Windchill:Wind:
Aussen-T/F 426 04-08-2019 11:25:00 21.3 C 12.49 g/m*3 21.3 C 6.4 km/h
427 04-08-2019 11:30:00 21.4 C 12.37 g/m*3 21.4 C 1.6 km/h
428 04-08-2019 11:35:00 21.6 C 12.52 g/m*3 21.6 C 4.8 km/h
429 04-08-2019 11:40:00 21.7 C 12.4 g/m*3 21.7 C 3.2 km/h
430 04-08-2019 11:45:00 21.8 C 12.47 g/m*3 21.8 C 4.8 km/h
431 04-08-2019 11:50:00 22 C 12.62 g/m*3 22 C 6.4 km/h
432 04-08-2019 11:55:00 22.3 C 12.44 g/m*3 22.3 C 6.4 km/h
433 04-08-2019 12:00:00 22.4 C 12.51 g/m*3 22.4 C 6.4 km/h
434 04-08-2019 12:05:00 22.6 C 12.46 g/m*3 22.6 C 8.1 km/h
435 04-08-2019 12:10:00 22.8 C 12.4 g/m*3 22.8 C 4.8 km/h
436 04-08-2019 12:15:00 22.8 C 12.4 g/m*3 22.8 C 4.8 km/h
437 04-08-2019 12:20:00 22.9 C 12.47 g/m*3 22.9 C 4.8 km/h
438 04-08-2019 12:25:00 23.1 C 12.82 g/m*3 23.1 C 6.4 km/h
439 04-08-2019 12:30:00 23.3 C 12.55 g/m*3 23.3 C 6.4 km/h
440 04-08-2019 12:35:00 23.5 C 12.48 g/m*3 23.5 C 6.4 km/h
441 04-08-2019 12:40:00 23.7 C 12.41 g/m*3 23.7 C 11.3 km/h
442 04-08-2019 12:45:00 24 C 12.4 g/m*3 24 C 11.3 km/h
443 04-08-2019 12:50:00 24.2 C 12.1 g/m*3 24.2 C 9.7 km/h
444 04-08-2019 12:55:00 24.3 C 12.17 g/m*3 24.3 C 6.4 km/h
445 04-08-2019 13:00:00 24.4 C 12.24 g/m*3 24.4 C 9.7 km/h
446 04-08-2019 13:05:00 24.4 C 12.24 g/m*3 24.4 C 6.4 km/h
447 04-08-2019 13:10:00 24.4 C 12.46 g/m*3 24.4 C 6.4 km/h
448 04-08-2019 13:15:00 24.5 C 12.53 g/m*3 24.5 C 4.8 km/h
449 04-08-2019 13:20:00 24.7 C 12.45 g/m*3 24.7 C 4.8 km/h
450 04-08-2019 13:25:00 24.7 C 12.22 g/m*3 24.7 C 4.8 km/h
Sensor: Nr:Datum:Temp:Abs-Feuchte:Windchill:Wind:
Aussen-T/F 451 04-08-2019 13:30:00 24.8 C 12.06 g/m*3 24.8 C 3.2 km/h
452 04-08-2019 13:35:00 24.8 C 12.06 g/m*3 24.8 C 4.8 km/h
453 04-08-2019 13:40:00 25 C 11.97 g/m*3 25 C 8.1 km/h
454 04-08-2019 13:45:00 25.1 C 12.27 g/m*3 25.1 C 6.4 km/h
455 04-08-2019 13:50:00 25.1 C 11.81 g/m*3 25.1 C 6.4 km/h
456 04-08-2019 13:55:00 25.1 C 11.81 g/m*3 25.1 C 6.4 km/h
457 04-08-2019 14:00:00 25.1 C 12.04 g/m*3 25.1 C 6.4 km/h
458 04-08-2019 14:05:00 25.2 C 12.11 g/m*3 25.2 C 4.8 km/h
459 04-08-2019 14:10:00 25.4 C 11.77 g/m*3 25.4 C 8.1 km/h
460 04-08-2019 14:15:00 25.6 C 11.9 g/m*3 25.6 C 6.4 km/h
461 04-08-2019 14:20:00 25.6 C 11.9 g/m*3 25.6 C 3.2 km/h
462 04-08-2019 14:25:00 25.7 C 11.73 g/m*3 25.7 C 6.4 km/h
463 04-08-2019 14:30:00 25.9 C 11.62 g/m*3 25.9 C 8.1 km/h
464 04-08-2019 14:35:00 26.2 C 11.82 g/m*3 26.2 C 6.4 km/h
465 04-08-2019 14:40:00 26.3 C 11.39 g/m*3 26.3 C 6.4 km/h
466 04-08-2019 14:45:00 26.4 C 11.2 g/m*3 26.4 C 8.1 km/h
467 04-08-2019 14:50:00 26.4 C 11.45 g/m*3 26.4 C 11.3 km/h
468 04-08-2019 14:55:00 26.6 C 11.83 g/m*3 26.6 C 4.8 km/h
469 04-08-2019 15:00:00 26.8 C 11.71 g/m*3 26.8 C 6.4 km/h
470 04-08-2019 15:05:00 26.9 C 11.26 g/m*3 26.9 C 4.8 km/h
471 04-08-2019 15:10:00 27.2 C 10.93 g/m*3 27.2 C 11.3 km/h
472 04-08-2019 15:15:00 27.3 C 11.51 g/m*3 27.3 C 11.3 km/h
473 04-08-2019 15:20:00 27.6 C 11.44 g/m*3 27.6 C 6.4 km/h
474 04-08-2019 15:25:00 28.1 C 11.21 g/m*3 28.1 C 11.3 km/h
475 04-08-2019 15:30:00 28.3 C 10.78 g/m*3 28.3 C 9.7 km/h
Sensor: Nr:Datum:Temp:Abs-Feuchte:Windchill:Wind:
Aussen-T/F 476 04-08-2019 15:35:00 28.6 C 10.96 g/m*3 28.6 C 8.1 km/h
477 04-08-2019 15:40:00 29 C 11.2 g/m*3 29 C 6.4 km/h
478 04-08-2019 15:45:00 29.4 C 10.86 g/m*3 29.4 C 11.3 km/h
479 04-08-2019 15:50:00 29.7 C 11.04 g/m*3 29.7 C 9.7 km/h
480 04-08-2019 15:55:00 29.8 C 11.1 g/m*3 29.8 C 4.8 km/h
481 04-08-2019 16:00:00 29.9 C 10.56 g/m*3 29.9 C 8.1 km/h
482 04-08-2019 16:05:00 30.1 C 10.98 g/m*3 30.1 C 11.3 km/h
483 04-08-2019 16:10:00 30.2 C 10.73 g/m*3 30.2 C 16.1 km/h
484 04-08-2019 16:15:00 30.2 C 10.73 g/m*3 30.2 C 12.9 km/h
485 04-08-2019 16:20:00 30.2 C 11.04 g/m*3 30.2 C 9.7 km/h
486 04-08-2019 16:25:00 29.8 C 10.5 g/m*3 29.8 C 6.4 km/h
487 04-08-2019 16:30:00 29.7 C 11.04 g/m*3 29.7 C 4.8 km/h
488 04-08-2019 16:35:00 29.9 C 10.56 g/m*3 29.9 C 6.4 km/h
489 04-08-2019 16:40:00 30.1 C 10.06 g/m*3 30.1 C 11.3 km/h
490 04-08-2019 16:45:00 30.1 C 9.76 g/m*3 30.1 C 11.3 km/h
491 04-08-2019 16:50:00 30.1 C 9.76 g/m*3 30.1 C 8.1 km/h
492 04-08-2019 16:55:00 30.1 C 10.06 g/m*3 30.1 C 6.4 km/h
493 04-08-2019 17:00:00 30.2 C 10.42 g/m*3 30.2 C 4.8 km/h
494 04-08-2019 17:05:00 30.4 C 9.92 g/m*3 30.4 C 6.4 km/h
495 04-08-2019 17:10:00 30.7 C 10.39 g/m*3 30.7 C 6.4 km/h
496 04-08-2019 17:15:00 30.9 C 10.19 g/m*3 30.9 C 11.3 km/h
497 04-08-2019 17:20:00 31 C 10.24 g/m*3 31 C 9.7 km/h
498 04-08-2019 17:25:00 31.1 C 10.3 g/m*3 31.1 C 8.1 km/h
499 04-08-2019 17:30:00 31.2 C 10.35 g/m*3 31.2 C 12.9 km/h
500 04-08-2019 17:35:00 31.2 C 10.35 g/m*3 31.2 C 8.1 km/h
Sensor: Nr:Datum:Temp:Abs-Feuchte:Windchill:Wind:
Aussen-T/F 501 04-08-2019 17:40:00 31.3 C 10.08 g/m*3 31.3 C 6.4 km/h
502 04-08-2019 17:45:00 31.3 C 10.08 g/m*3 31.3 C 9.7 km/h
503 04-08-2019 17:50:00 31.2 C 10.03 g/m*3 31.2 C 6.4 km/h
504 04-08-2019 17:55:00 31 C 10.56 g/m*3 31 C 11.3 km/h
505 04-08-2019 18:00:00 30.8 C 10.76 g/m*3 30.8 C 6.4 km/h
506 04-08-2019 18:05:00 30.8 C 10.45 g/m*3 30.8 C 8.1 km/h
507 04-08-2019 18:10:00 30.7 C 10.71 g/m*3 30.7 C 4.8 km/h
508 04-08-2019 18:15:00 30.7 C 10.71 g/m*3 30.7 C 6.4 km/h
509 04-08-2019 18:20:00 30.8 C 10.76 g/m*3 30.8 C 6.4 km/h
510 04-08-2019 18:25:00 31.2 C 11 g/m*3 31.2 C 9.7 km/h
511 04-08-2019 18:30:00 31.2 C 11.32 g/m*3 31.2 C 11.3 km/h
512 04-08-2019 18:35:00 31 C 10.88 g/m*3 31 C 8.1 km/h
513 04-08-2019 18:40:00 30.7 C 10.71 g/m*3 30.7 C 8.1 km/h
514 04-08-2019 18:45:00 30.6 C 10.34 g/m*3 30.6 C 4.8 km/h
515 04-08-2019 18:50:00 30.6 C 10.34 g/m*3 30.6 C 4.8 km/h
516 04-08-2019 18:55:00 30.4 C 10.23 g/m*3 30.4 C 8.1 km/h
517 04-08-2019 19:00:00 30.2 C 10.42 g/m*3 30.2 C 8.1 km/h
518 04-08-2019 19:05:00 29.8 C 10.5 g/m*3 29.8 C 4.8 km/h
519 04-08-2019 19:10:00 29.5 C 10.33 g/m*3 29.5 C 4.8 km/h
520 04-08-2019 19:15:00 29.3 C 11.39 g/m*3 29.3 C 1.6 km/h
521 04-08-2019 19:20:00 29.2 C 11.03 g/m*3 29.2 C 3.2 km/h
522 04-08-2019 19:25:00 28.9 C 11.71 g/m*3 28.9 C 1.6 km/h
523 04-08-2019 19:30:00 28.8 C 12.5 g/m*3 28.8 C 0 km/h
524 04-08-2019 19:35:00 28.5 C 12.02 g/m*3 28.5 C 0 km/h
525 04-08-2019 19:40:00 28.2 C 13.47 g/m*3 28.2 C 0 km/h
Sensor: Nr:Datum:Temp:Abs-Feuchte:Windchill:Wind:
Aussen-T/F 526 04-08-2019 19:45:00 27.8 C 12.37 g/m*3 27.8 C 0 km/h
527 04-08-2019 19:50:00 27.6 C 12.77 g/m*3 27.6 C 0 km/h
528 04-08-2019 19:55:00 27.3 C 12.56 g/m*3 27.3 C 0 km/h
529 04-08-2019 20:00:00 27.1 C 12.42 g/m*3 27.1 C 0 km/h
530 04-08-2019 20:05:00 26.8 C 12.22 g/m*3 26.8 C 0 km/h
531 04-08-2019 20:10:00 26.7 C 12.91 g/m*3 26.7 C 0 km/h
532 04-08-2019 20:15:00 26.6 C 12.59 g/m*3 26.6 C 0 km/h
533 04-08-2019 20:20:00 26.3 C 12.63 g/m*3 26.3 C 0 km/h
534 04-08-2019 20:25:00 26.1 C 12.49 g/m*3 26.1 C 0 km/h
535 04-08-2019 20:30:00 25.8 C 12.52 g/m*3 25.8 C 0 km/h
536 04-08-2019 20:35:00 25.5 C 12.55 g/m*3 25.5 C 0 km/h
537 04-08-2019 20:40:00 25.1 C 12.27 g/m*3 25.1 C 0 km/h
538 04-08-2019 20:45:00 24.8 C 12.52 g/m*3 24.8 C 0 km/h
539 04-08-2019 20:50:00 24.4 C 12.24 g/m*3 24.4 C 0 km/h
540 04-08-2019 20:55:00 24.2 C 12.32 g/m*3 24.2 C 0 km/h
541 04-08-2019 21:00:00 23.8 C 12.05 g/m*3 23.8 C 0 km/h
542 04-08-2019 21:05:00 23.5 C 12.05 g/m*3 23.5 C 0 km/h
543 04-08-2019 21:10:00 23.2 C 12.06 g/m*3 23.2 C 0 km/h
544 04-08-2019 21:15:00 22.9 C 12.06 g/m*3 22.9 C 0 km/h
545 04-08-2019 21:20:00 22.6 C 12.05 g/m*3 22.6 C 0 km/h
546 04-08-2019 21:25:00 22.4 C 12.11 g/m*3 22.4 C 1.6 km/h
547 04-08-2019 21:30:00 22.2 C 11.98 g/m*3 22.2 C 0 km/h
548 04-08-2019 21:35:00 22.1 C 11.91 g/m*3 22.1 C 0 km/h
549 04-08-2019 21:40:00 22 C 12.03 g/m*3 22 C 1.6 km/h
550 04-08-2019 21:45:00 21.9 C 11.96 g/m*3 21.9 C 0 km/h
Sensor: Nr:Datum:Temp:Abs-Feuchte:Windchill:Wind:
Aussen-T/F 551 04-08-2019 21:50:00 21.8 C 12.09 g/m*3 21.8 C 0 km/h
552 04-08-2019 21:55:00 21.8 C 12.28 g/m*3 21.8 C 0 km/h
553 04-08-2019 22:00:00 21.8 C 12.28 g/m*3 21.8 C 0 km/h
554 04-08-2019 22:05:00 21.7 C 12.21 g/m*3 21.7 C 0 km/h
555 04-08-2019 22:10:00 21.8 C 12.28 g/m*3 21.8 C 0 km/h
556 04-08-2019 22:15:00 21.8 C 12.09 g/m*3 21.8 C 0 km/h
557 04-08-2019 22:20:00 21.8 C 12.09 g/m*3 21.8 C 4.8 km/h
558 04-08-2019 22:25:00 22 C 12.23 g/m*3 22 C 0 km/h
559 04-08-2019 22:30:00 22.1 C 12.49 g/m*3 22.1 C 1.6 km/h
560 04-08-2019 22:35:00 22.1 C 12.3 g/m*3 22.1 C 0 km/h
561 04-08-2019 22:40:00 22.1 C 12.49 g/m*3 22.1 C 0 km/h
562 04-08-2019 22:45:00 22.1 C 12.49 g/m*3 22.1 C 4.8 km/h
563 04-08-2019 22:50:00 22.1 C 12.49 g/m*3 22.1 C 0 km/h
564 04-08-2019 22:55:00 22.1 C 12.49 g/m*3 22.1 C 1.6 km/h
565 04-08-2019 23:00:00 22.1 C 12.49 g/m*3 22.1 C 1.6 km/h
566 04-08-2019 23:05:00 22.1 C 12.3 g/m*3 22.1 C 3.2 km/h
567 04-08-2019 23:10:00 22.2 C 12.37 g/m*3 22.2 C 1.6 km/h
568 04-08-2019 23:15:00 22.3 C 12.44 g/m*3 22.3 C 0 km/h
569 04-08-2019 23:20:00 22.3 C 12.24 g/m*3 22.3 C 1.6 km/h
570 04-08-2019 23:25:00 22.3 C 12.05 g/m*3 22.3 C 6.4 km/h
571 04-08-2019 23:30:00 22.4 C 12.11 g/m*3 22.4 C 1.6 km/h
572 04-08-2019 23:35:00 22.4 C 11.92 g/m*3 22.4 C 4.8 km/h
573 04-08-2019 23:40:00 22.5 C 11.98 g/m*3 22.5 C 0 km/h
574 04-08-2019 23:45:00 22.6 C 11.85 g/m*3 22.6 C 1.6 km/h
575 04-08-2019 23:50:00 22.7 C 12.12 g/m*3 22.7 C 1.6 km/h
Sensor: Nr:Datum:Temp:Abs-Feuchte:Windchill:Wind:
Aussen-T/F 576 04-08-2019 23:55:00 22.8 C 11.99 g/m*3 22.8 C 6.4 km/h
577 05-08-2019 00:00:00 22.8 C 11.99 g/m*3 22.8 C 3.2 km/h
578 05-08-2019 00:05:00 22.9 C 11.85 g/m*3 22.9 C 3.2 km/h
579 05-08-2019 00:10:00 22.9 C 11.65 g/m*3 22.9 C 1.6 km/h
580 05-08-2019 00:15:00 22.9 C 11.85 g/m*3 22.9 C 3.2 km/h
581 05-08-2019 00:20:00 23 C 11.72 g/m*3 23 C 1.6 km/h
582 05-08-2019 00:25:00 23 C 11.92 g/m*3 23 C 1.6 km/h
583 05-08-2019 00:30:00 22.9 C 11.65 g/m*3 22.9 C 1.6 km/h
584 05-08-2019 00:35:00 22.9 C 11.44 g/m*3 22.9 C 1.6 km/h
585 05-08-2019 00:40:00 22.9 C 11.65 g/m*3 22.9 C 0 km/h
586 05-08-2019 00:45:00 22.8 C 11.99 g/m*3 22.8 C 0 km/h
587 05-08-2019 00:50:00 22.8 C 11.79 g/m*3 22.8 C 0 km/h
588 05-08-2019 00:55:00 22.7 C 12.12 g/m*3 22.7 C 0 km/h
589 05-08-2019 01:00:00 22.6 C 12.05 g/m*3 22.6 C 0 km/h
590 05-08-2019 01:05:00 22.3 C 12.05 g/m*3 22.3 C 0 km/h
591 05-08-2019 01:10:00 22.1 C 11.91 g/m*3 22.1 C 0 km/h
592 05-08-2019 01:15:00 21.9 C 11.96 g/m*3 21.9 C 0 km/h
593 05-08-2019 01:20:00 21.8 C 11.9 g/m*3 21.8 C 0 km/h
594 05-08-2019 01:25:00 21.7 C 11.83 g/m*3 21.7 C 0 km/h
595 05-08-2019 01:30:00 21.6 C 11.95 g/m*3 21.6 C 0 km/h
596 05-08-2019 01:35:00 21.4 C 11.81 g/m*3 21.4 C 0 km/h
597 05-08-2019 01:40:00 21.3 C 11.74 g/m*3 21.3 C 0 km/h
598 05-08-2019 01:45:00 21.2 C 11.86 g/m*3 21.2 C 0 km/h
599 05-08-2019 01:50:00 21.1 C 11.79 g/m*3 21.1 C 0 km/h
600 05-08-2019 01:55:00 20.9 C 11.66 g/m*3 20.9 C 0 km/h
Sensor: Nr:Datum:Temp:Abs-Feuchte:Windchill:Wind:
Aussen-T/F 601 05-08-2019 02:00:00 20.8 C 11.59 g/m*3 20.8 C 0 km/h
602 05-08-2019 02:05:00 20.7 C 11.7 g/m*3 20.7 C 0 km/h
603 05-08-2019 02:10:00 20.6 C 11.81 g/m*3 20.6 C 0 km/h
604 05-08-2019 02:15:00 20.4 C 11.68 g/m*3 20.4 C 0 km/h
605 05-08-2019 02:20:00 20.3 C 11.78 g/m*3 20.3 C 0 km/h
606 05-08-2019 02:25:00 20.3 C 11.78 g/m*3 20.3 C 0 km/h
607 05-08-2019 02:30:00 20.2 C 11.71 g/m*3 20.2 C 0 km/h
608 05-08-2019 02:35:00 20.2 C 11.89 g/m*3 20.2 C 0 km/h
609 05-08-2019 02:40:00 20.1 C 11.82 g/m*3 20.1 C 0 km/h
610 05-08-2019 02:45:00 20 C 11.75 g/m*3 20 C 0 km/h
611 05-08-2019 02:50:00 19.9 C 11.68 g/m*3 19.9 C 0 km/h
612 05-08-2019 02:55:00 19.9 C 11.68 g/m*3 19.9 C 0 km/h
613 05-08-2019 03:00:00 19.8 C 11.61 g/m*3 19.8 C 0 km/h
614 05-08-2019 03:05:00 19.8 C 11.79 g/m*3 19.8 C 0 km/h
615 05-08-2019 03:10:00 19.8 C 11.79 g/m*3 19.8 C 0 km/h
616 05-08-2019 03:15:00 19.7 C 11.72 g/m*3 19.7 C 0 km/h
617 05-08-2019 03:20:00 19.7 C 11.89 g/m*3 19.7 C 0 km/h
618 05-08-2019 03:25:00 19.6 C 11.65 g/m*3 19.6 C 0 km/h
619 05-08-2019 03:30:00 19.6 C 11.82 g/m*3 19.6 C 0 km/h
620 05-08-2019 03:35:00 19.5 C 11.75 g/m*3 19.5 C 0 km/h
621 05-08-2019 03:40:00 19.4 C 11.68 g/m*3 19.4 C 0 km/h
622 05-08-2019 03:45:00 19.4 C 11.85 g/m*3 19.4 C 0 km/h
623 05-08-2019 03:50:00 19.4 C 11.68 g/m*3 19.4 C 0 km/h
624 05-08-2019 03:55:00 19.5 C 11.92 g/m*3 19.5 C 3.2 km/h
625 05-08-2019 04:00:00 19.6 C 12.32 g/m*3 19.6 C 0 km/h
Sensor: Nr:Datum:Temp:Abs-Feuchte:Windchill:Wind:
Aussen-T/F 626 05-08-2019 04:05:00 19.6 C 12.49 g/m*3 19.6 C 0 km/h
627 05-08-2019 04:10:00 19.6 C 12.83 g/m*3 19.6 C 0 km/h
628 05-08-2019 04:15:00 19.5 C 12.75 g/m*3 19.5 C 0 km/h
629 05-08-2019 04:20:00 19.3 C 12.61 g/m*3 19.3 C 0 km/h
630 05-08-2019 04:25:00 19.3 C 12.44 g/m*3 19.3 C 0 km/h
631 05-08-2019 04:30:00 19.2 C 12.7 g/m*3 19.2 C 0 km/h
632 05-08-2019 04:35:00 19.2 C 12.7 g/m*3 19.2 C 0 km/h
633 05-08-2019 04:40:00 19.1 C 12.46 g/m*3 19.1 C 0 km/h
634 05-08-2019 04:45:00 19.1 C 12.46 g/m*3 19.1 C 0 km/h
635 05-08-2019 04:50:00 19.1 C 12.46 g/m*3 19.1 C 0 km/h
636 05-08-2019 04:55:00 19.2 C 12.7 g/m*3 19.2 C 0 km/h
637 05-08-2019 05:00:00 19.3 C 12.94 g/m*3 19.3 C 0 km/h
638 05-08-2019 05:05:00 19.3 C 12.94 g/m*3 19.3 C 0 km/h
639 05-08-2019 05:10:00 19.3 C 12.77 g/m*3 19.3 C 0 km/h
640 05-08-2019 05:15:00 19.3 C 12.77 g/m*3 19.3 C 0 km/h
641 05-08-2019 05:20:00 19.3 C 12.77 g/m*3 19.3 C 1.6 km/h
642 05-08-2019 05:25:00 19.3 C 12.77 g/m*3 19.3 C 1.6 km/h
643 05-08-2019 05:30:00 19.2 C 12.53 g/m*3 19.2 C 3.2 km/h
644 05-08-2019 05:35:00 19.3 C 12.61 g/m*3 19.3 C 8.1 km/h
645 05-08-2019 05:40:00 19.4 C 12.85 g/m*3 19.4 C 3.2 km/h
646 05-08-2019 05:45:00 19.5 C 13.43 g/m*3 19.5 C 1.6 km/h
647 05-08-2019 05:50:00 19.4 C 13.51 g/m*3 19.4 C 0 km/h
648 05-08-2019 05:55:00 19.3 C 13.6 g/m*3 19.3 C 1.6 km/h
649 05-08-2019 06:00:00 19.1 C 13.61 g/m*3 19.1 C 3.2 km/h
650 05-08-2019 06:05:00 18.8 C 13.53 g/m*3 18.8 C 1.6 km/h
Sensor: Nr:Datum:Temp:Abs-Feuchte:Windchill:Wind:
Aussen-T/F 651 05-08-2019 06:10:00 18.6 C 13.53 g/m*3 18.6 C 0 km/h
652 05-08-2019 06:15:00 18.4 C 13.53 g/m*3 18.4 C 1.6 km/h
653 05-08-2019 06:20:00 18.3 C 13.45 g/m*3 18.3 C 1.6 km/h
654 05-08-2019 06:25:00 18.2 C 13.52 g/m*3 18.2 C 0 km/h
655 05-08-2019 06:30:00 18.2 C 13.68 g/m*3 18.2 C 0 km/h
656 05-08-2019 06:35:00 18.1 C 13.75 g/m*3 18.1 C 0 km/h
657 05-08-2019 06:40:00 18.1 C 13.75 g/m*3 18.1 C 0 km/h
658 05-08-2019 06:45:00 17.9 C 13.74 g/m*3 17.9 C 1.6 km/h
659 05-08-2019 06:50:00 17.9 C 13.74 g/m*3 17.9 C 3.2 km/h
660 05-08-2019 06:55:00 17.8 C 13.81 g/m*3 17.8 C 0 km/h
661 05-08-2019 07:00:00 17.8 C 13.81 g/m*3 17.8 C 3.2 km/h
662 05-08-2019 07:05:00 17.7 C 13.73 g/m*3 17.7 C 1.6 km/h
663 05-08-2019 07:10:00 17.7 C 13.88 g/m*3 17.7 C 3.2 km/h
664 05-08-2019 07:15:00 17.6 C 13.8 g/m*3 17.6 C 1.6 km/h
665 05-08-2019 07:20:00 17.6 C 13.8 g/m*3 17.6 C 0 km/h
666 05-08-2019 07:25:00 17.6 C 13.8 g/m*3 17.6 C 0 km/h
667 05-08-2019 07:30:00 17.6 C 13.95 g/m*3 17.6 C 0 km/h
668 05-08-2019 07:35:00 17.5 C 13.87 g/m*3 17.5 C 0 km/h
669 05-08-2019 07:40:00 17.4 C 13.78 g/m*3 17.4 C 4.8 km/h
670 05-08-2019 07:45:00 17.3 C 13.7 g/m*3 17.3 C 3.2 km/h
671 05-08-2019 07:50:00 17.3 C 13.7 g/m*3 17.3 C 0 km/h
672 05-08-2019 07:55:00 17.3 C 13.7 g/m*3 17.3 C 0 km/h
673 05-08-2019 08:00:00 17.3 C 13.85 g/m*3 17.3 C 0 km/h
674 05-08-2019 08:05:00 17.3 C 13.85 g/m*3 17.3 C 0 km/h
675 05-08-2019 08:10:00 17.4 C 13.93 g/m*3 17.4 C 0 km/h
Sensor: Nr:Datum:Temp:Abs-Feuchte:Windchill:Wind:
Aussen-T/F 676 05-08-2019 08:15:00 17.4 C 13.93 g/m*3 17.4 C 0 km/h
677 05-08-2019 08:20:00 17.6 C 14.1 g/m*3 17.6 C 4.8 km/h
678 05-08-2019 08:25:00 17.6 C 14.1 g/m*3 17.6 C 1.6 km/h
679 05-08-2019 08:30:00 17.6 C 14.25 g/m*3 17.6 C 0 km/h
680 05-08-2019 08:35:00 17.8 C 14.42 g/m*3 17.8 C 0 km/h
681 05-08-2019 08:40:00 17.8 C 14.42 g/m*3 17.8 C 0 km/h
682 05-08-2019 08:45:00 17.9 C 14.5 g/m*3 17.9 C 0 km/h
683 05-08-2019 08:50:00 17.9 C 14.5 g/m*3 17.9 C 0 km/h
684 05-08-2019 08:55:00 18.1 C 14.68 g/m*3 18.1 C 0 km/h
685 05-08-2019 09:00:00 18.1 C 14.68 g/m*3 18.1 C 0 km/h
686 05-08-2019 09:05:00 18.2 C 14.77 g/m*3 18.2 C 0 km/h
687 05-08-2019 09:10:00 18.3 C 14.85 g/m*3 18.3 C 0 km/h
688 05-08-2019 09:15:00 18.5 C 15.03 g/m*3 18.5 C 0 km/h
689 05-08-2019 09:20:00 18.7 C 15.37 g/m*3 18.7 C 0 km/h
690 05-08-2019 09:25:00 18.8 C 15.3 g/m*3 18.8 C 0 km/h
691 05-08-2019 09:30:00 18.8 C 15.3 g/m*3 18.8 C 0 km/h
692 05-08-2019 09:35:00 18.9 C 15.39 g/m*3 18.9 C 0 km/h
693 05-08-2019 09:40:00 19.1 C 15.57 g/m*3 19.1 C 1.6 km/h
694 05-08-2019 09:45:00 19.2 C 15.66 g/m*3 19.2 C 0 km/h
695 05-08-2019 09:50:00 19.2 C 15.5 g/m*3 19.2 C 3.2 km/h
696 05-08-2019 09:55:00 19.2 C 15.5 g/m*3 19.2 C 3.2 km/h
697 05-08-2019 10:00:00 19.4 C 15.68 g/m*3 19.4 C 1.6 km/h
698 05-08-2019 10:05:00 19.6 C 15.87 g/m*3 19.6 C 3.2 km/h
699 05-08-2019 10:10:00 19.7 C 15.96 g/m*3 19.7 C 3.2 km/h
700 05-08-2019 10:15:00 19.8 C 15.89 g/m*3 19.8 C 0 km/h
Sensor: Nr:Datum:Temp:Abs-Feuchte:Windchill:Wind:
Aussen-T/F 701 05-08-2019 10:20:00 19.9 C 16.15 g/m*3 19.9 C 0 km/h
702 05-08-2019 10:25:00 20.1 C 16.34 g/m*3 20.1 C 0 km/h
703 05-08-2019 10:30:00 20.4 C 16.63 g/m*3 20.4 C 0 km/h
704 05-08-2019 10:35:00 20.4 C 16.45 g/m*3 20.4 C 0 km/h
705 05-08-2019 10:40:00 20.3 C 16 g/m*3 20.3 C 3.2 km/h
706 05-08-2019 10:45:00 20.4 C 16.1 g/m*3 20.4 C 0 km/h
707 05-08-2019 10:50:00 20.4 C 15.74 g/m*3 20.4 C 1.6 km/h
708 05-08-2019 10:55:00 20.6 C 16.11 g/m*3 20.6 C 0 km/h
709 05-08-2019 11:00:00 20.8 C 16.12 g/m*3 20.8 C 0 km/h
710 05-08-2019 11:05:00 21.1 C 16.03 g/m*3 21.1 C 1.6 km/h
711 05-08-2019 11:10:00 21.4 C 16.5 g/m*3 21.4 C 0 km/h
712 05-08-2019 11:15:00 21.7 C 16.6 g/m*3 21.7 C 3.2 km/h
713 05-08-2019 11:20:00 21.8 C 16.31 g/m*3 21.8 C 1.6 km/h
714 05-08-2019 11:25:00 21.8 C 16.12 g/m*3 21.8 C 1.6 km/h
715 05-08-2019 11:30:00 22.1 C 16.2 g/m*3 22.1 C 3.2 km/h
716 05-08-2019 11:35:00 22.3 C 16.39 g/m*3 22.3 C 1.6 km/h
717 05-08-2019 11:40:00 22.4 C 15.89 g/m*3 22.4 C 3.2 km/h
718 05-08-2019 11:45:00 22.6 C 16.07 g/m*3 22.6 C 3.2 km/h
719 05-08-2019 11:50:00 22.8 C 16.46 g/m*3 22.8 C 1.6 km/h
720 05-08-2019 11:55:00 23.1 C 16.95 g/m*3 23.1 C 1.6 km/h
721 05-08-2019 12:00:00 23.3 C 16.52 g/m*3 23.3 C 3.2 km/h
722 05-08-2019 12:05:00 23.4 C 15.77 g/m*3 23.4 C 11.3 km/h
723 05-08-2019 12:10:00 23.6 C 15.74 g/m*3 23.6 C 11.3 km/h
724 05-08-2019 12:15:00 23.7 C 15.61 g/m*3 23.7 C 11.3 km/h
725 05-08-2019 12:20:00 23.9 C 14.93 g/m*3 23.9 C 16.1 km/h
Sensor: Nr:Datum:Temp:Abs-Feuchte:Windchill:Wind:
Aussen-T/F 726 05-08-2019 12:25:00 24.1 C 14.88 g/m*3 24.1 C 12.9 km/h
727 05-08-2019 12:30:00 24.3 C 15.05 g/m*3 24.3 C 11.3 km/h
728 05-08-2019 12:35:00 24.6 C 14.63 g/m*3 24.6 C 12.9 km/h
729 05-08-2019 12:40:00 24.8 C 14.34 g/m*3 24.8 C 19.3 km/h
730 05-08-2019 12:45:00 24.9 C 14.88 g/m*3 24.9 C 12.9 km/h
731 05-08-2019 12:50:00 25.2 C 14.67 g/m*3 25.2 C 19.3 km/h
732 05-08-2019 12:55:00 25.2 C 14.67 g/m*3 25.2 C 12.9 km/h
733 05-08-2019 13:00:00 25.2 C 14.9 g/m*3 25.2 C 9.7 km/h
734 05-08-2019 13:05:00 25.3 C 14.51 g/m*3 25.3 C 11.3 km/h
735 05-08-2019 13:10:00 25.5 C 14.44 g/m*3 25.5 C 11.3 km/h
736 05-08-2019 13:15:00 25.7 C 14.84 g/m*3 25.7 C 14.5 km/h
737 05-08-2019 13:20:00 25.8 C 14.69 g/m*3 25.8 C 9.7 km/h
738 05-08-2019 13:25:00 25.9 C 14.77 g/m*3 25.9 C 12.9 km/h
739 05-08-2019 13:30:00 26.2 C 14.52 g/m*3 26.2 C 14.5 km/h
740 05-08-2019 13:35:00 26.3 C 14.61 g/m*3 26.3 C 16.1 km/h
741 05-08-2019 13:40:00 26.4 C 13.94 g/m*3 26.4 C 16.1 km/h
742 05-08-2019 13:45:00 26.5 C 14.52 g/m*3 26.5 C 12.9 km/h
743 05-08-2019 13:50:00 26.6 C 14.35 g/m*3 26.6 C 8.1 km/h
744 05-08-2019 13:55:00 26.6 C 14.35 g/m*3 26.6 C 12.9 km/h
745 05-08-2019 14:00:00 26.6 C 14.6 g/m*3 26.6 C 11.3 km/h
746 05-08-2019 14:05:00 26.6 C 14.35 g/m*3 26.6 C 11.3 km/h
747 05-08-2019 14:10:00 26.7 C 14.17 g/m*3 26.7 C 8.1 km/h
748 05-08-2019 14:15:00 26.8 C 14.25 g/m*3 26.8 C 9.7 km/h
749 05-08-2019 14:20:00 27.1 C 14.23 g/m*3 27.1 C 8.1 km/h
750 05-08-2019 14:25:00 27.3 C 14.13 g/m*3 27.3 C 12.9 km/h
Sensor: Nr:Datum:Temp:Abs-Feuchte:Windchill:Wind:
Aussen-T/F 751 05-08-2019 14:30:00 27.3 C 13.87 g/m*3 27.3 C 16.1 km/h
752 05-08-2019 14:35:00 27.3 C 14.39 g/m*3 27.3 C 9.7 km/h
753 05-08-2019 14:40:00 27.3 C 13.87 g/m*3 27.3 C 11.3 km/h
754 05-08-2019 14:45:00 27.3 C 13.87 g/m*3 27.3 C 12.9 km/h
755 05-08-2019 14:50:00 27.4 C 14.21 g/m*3 27.4 C 11.3 km/h
756 05-08-2019 14:55:00 27.7 C 13.91 g/m*3 27.7 C 16.1 km/h
757 05-08-2019 15:00:00 27.8 C 12.64 g/m*3 27.8 C 8.1 km/h
758 05-08-2019 15:05:00 27.9 C 13.52 g/m*3 27.9 C 9.7 km/h
759 05-08-2019 15:10:00 28 C 13.6 g/m*3 28 C 9.7 km/h
760 05-08-2019 15:15:00 28.4 C 13.9 g/m*3 28.4 C 14.5 km/h
761 05-08-2019 15:20:00 28.4 C 13.34 g/m*3 28.4 C 8.1 km/h
762 05-08-2019 15:25:00 28.4 C 12.51 g/m*3 28.4 C 14.5 km/h
763 05-08-2019 15:30:00 28.5 C 12.86 g/m*3 28.5 C 11.3 km/h
764 05-08-2019 15:35:00 28.3 C 12.44 g/m*3 28.3 C 8.1 km/h
765 05-08-2019 15:40:00 28.4 C 12.51 g/m*3 28.4 C 8.1 km/h
766 05-08-2019 15:45:00 28.7 C 12.43 g/m*3 28.7 C 11.3 km/h
767 05-08-2019 15:50:00 28.8 C 12.5 g/m*3 28.8 C 12.9 km/h
768 05-08-2019 15:55:00 28.9 C 12.57 g/m*3 28.9 C 14.5 km/h
769 05-08-2019 16:00:00 28.9 C 11.71 g/m*3 28.9 C 11.3 km/h
770 05-08-2019 16:05:00 28.9 C 12 g/m*3 28.9 C 11.3 km/h
771 05-08-2019 16:10:00 29 C 12.06 g/m*3 29 C 8.1 km/h
772 05-08-2019 16:15:00 29.1 C 11.84 g/m*3 29.1 C 14.5 km/h
773 05-08-2019 16:20:00 29.1 C 11.84 g/m*3 29.1 C 19.3 km/h
774 05-08-2019 16:25:00 29.1 C 11.84 g/m*3 29.1 C 8.1 km/h
775 05-08-2019 16:30:00 29.1 C 11.84 g/m*3 29.1 C 12.9 km/h
Sensor: Nr:Datum:Temp:Abs-Feuchte:Windchill:Wind:
Aussen-T/F 776 05-08-2019 16:35:00 28.9 C 11.71 g/m*3 28.9 C 11.3 km/h
777 05-08-2019 16:40:00 28.8 C 11.65 g/m*3 28.8 C 16.1 km/h
778 05-08-2019 16:45:00 28.7 C 11.59 g/m*3 28.7 C 11.3 km/h
779 05-08-2019 16:50:00 28.5 C 11.74 g/m*3 28.5 C 14.5 km/h
780 05-08-2019 16:55:00 28.4 C 11.67 g/m*3 28.4 C 8.1 km/h
781 05-08-2019 17:00:00 28.3 C 11.61 g/m*3 28.3 C 11.3 km/h
782 05-08-2019 17:05:00 28.3 C 11.89 g/m*3 28.3 C 11.3 km/h
783 05-08-2019 17:10:00 28.3 C 11.61 g/m*3 28.3 C 12.9 km/h
784 05-08-2019 17:15:00 28.3 C 11.61 g/m*3 28.3 C 9.7 km/h
785 05-08-2019 17:20:00 28.3 C 11.61 g/m*3 28.3 C 12.9 km/h
786 05-08-2019 17:25:00 28.3 C 11.33 g/m*3 28.3 C 12.9 km/h
787 05-08-2019 17:30:00 28.3 C 11.61 g/m*3 28.3 C 9.7 km/h
788 05-08-2019 17:35:00 28.3 C 11.61 g/m*3 28.3 C 14.5 km/h
789 05-08-2019 17:40:00 28.2 C 11.55 g/m*3 28.2 C 12.9 km/h
790 05-08-2019 17:45:00 28.1 C 11.48 g/m*3 28.1 C 9.7 km/h
791 05-08-2019 17:50:00 28 C 11.69 g/m*3 28 C 9.7 km/h
792 05-08-2019 17:55:00 28 C 11.42 g/m*3 28 C 9.7 km/h
793 05-08-2019 18:00:00 28.1 C 11.76 g/m*3 28.1 C 6.4 km/h
794 05-08-2019 18:05:00 28.2 C 11.55 g/m*3 28.2 C 11.3 km/h
795 05-08-2019 18:10:00 28.1 C 11.48 g/m*3 28.1 C 9.7 km/h
796 05-08-2019 18:15:00 27.9 C 10.82 g/m*3 27.9 C 9.7 km/h
797 05-08-2019 18:20:00 27.8 C 11.3 g/m*3 27.8 C 9.7 km/h
798 05-08-2019 18:25:00 27.7 C 10.97 g/m*3 27.7 C 9.7 km/h
799 05-08-2019 18:30:00 27.5 C 11.11 g/m*3 27.5 C 11.3 km/h
800 05-08-2019 18:35:00 27.4 C 11.31 g/m*3 27.4 C 9.7 km/h
Sensor: Nr:Datum:Temp:Abs-Feuchte:Windchill:Wind:
Aussen-T/F 801 05-08-2019 18:40:00 27.5 C 11.38 g/m*3 27.5 C 8.1 km/h
802 05-08-2019 18:45:00 27.5 C 11.38 g/m*3 27.5 C 8.1 km/h
803 05-08-2019 18:50:00 27.4 C 11.05 g/m*3 27.4 C 8.1 km/h
804 05-08-2019 18:55:00 27.3 C 11.25 g/m*3 27.3 C 8.1 km/h
805 05-08-2019 19:00:00 27.2 C 11.45 g/m*3 27.2 C 6.4 km/h
806 05-08-2019 19:05:00 27.1 C 11.39 g/m*3 27.1 C 6.4 km/h
807 05-08-2019 19:10:00 27.1 C 11.39 g/m*3 27.1 C 6.4 km/h
808 05-08-2019 19:15:00 26.9 C 11.52 g/m*3 26.9 C 4.8 km/h
809 05-08-2019 19:20:00 26.8 C 11.45 g/m*3 26.8 C 8.1 km/h
810 05-08-2019 19:25:00 26.8 C 11.71 g/m*3 26.8 C 3.2 km/h
811 05-08-2019 19:30:00 26.7 C 11.64 g/m*3 26.7 C 6.4 km/h
812 05-08-2019 19:35:00 26.6 C 11.83 g/m*3 26.6 C 8.1 km/h
813 05-08-2019 19:40:00 26.4 C 11.95 g/m*3 26.4 C 8.1 km/h
814 05-08-2019 19:45:00 26.3 C 11.88 g/m*3 26.3 C 4.8 km/h
815 05-08-2019 19:50:00 26.3 C 12.13 g/m*3 26.3 C 4.8 km/h
816 05-08-2019 19:55:00 26.2 C 12.56 g/m*3 26.2 C 3.2 km/h
817 05-08-2019 20:00:00 26.1 C 11.51 g/m*3 26.1 C 4.8 km/h
818 05-08-2019 20:05:00 26 C 11.69 g/m*3 26 C 4.8 km/h
819 05-08-2019 20:10:00 25.9 C 10.89 g/m*3 25.9 C 6.4 km/h
820 05-08-2019 20:15:00 25.8 C 11.56 g/m*3 25.8 C 3.2 km/h
821 05-08-2019 20:20:00 25.7 C 12.69 g/m*3 25.7 C 0 km/h
822 05-08-2019 20:25:00 25.5 C 13.02 g/m*3 25.5 C 0 km/h
823 05-08-2019 20:30:00 25.2 C 13.27 g/m*3 25.2 C 0 km/h
824 05-08-2019 20:35:00 24.9 C 13.28 g/m*3 24.9 C 0 km/h
825 05-08-2019 20:40:00 24.6 C 13.28 g/m*3 24.6 C 0 km/h
Sensor: Nr:Datum:Temp:Abs-Feuchte:Windchill:Wind:
Aussen-T/F 826 05-08-2019 20:45:00 24.2 C 12.98 g/m*3 24.2 C 0 km/h
827 05-08-2019 20:50:00 23.8 C 12.26 g/m*3 23.8 C 0 km/h
828 05-08-2019 20:55:00 23.5 C 12.05 g/m*3 23.5 C 0 km/h
829 05-08-2019 21:00:00 23.3 C 12.13 g/m*3 23.3 C 0 km/h
830 05-08-2019 21:05:00 23 C 11.92 g/m*3 23 C 0 km/h
831 05-08-2019 21:10:00 22.7 C 11.92 g/m*3 22.7 C 0 km/h
832 05-08-2019 21:15:00 22.4 C 12.11 g/m*3 22.4 C 0 km/h
833 05-08-2019 21:20:00 22.2 C 12.17 g/m*3 22.2 C 0 km/h
834 05-08-2019 21:25:00 22 C 11.84 g/m*3 22 C 0 km/h
835 05-08-2019 21:30:00 21.8 C 11.9 g/m*3 21.8 C 0 km/h
836 05-08-2019 21:35:00 21.7 C 11.83 g/m*3 21.7 C 0 km/h
837 05-08-2019 21:40:00 21.6 C 11.76 g/m*3 21.6 C 0 km/h
838 05-08-2019 21:45:00 21.5 C 11.69 g/m*3 21.5 C 0 km/h
839 05-08-2019 21:50:00 21.4 C 11.81 g/m*3 21.4 C 0 km/h
840 05-08-2019 21:55:00 21.3 C 11.93 g/m*3 21.3 C 0 km/h
841 05-08-2019 22:00:00 21.2 C 11.86 g/m*3 21.2 C 0 km/h
842 05-08-2019 22:05:00 21.1 C 12.16 g/m*3 21.1 C 0 km/h
843 05-08-2019 22:10:00 21 C 12.09 g/m*3 21 C 0 km/h
844 05-08-2019 22:15:00 20.8 C 12.31 g/m*3 20.8 C 0 km/h
845 05-08-2019 22:20:00 20.7 C 12.42 g/m*3 20.7 C 0 km/h
846 05-08-2019 22:25:00 20.6 C 12.53 g/m*3 20.6 C 0 km/h
847 05-08-2019 22:30:00 20.4 C 12.56 g/m*3 20.4 C 0 km/h
848 05-08-2019 22:35:00 20.3 C 12.49 g/m*3 20.3 C 0 km/h
849 05-08-2019 22:40:00 20.2 C 12.41 g/m*3 20.2 C 0 km/h
850 05-08-2019 22:45:00 20.1 C 12.52 g/m*3 20.1 C 0 km/h
Sensor: Nr:Datum:Temp:Abs-Feuchte:Windchill:Wind:
Aussen-T/F 851 05-08-2019 22:50:00 20 C 12.27 g/m*3 20 C 0 km/h
852 05-08-2019 22:55:00 20 C 12.62 g/m*3 20 C 0 km/h
853 05-08-2019 23:00:00 19.9 C 12.54 g/m*3 19.9 C 0 km/h
854 05-08-2019 23:05:00 19.8 C 12.3 g/m*3 19.8 C 0 km/h
855 05-08-2019 23:10:00 19.8 C 12.47 g/m*3 19.8 C 0 km/h
856 05-08-2019 23:15:00 19.7 C 12.4 g/m*3 19.7 C 0 km/h
857 05-08-2019 23:20:00 19.6 C 12.49 g/m*3 19.6 C 0 km/h
858 05-08-2019 23:25:00 19.4 C 12.35 g/m*3 19.4 C 0 km/h
859 05-08-2019 23:30:00 19.3 C 12.27 g/m*3 19.3 C 0 km/h
860 05-08-2019 23:35:00 19.1 C 12.13 g/m*3 19.1 C 0 km/h
861 05-08-2019 23:40:00 18.9 C 12.15 g/m*3 18.9 C 0 km/h
862 05-08-2019 23:45:00 18.8 C 12.08 g/m*3 18.8 C 0 km/h
863 05-08-2019 23:50:00 18.6 C 12.1 g/m*3 18.6 C 0 km/h
864 05-08-2019 23:55:00 18.5 C 11.87 g/m*3 18.5 C 0 km/h
865 06-08-2019 00:00:00 18.4 C 12.11 g/m*3 18.4 C 0 km/h
866 06-08-2019 00:05:00 18.3 C 12.04 g/m*3 18.3 C 0 km/h
867 06-08-2019 00:10:00 18.2 C 11.97 g/m*3 18.2 C 0 km/h
868 06-08-2019 00:15:00 18.2 C 11.97 g/m*3 18.2 C 0 km/h
869 06-08-2019 00:20:00 18.1 C 12.05 g/m*3 18.1 C 0 km/h
870 06-08-2019 00:25:00 18.1 C 12.05 g/m*3 18.1 C 0 km/h
871 06-08-2019 00:30:00 18 C 12.13 g/m*3 18 C 0 km/h
872 06-08-2019 00:35:00 17.9 C 12.06 g/m*3 17.9 C 0 km/h
873 06-08-2019 00:40:00 17.8 C 11.84 g/m*3 17.8 C 0 km/h
874 06-08-2019 00:45:00 17.8 C 11.99 g/m*3 17.8 C 0 km/h
875 06-08-2019 00:50:00 17.7 C 12.07 g/m*3 17.7 C 0 km/h
Sensor: Nr:Datum:Temp:Abs-Feuchte:Windchill:Wind:
Aussen-T/F 876 06-08-2019 00:55:00 17.6 C 12 g/m*3 17.6 C 0 km/h
877 06-08-2019 01:00:00 17.4 C 11.86 g/m*3 17.4 C 0 km/h
878 06-08-2019 01:05:00 17.3 C 11.93 g/m*3 17.3 C 0 km/h
879 06-08-2019 01:10:00 17.3 C 11.93 g/m*3 17.3 C 0 km/h
880 06-08-2019 01:15:00 17.2 C 11.86 g/m*3 17.2 C 0 km/h
881 06-08-2019 01:20:00 17.2 C 11.86 g/m*3 17.2 C 0 km/h
882 06-08-2019 01:25:00 17.1 C 11.79 g/m*3 17.1 C 0 km/h
883 06-08-2019 01:30:00 17.1 C 11.94 g/m*3 17.1 C 0 km/h
884 06-08-2019 01:35:00 17.1 C 11.94 g/m*3 17.1 C 0 km/h
885 06-08-2019 01:40:00 16.9 C 11.79 g/m*3 16.9 C 0 km/h
886 06-08-2019 01:45:00 16.9 C 11.79 g/m*3 16.9 C 0 km/h
887 06-08-2019 01:50:00 16.9 C 11.79 g/m*3 16.9 C 0 km/h
888 06-08-2019 01:55:00 16.9 C 11.79 g/m*3 16.9 C 0 km/h
889 06-08-2019 02:00:00 16.8 C 11.72 g/m*3 16.8 C 0 km/h
890 06-08-2019 02:05:00 16.7 C 11.8 g/m*3 16.7 C 0 km/h
891 06-08-2019 02:10:00 16.7 C 11.8 g/m*3 16.7 C 0 km/h
892 06-08-2019 02:15:00 16.7 C 11.8 g/m*3 16.7 C 0 km/h
893 06-08-2019 02:20:00 16.7 C 11.94 g/m*3 16.7 C 0 km/h
894 06-08-2019 02:25:00 16.8 C 12.01 g/m*3 16.8 C 0 km/h
895 06-08-2019 02:30:00 17 C 12.01 g/m*3 17 C 0 km/h
896 06-08-2019 02:35:00 17.2 C 12.15 g/m*3 17.2 C 0 km/h
897 06-08-2019 02:40:00 17.3 C 12.08 g/m*3 17.3 C 0 km/h
898 06-08-2019 02:45:00 17.4 C 12.15 g/m*3 17.4 C 0 km/h
899 06-08-2019 02:50:00 17.4 C 12.3 g/m*3 17.4 C 0 km/h
900 06-08-2019 02:55:00 17.4 C 12.3 g/m*3 17.4 C 0 km/h
Sensor: Nr:Datum:Temp:Abs-Feuchte:Windchill:Wind:
Aussen-T/F 901 06-08-2019 03:00:00 17.4 C 12.3 g/m*3 17.4 C 0 km/h
902 06-08-2019 03:05:00 17.4 C 12.3 g/m*3 17.4 C 0 km/h
903 06-08-2019 03:10:00 17.5 C 12.37 g/m*3 17.5 C 0 km/h
904 06-08-2019 03:15:00 17.5 C 12.37 g/m*3 17.5 C 0 km/h
905 06-08-2019 03:20:00 17.5 C 12.37 g/m*3 17.5 C 0 km/h
906 06-08-2019 03:25:00 17.5 C 12.37 g/m*3 17.5 C 0 km/h
907 06-08-2019 03:30:00 17.4 C 12.3 g/m*3 17.4 C 0 km/h
908 06-08-2019 03:35:00 17.4 C 12.3 g/m*3 17.4 C 0 km/h
909 06-08-2019 03:40:00 17.4 C 12.45 g/m*3 17.4 C 0 km/h
910 06-08-2019 03:45:00 17.4 C 12.3 g/m*3 17.4 C 4.8 km/h
911 06-08-2019 03:50:00 17.5 C 12.37 g/m*3 17.5 C 4.8 km/h
912 06-08-2019 03:55:00 17.6 C 12.45 g/m*3 17.6 C 0 km/h
913 06-08-2019 04:00:00 17.6 C 12.45 g/m*3 17.6 C 0 km/h
914 06-08-2019 04:05:00 17.5 C 12.37 g/m*3 17.5 C 0 km/h
915 06-08-2019 04:10:00 17.5 C 12.37 g/m*3 17.5 C 0 km/h
916 06-08-2019 04:15:00 17.4 C 12.45 g/m*3 17.4 C 0 km/h
917 06-08-2019 04:20:00 17.3 C 12.37 g/m*3 17.3 C 0 km/h
918 06-08-2019 04:25:00 17.3 C 12.23 g/m*3 17.3 C 0 km/h
919 06-08-2019 04:30:00 17.2 C 12.15 g/m*3 17.2 C 0 km/h
920 06-08-2019 04:35:00 17.1 C 12.23 g/m*3 17.1 C 1.6 km/h
921 06-08-2019 04:40:00 16.9 C 12.08 g/m*3 16.9 C 0 km/h
922 06-08-2019 04:45:00 16.9 C 12.23 g/m*3 16.9 C 0 km/h
923 06-08-2019 04:50:00 16.9 C 12.23 g/m*3 16.9 C 1.6 km/h
924 06-08-2019 04:55:00 16.9 C 12.23 g/m*3 16.9 C 0 km/h
925 06-08-2019 05:00:00 16.8 C 12.15 g/m*3 16.8 C 0 km/h
Sensor: Nr:Datum:Temp:Abs-Feuchte:Windchill:Wind:
Aussen-T/F 926 06-08-2019 05:05:00 16.8 C 12.15 g/m*3 16.8 C 1.6 km/h
927 06-08-2019 05:10:00 16.7 C 12.08 g/m*3 16.7 C 0 km/h
928 06-08-2019 05:15:00 16.6 C 12.01 g/m*3 16.6 C 0 km/h
929 06-08-2019 05:20:00 16.6 C 12.15 g/m*3 16.6 C 0 km/h
930 06-08-2019 05:25:00 16.6 C 12.15 g/m*3 16.6 C 0 km/h
931 06-08-2019 05:30:00 16.6 C 12.15 g/m*3 16.6 C 0 km/h
932 06-08-2019 05:35:00 16.6 C 12.15 g/m*3 16.6 C 0 km/h
933 06-08-2019 05:40:00 16.6 C 12.15 g/m*3 16.6 C 0 km/h
934 06-08-2019 05:45:00 16.5 C 12.08 g/m*3 16.5 C 0 km/h
935 06-08-2019 05:50:00 16.5 C 12.08 g/m*3 16.5 C 0 km/h
936 06-08-2019 05:55:00 16.4 C 12 g/m*3 16.4 C 0 km/h
937 06-08-2019 06:00:00 16.3 C 11.93 g/m*3 16.3 C 0 km/h
938 06-08-2019 06:05:00 16.3 C 12.07 g/m*3 16.3 C 0 km/h
939 06-08-2019 06:10:00 16.3 C 12.07 g/m*3 16.3 C 0 km/h
940 06-08-2019 06:15:00 16.4 C 12.14 g/m*3 16.4 C 0 km/h
941 06-08-2019 06:20:00 16.5 C 12.22 g/m*3 16.5 C 0 km/h
942 06-08-2019 06:25:00 16.6 C 12.29 g/m*3 16.6 C 0 km/h
943 06-08-2019 06:30:00 16.7 C 12.36 g/m*3 16.7 C 1.6 km/h
944 06-08-2019 06:35:00 16.8 C 12.44 g/m*3 16.8 C 0 km/h
945 06-08-2019 06:40:00 16.9 C 12.37 g/m*3 16.9 C 0 km/h
946 06-08-2019 06:45:00 17 C 12.44 g/m*3 17 C 0 km/h
947 06-08-2019 06:50:00 17.1 C 12.52 g/m*3 17.1 C 0 km/h
948 06-08-2019 06:55:00 17.1 C 12.52 g/m*3 17.1 C 0 km/h
949 06-08-2019 07:00:00 17.2 C 12.59 g/m*3 17.2 C 0 km/h
950 06-08-2019 07:05:00 17.3 C 12.52 g/m*3 17.3 C 1.6 km/h
Sensor: Nr:Datum:Temp:Abs-Feuchte:Windchill:Wind:
Aussen-T/F 951 06-08-2019 07:10:00 17.5 C 12.52 g/m*3 17.5 C 6.4 km/h
952 06-08-2019 07:15:00 17.7 C 12.52 g/m*3 17.7 C 8.1 km/h
953 06-08-2019 07:20:00 17.8 C 12.6 g/m*3 17.8 C 1.6 km/h
954 06-08-2019 07:25:00 17.8 C 12.6 g/m*3 17.8 C 0 km/h
955 06-08-2019 07:30:00 17.9 C 12.67 g/m*3 17.9 C 0 km/h
956 06-08-2019 07:35:00 18 C 12.75 g/m*3 18 C 0 km/h
957 06-08-2019 07:40:00 18.1 C 12.82 g/m*3 18.1 C 0 km/h
958 06-08-2019 07:45:00 18.2 C 12.75 g/m*3 18.2 C 1.6 km/h
959 06-08-2019 07:50:00 18.2 C 12.75 g/m*3 18.2 C 4.8 km/h
960 06-08-2019 07:55:00 18.3 C 12.82 g/m*3 18.3 C 4.8 km/h
961 06-08-2019 08:00:00 18.3 C 12.82 g/m*3 18.3 C 8.1 km/h
962 06-08-2019 08:05:00 18.4 C 12.9 g/m*3 18.4 C 4.8 km/h
963 06-08-2019 08:10:00 18.4 C 12.74 g/m*3 18.4 C 6.4 km/h
964 06-08-2019 08:15:00 18.5 C 12.82 g/m*3 18.5 C 3.2 km/h
965 06-08-2019 08:20:00 18.6 C 12.89 g/m*3 18.6 C 1.6 km/h
966 06-08-2019 08:25:00 18.6 C 12.89 g/m*3 18.6 C 1.6 km/h
967 06-08-2019 08:30:00 18.7 C 12.97 g/m*3 18.7 C 1.6 km/h
968 06-08-2019 08:35:00 18.8 C 13.05 g/m*3 18.8 C 3.2 km/h
969 06-08-2019 08:40:00 18.8 C 13.05 g/m*3 18.8 C 3.2 km/h
970 06-08-2019 08:45:00 18.9 C 13.12 g/m*3 18.9 C 1.6 km/h
971 06-08-2019 08:50:00 19 C 13.2 g/m*3 19 C 0 km/h
972 06-08-2019 08:55:00 19.1 C 13.11 g/m*3 19.1 C 6.4 km/h
973 06-08-2019 09:00:00 19.3 C 13.1 g/m*3 19.3 C 6.4 km/h
974 06-08-2019 09:05:00 19.4 C 13.18 g/m*3 19.4 C 6.4 km/h
975 06-08-2019 09:10:00 19.7 C 13.25 g/m*3 19.7 C 8.1 km/h
Sensor: Nr:Datum:Temp:Abs-Feuchte:Windchill:Wind:
Aussen-T/F 976 06-08-2019 09:15:00 19.8 C 13.15 g/m*3 19.8 C 8.1 km/h
977 06-08-2019 09:20:00 19.9 C 13.06 g/m*3 19.9 C 8.1 km/h
978 06-08-2019 09:25:00 20.1 C 13.39 g/m*3 20.1 C 4.8 km/h
979 06-08-2019 09:30:00 20.1 C 13.39 g/m*3 20.1 C 4.8 km/h
980 06-08-2019 09:35:00 20.3 C 13.37 g/m*3 20.3 C 6.4 km/h
981 06-08-2019 09:40:00 20.4 C 13.44 g/m*3 20.4 C 6.4 km/h
982 06-08-2019 09:45:00 20.6 C 13.42 g/m*3 20.6 C 6.4 km/h
983 06-08-2019 09:50:00 20.8 C 13.4 g/m*3 20.8 C 4.8 km/h
984 06-08-2019 09:55:00 20.8 C 13.4 g/m*3 20.8 C 4.8 km/h
985 06-08-2019 10:00:00 20.8 C 13.22 g/m*3 20.8 C 8.1 km/h
986 06-08-2019 10:05:00 20.7 C 13.86 g/m*3 20.7 C 6.4 km/h
987 06-08-2019 10:10:00 20.6 C 14.32 g/m*3 20.6 C 0 km/h
988 06-08-2019 10:15:00 20.4 C 14.33 g/m*3 20.4 C 1.6 km/h
989 06-08-2019 10:20:00 20.2 C 14.51 g/m*3 20.2 C 1.6 km/h
990 06-08-2019 10:25:00 19.9 C 14.43 g/m*3 19.9 C 0 km/h
991 06-08-2019 10:30:00 19.7 C 14.6 g/m*3 19.7 C 0 km/h
992 06-08-2019 10:35:00 19.6 C 14.69 g/m*3 19.6 C 0 km/h
993 06-08-2019 10:40:00 19.4 C 14.68 g/m*3 19.4 C 0 km/h
994 06-08-2019 10:45:00 19.3 C 14.6 g/m*3 19.3 C 4.8 km/h
995 06-08-2019 10:50:00 19.2 C 14.68 g/m*3 19.2 C 3.2 km/h
996 06-08-2019 10:55:00 19.2 C 14.68 g/m*3 19.2 C 0 km/h
997 06-08-2019 11:00:00 19.2 C 14.68 g/m*3 19.2 C 0 km/h
998 06-08-2019 11:05:00 19.2 C 14.68 g/m*3 19.2 C 1.6 km/h
999 06-08-2019 11:10:00 19.2 C 14.68 g/m*3 19.2 C 0 km/h
1000 06-08-2019 11:15:00 19.3 C 14.93 g/m*3 19.3 C 0 km/h
Sensor: Nr:Datum:Temp:Abs-Feuchte:Windchill:Wind:
Aussen-T/F 1001 06-08-2019 11:20:00 19.4 C 15.02 g/m*3 19.4 C 0 km/h
1002 06-08-2019 11:25:00 19.6 C 15.19 g/m*3 19.6 C 1.6 km/h
1003 06-08-2019 11:30:00 19.6 C 15.19 g/m*3 19.6 C 0 km/h
1004 06-08-2019 11:35:00 19.7 C 15.11 g/m*3 19.7 C 1.6 km/h
1005 06-08-2019 11:40:00 19.9 C 15.29 g/m*3 19.9 C 1.6 km/h
1006 06-08-2019 11:45:00 20.1 C 15.47 g/m*3 20.1 C 0 km/h
1007 06-08-2019 11:50:00 20.2 C 15.39 g/m*3 20.2 C 1.6 km/h
1008 06-08-2019 11:55:00 20.4 C 15.57 g/m*3 20.4 C 1.6 km/h
1009 06-08-2019 12:00:00 20.6 C 15.57 g/m*3 20.6 C 1.6 km/h
1010 06-08-2019 12:05:00 20.7 C 15.48 g/m*3 20.7 C 1.6 km/h
1011 06-08-2019 12:10:00 20.8 C 15.75 g/m*3 20.8 C 1.6 km/h
1012 06-08-2019 12:15:00 21 C 15.39 g/m*3 21 C 3.2 km/h
1013 06-08-2019 12:20:00 21.2 C 15.38 g/m*3 21.2 C 4.8 km/h
1014 06-08-2019 12:25:00 21.3 C 15.28 g/m*3 21.3 C 4.8 km/h
1015 06-08-2019 12:30:00 21.4 C 15 g/m*3 21.4 C 6.4 km/h
1016 06-08-2019 12:35:00 21.6 C 15.17 g/m*3 21.6 C 6.4 km/h
1017 06-08-2019 12:40:00 21.7 C 15.26 g/m*3 21.7 C 6.4 km/h
1018 06-08-2019 12:45:00 21.8 C 15.35 g/m*3 21.8 C 1.6 km/h
1019 06-08-2019 12:50:00 21.8 C 15.16 g/m*3 21.8 C 6.4 km/h
1020 06-08-2019 12:55:00 21.9 C 15.24 g/m*3 21.9 C 8.1 km/h
1021 06-08-2019 13:00:00 21.9 C 15.05 g/m*3 21.9 C 8.1 km/h
1022 06-08-2019 13:05:00 22 C 15.14 g/m*3 22 C 6.4 km/h
1023 06-08-2019 13:10:00 22.1 C 15.23 g/m*3 22.1 C 8.1 km/h
1024 06-08-2019 13:15:00 22.2 C 15.51 g/m*3 22.2 C 3.2 km/h
1025 06-08-2019 13:20:00 22.3 C 15.6 g/m*3 22.3 C 4.8 km/h
Sensor: Nr:Datum:Temp:Abs-Feuchte:Windchill:Wind:
Aussen-T/F 1026 06-08-2019 13:25:00 22.3 C 15.4 g/m*3 22.3 C 8.1 km/h
1027 06-08-2019 13:30:00 22.3 C 15.2 g/m*3 22.3 C 6.4 km/h
1028 06-08-2019 13:35:00 22.3 C 15.6 g/m*3 22.3 C 8.1 km/h
1029 06-08-2019 13:40:00 22.4 C 15.09 g/m*3 22.4 C 8.1 km/h
1030 06-08-2019 13:45:00 22.6 C 15.47 g/m*3 22.6 C 8.1 km/h
1031 06-08-2019 13:50:00 22.7 C 15.36 g/m*3 22.7 C 11.3 km/h
1032 06-08-2019 13:55:00 22.8 C 15.04 g/m*3 22.8 C 11.3 km/h
1033 06-08-2019 14:00:00 23.1 C 15.09 g/m*3 23.1 C 14.5 km/h
1034 06-08-2019 14:05:00 23.2 C 14.97 g/m*3 23.2 C 14.5 km/h
1035 06-08-2019 14:10:00 23.2 C 14.97 g/m*3 23.2 C 14.5 km/h
1036 06-08-2019 14:15:00 23.3 C 14.84 g/m*3 23.3 C 12.9 km/h
1037 06-08-2019 14:20:00 23.4 C 14.93 g/m*3 23.4 C 12.9 km/h
1038 06-08-2019 14:25:00 23.5 C 14.59 g/m*3 23.5 C 11.3 km/h
1039 06-08-2019 14:30:00 23.6 C 14.46 g/m*3 23.6 C 16.1 km/h
1040 06-08-2019 14:35:00 23.7 C 14.97 g/m*3 23.7 C 14.5 km/h
1041 06-08-2019 14:40:00 23.9 C 14.93 g/m*3 23.9 C 9.7 km/h
1042 06-08-2019 14:45:00 24.1 C 14.88 g/m*3 24.1 C 12.9 km/h
1043 06-08-2019 14:50:00 24.2 C 14.74 g/m*3 24.2 C 14.5 km/h
1044 06-08-2019 14:55:00 24.2 C 14.96 g/m*3 24.2 C 12.9 km/h
1045 06-08-2019 15:00:00 24.3 C 14.38 g/m*3 24.3 C 9.7 km/h
1046 06-08-2019 15:05:00 24.4 C 14.47 g/m*3 24.4 C 12.9 km/h
1047 06-08-2019 15:10:00 24.5 C 14.55 g/m*3 24.5 C 14.5 km/h
1048 06-08-2019 15:15:00 24.4 C 14.91 g/m*3 24.4 C 16.1 km/h
1049 06-08-2019 15:20:00 24.6 C 14.85 g/m*3 24.6 C 9.7 km/h
1050 06-08-2019 15:25:00 24.8 C 15.02 g/m*3 24.8 C 9.7 km/h
Sensor: Nr:Datum:Temp:Abs-Feuchte:Windchill:Wind:
Aussen-T/F 1051 06-08-2019 15:30:00 24.8 C 14.8 g/m*3 24.8 C 12.9 km/h
1052 06-08-2019 15:35:00 24.9 C 14.88 g/m*3 24.9 C 12.9 km/h
1053 06-08-2019 15:40:00 25 C 14.5 g/m*3 25 C 12.9 km/h
1054 06-08-2019 15:45:00 25 C 14.5 g/m*3 25 C 14.5 km/h
1055 06-08-2019 15:50:00 24.9 C 14.65 g/m*3 24.9 C 11.3 km/h
1056 06-08-2019 15:55:00 25.1 C 14.58 g/m*3 25.1 C 4.8 km/h
1057 06-08-2019 16:00:00 25.2 C 14.67 g/m*3 25.2 C 12.9 km/h
1058 06-08-2019 16:05:00 25.2 C 14.67 g/m*3 25.2 C 11.3 km/h
1059 06-08-2019 16:10:00 25.3 C 14.75 g/m*3 25.3 C 9.7 km/h
1060 06-08-2019 16:15:00 25.4 C 14.6 g/m*3 25.4 C 14.5 km/h
1061 06-08-2019 16:20:00 25.2 C 14.67 g/m*3 25.2 C 11.3 km/h
1062 06-08-2019 16:25:00 25.3 C 14.51 g/m*3 25.3 C 8.1 km/h
1063 06-08-2019 16:30:00 25.4 C 14.6 g/m*3 25.4 C 9.7 km/h
1064 06-08-2019 16:35:00 25.4 C 14.6 g/m*3 25.4 C 9.7 km/h
1065 06-08-2019 16:40:00 25.4 C 14.6 g/m*3 25.4 C 9.7 km/h
1066 06-08-2019 16:45:00 25.4 C 14.36 g/m*3 25.4 C 11.3 km/h
1067 06-08-2019 16:50:00 25.6 C 14.52 g/m*3 25.6 C 9.7 km/h
1068 06-08-2019 16:55:00 25.9 C 14.28 g/m*3 25.9 C 9.7 km/h
1069 06-08-2019 17:00:00 26.2 C 14.52 g/m*3 26.2 C 11.3 km/h
1070 06-08-2019 17:05:00 26.4 C 14.44 g/m*3 26.4 C 14.5 km/h
1071 06-08-2019 17:10:00 26.4 C 14.69 g/m*3 26.4 C 8.1 km/h
1072 06-08-2019 17:15:00 26.6 C 14.35 g/m*3 26.6 C 8.1 km/h
1073 06-08-2019 17:20:00 26.8 C 14.51 g/m*3 26.8 C 9.7 km/h
1074 06-08-2019 17:25:00 26.8 C 14.51 g/m*3 26.8 C 4.8 km/h
1075 06-08-2019 17:30:00 26.7 C 14.17 g/m*3 26.7 C 9.7 km/h
Sensor: Nr:Datum:Temp:Abs-Feuchte:Windchill:Wind:
Aussen-T/F 1076 06-08-2019 17:35:00 26.4 C 13.69 g/m*3 26.4 C 9.7 km/h
1077 06-08-2019 17:40:00 26.1 C 14.2 g/m*3 26.1 C 14.5 km/h
1078 06-08-2019 17:45:00 26 C 14.12 g/m*3 26 C 9.7 km/h
1079 06-08-2019 17:50:00 26.2 C 14.52 g/m*3 26.2 C 9.7 km/h
1080 06-08-2019 17:55:00 26.2 C 14.03 g/m*3 26.2 C 11.3 km/h
1081 06-08-2019 18:00:00 26.2 C 14.28 g/m*3 26.2 C 8.1 km/h
1082 06-08-2019 18:05:00 26 C 14.12 g/m*3 26 C 8.1 km/h
1083 06-08-2019 18:10:00 25.7 C 14.13 g/m*3 25.7 C 9.7 km/h
1084 06-08-2019 18:15:00 25.4 C 14.13 g/m*3 25.4 C 6.4 km/h
1085 06-08-2019 18:20:00 25.3 C 14.28 g/m*3 25.3 C 4.8 km/h
1086 06-08-2019 18:25:00 25.2 C 13.97 g/m*3 25.2 C 9.7 km/h
1087 06-08-2019 18:30:00 25.1 C 14.35 g/m*3 25.1 C 8.1 km/h
1088 06-08-2019 18:35:00 24.9 C 13.96 g/m*3 24.9 C 1.6 km/h
1089 06-08-2019 18:40:00 24.8 C 14.11 g/m*3 24.8 C 1.6 km/h
1090 06-08-2019 18:45:00 24.7 C 14.71 g/m*3 24.7 C 0 km/h
1091 06-08-2019 18:50:00 24.7 C 15.39 g/m*3 24.7 C 0 km/h
1092 06-08-2019 18:55:00 24.5 C 15.22 g/m*3 24.5 C 0 km/h
1093 06-08-2019 19:00:00 24.3 C 15.49 g/m*3 24.3 C 0 km/h
1094 06-08-2019 19:05:00 23.9 C 15.14 g/m*3 23.9 C 0 km/h
1095 06-08-2019 19:10:00 23.7 C 15.4 g/m*3 23.7 C 0 km/h
1096 06-08-2019 19:15:00 23.4 C 15.35 g/m*3 23.4 C 1.6 km/h
1097 06-08-2019 19:20:00 23.1 C 15.3 g/m*3 23.1 C 0 km/h
1098 06-08-2019 19:25:00 22.8 C 15.24 g/m*3 22.8 C 0 km/h
1099 06-08-2019 19:30:00 22.5 C 14.98 g/m*3 22.5 C 0 km/h
1100 06-08-2019 19:35:00 22.3 C 15.2 g/m*3 22.3 C 0 km/h
Sensor: Nr:Datum:Temp:Abs-Feuchte:Windchill:Wind:
Aussen-T/F 1101 06-08-2019 19:40:00 22 C 15.72 g/m*3 22 C 12.9 km/h
1102 06-08-2019 19:45:00 21.4 C 15.37 g/m*3 21.4 C 25.7 km/h
1103 06-08-2019 19:50:00 20.8 C 15.39 g/m*3 20.8 C 25.7 km/h
1104 06-08-2019 19:55:00 20.3 C 15.3 g/m*3 20.3 C 8.1 km/h
1105 06-08-2019 20:00:00 20 C 15.38 g/m*3 20 C 0 km/h
1106 06-08-2019 20:05:00 19.8 C 15.2 g/m*3 19.8 C 0 km/h
1107 06-08-2019 20:10:00 19.7 C 15.11 g/m*3 19.7 C 0 km/h
1108 06-08-2019 20:15:00 19.4 C 15.02 g/m*3 19.4 C 0 km/h
1109 06-08-2019 20:20:00 19.2 C 14.68 g/m*3 19.2 C 1.6 km/h
1110 06-08-2019 20:25:00 19 C 14.67 g/m*3 19 C 0 km/h
1111 06-08-2019 20:30:00 18.8 C 14.66 g/m*3 18.8 C 0 km/h
1112 06-08-2019 20:35:00 18.7 C 14.57 g/m*3 18.7 C 0 km/h
1113 06-08-2019 20:40:00 18.7 C 14.57 g/m*3 18.7 C 0 km/h
1114 06-08-2019 20:45:00 18.6 C 14.64 g/m*3 18.6 C 0 km/h
1115 06-08-2019 20:50:00 18.4 C 14.47 g/m*3 18.4 C 0 km/h
1116 06-08-2019 20:55:00 18.3 C 14.38 g/m*3 18.3 C 0 km/h
1117 06-08-2019 21:00:00 18.2 C 14.3 g/m*3 18.2 C 0 km/h
1118 06-08-2019 21:05:00 18.2 C 14.46 g/m*3 18.2 C 0 km/h
1119 06-08-2019 21:10:00 18.2 C 14.46 g/m*3 18.2 C 1.6 km/h
1120 06-08-2019 21:15:00 18.1 C 14.37 g/m*3 18.1 C 0 km/h
1121 06-08-2019 21:20:00 18.1 C 14.37 g/m*3 18.1 C 0 km/h
1122 06-08-2019 21:25:00 18 C 14.28 g/m*3 18 C 0 km/h
1123 06-08-2019 21:30:00 18 C 14.28 g/m*3 18 C 0 km/h
1124 06-08-2019 21:35:00 18 C 14.28 g/m*3 18 C 0 km/h
1125 06-08-2019 21:40:00 17.9 C 14.2 g/m*3 17.9 C 1.6 km/h
Sensor: Nr:Datum:Temp:Abs-Feuchte:Windchill:Wind:
Aussen-T/F 1126 06-08-2019 21:45:00 17.9 C 14.35 g/m*3 17.9 C 0 km/h
1127 06-08-2019 21:50:00 17.8 C 14.27 g/m*3 17.8 C 3.2 km/h
1128 06-08-2019 21:55:00 17.7 C 14.18 g/m*3 17.7 C 0 km/h
1129 06-08-2019 22:00:00 17.7 C 14.18 g/m*3 17.7 C 0 km/h
1130 06-08-2019 22:05:00 17.7 C 14.18 g/m*3 17.7 C 0 km/h
1131 06-08-2019 22:10:00 17.7 C 14.18 g/m*3 17.7 C 0 km/h
1132 06-08-2019 22:15:00 17.6 C 14.1 g/m*3 17.6 C 0 km/h
1133 06-08-2019 22:20:00 17.6 C 14.1 g/m*3 17.6 C 0 km/h
1134 06-08-2019 22:25:00 17.6 C 14.1 g/m*3 17.6 C 0 km/h
1135 06-08-2019 22:30:00 17.5 C 14.01 g/m*3 17.5 C 0 km/h
1136 06-08-2019 22:35:00 17.4 C 13.93 g/m*3 17.4 C 0 km/h
1137 06-08-2019 22:40:00 17.4 C 13.93 g/m*3 17.4 C 0 km/h
1138 06-08-2019 22:45:00 17.4 C 13.93 g/m*3 17.4 C 1.6 km/h
1139 06-08-2019 22:50:00 17.3 C 13.85 g/m*3 17.3 C 0 km/h
1140 06-08-2019 22:55:00 17.3 C 13.85 g/m*3 17.3 C 0 km/h
1141 06-08-2019 23:00:00 17.3 C 13.85 g/m*3 17.3 C 0 km/h
1142 06-08-2019 23:05:00 17.2 C 13.91 g/m*3 17.2 C 0 km/h
1143 06-08-2019 23:10:00 17.2 C 13.91 g/m*3 17.2 C 0 km/h
1144 06-08-2019 23:15:00 17.2 C 13.91 g/m*3 17.2 C 0 km/h
1145 06-08-2019 23:20:00 17.2 C 13.91 g/m*3 17.2 C 0 km/h
1146 06-08-2019 23:25:00 17.1 C 13.83 g/m*3 17.1 C 0 km/h
1147 06-08-2019 23:30:00 17.1 C 13.83 g/m*3 17.1 C 8.1 km/h
1148 06-08-2019 23:35:00 17 C 13.75 g/m*3 17 C 0 km/h
1149 06-08-2019 23:40:00 17 C 13.75 g/m*3 17 C 0 km/h
1150 06-08-2019 23:45:00 16.9 C 13.66 g/m*3 16.9 C 4.8 km/h
Sensor: Nr:Datum:Temp:Abs-Feuchte:Windchill:Wind:
Aussen-T/F 1151 06-08-2019 23:50:00 16.9 C 13.66 g/m*3 16.9 C 0 km/h
1152 06-08-2019 23:55:00 16.9 C 13.66 g/m*3 16.9 C 0 km/h
1153 07-08-2019 00:00:00 16.8 C 13.58 g/m*3 16.8 C 0 km/h
1154 07-08-2019 00:05:00 16.7 C 13.5 g/m*3 16.7 C 0 km/h
1155 07-08-2019 00:10:00 16.7 C 13.5 g/m*3 16.7 C 0 km/h
1156 07-08-2019 00:15:00 16.6 C 13.42 g/m*3 16.6 C 0 km/h
1157 07-08-2019 00:20:00 16.6 C 13.42 g/m*3 16.6 C 0 km/h
1158 07-08-2019 00:25:00 16.7 C 13.5 g/m*3 16.7 C 1.6 km/h
1159 07-08-2019 00:30:00 16.7 C 13.5 g/m*3 16.7 C 0 km/h
1160 07-08-2019 00:35:00 16.7 C 13.5 g/m*3 16.7 C 0 km/h
1161 07-08-2019 00:40:00 16.7 C 13.5 g/m*3 16.7 C 0 km/h
1162 07-08-2019 00:45:00 16.7 C 13.5 g/m*3 16.7 C 0 km/h
1163 07-08-2019 00:50:00 16.7 C 13.5 g/m*3 16.7 C 0 km/h
1164 07-08-2019 00:55:00 16.6 C 13.42 g/m*3 16.6 C 0 km/h
1165 07-08-2019 01:00:00 16.5 C 13.34 g/m*3 16.5 C 0 km/h
1166 07-08-2019 01:05:00 16.4 C 13.26 g/m*3 16.4 C 0 km/h
1167 07-08-2019 01:10:00 16.3 C 13.18 g/m*3 16.3 C 0 km/h
1168 07-08-2019 01:15:00 16.3 C 13.18 g/m*3 16.3 C 0 km/h
1169 07-08-2019 01:20:00 16.2 C 13.1 g/m*3 16.2 C 0 km/h
1170 07-08-2019 01:25:00 16.2 C 13.1 g/m*3 16.2 C 0 km/h
1171 07-08-2019 01:30:00 16.2 C 13.24 g/m*3 16.2 C 0 km/h
1172 07-08-2019 01:35:00 16.2 C 13.24 g/m*3 16.2 C 0 km/h
1173 07-08-2019 01:40:00 16.3 C 13.32 g/m*3 16.3 C 0 km/h
1174 07-08-2019 01:45:00 16.3 C 13.32 g/m*3 16.3 C 0 km/h
1175 07-08-2019 01:50:00 16.3 C 13.32 g/m*3 16.3 C 0 km/h
Sensor: Nr:Datum:Temp:Abs-Feuchte:Windchill:Wind:
Aussen-T/F 1176 07-08-2019 01:55:00 16.4 C 13.4 g/m*3 16.4 C 0 km/h
1177 07-08-2019 02:00:00 16.4 C 13.4 g/m*3 16.4 C 4.8 km/h
1178 07-08-2019 02:05:00 16.5 C 13.48 g/m*3 16.5 C 4.8 km/h
1179 07-08-2019 02:10:00 16.5 C 13.48 g/m*3 16.5 C 0 km/h
1180 07-08-2019 02:15:00 16.5 C 13.48 g/m*3 16.5 C 1.6 km/h
1181 07-08-2019 02:20:00 16.5 C 13.48 g/m*3 16.5 C 3.2 km/h
1182 07-08-2019 02:25:00 16.5 C 13.48 g/m*3 16.5 C 0 km/h
1183 07-08-2019 02:30:00 16.5 C 13.48 g/m*3 16.5 C 0 km/h
1184 07-08-2019 02:35:00 16.5 C 13.48 g/m*3 16.5 C 0 km/h
1185 07-08-2019 02:40:00 16.4 C 13.4 g/m*3 16.4 C 0 km/h
1186 07-08-2019 02:45:00 16.4 C 13.4 g/m*3 16.4 C 0 km/h
1187 07-08-2019 02:50:00 16.4 C 13.4 g/m*3 16.4 C 0 km/h
1188 07-08-2019 02:55:00 16.4 C 13.4 g/m*3 16.4 C 0 km/h
1189 07-08-2019 03:00:00 16.5 C 13.48 g/m*3 16.5 C 0 km/h
1190 07-08-2019 03:05:00 16.5 C 13.48 g/m*3 16.5 C 0 km/h
1191 07-08-2019 03:10:00 16.6 C 13.56 g/m*3 16.6 C 0 km/h
1192 07-08-2019 03:15:00 16.6 C 13.56 g/m*3 16.6 C 0 km/h
1193 07-08-2019 03:20:00 16.6 C 13.7 g/m*3 16.6 C 0 km/h
1194 07-08-2019 03:25:00 16.6 C 13.7 g/m*3 16.6 C 0 km/h
1195 07-08-2019 03:30:00 16.6 C 13.7 g/m*3 16.6 C 0 km/h
1196 07-08-2019 03:35:00 16.6 C 13.56 g/m*3 16.6 C 0 km/h
1197 07-08-2019 03:40:00 16.6 C 13.56 g/m*3 16.6 C 0 km/h
1198 07-08-2019 03:45:00 16.6 C 13.56 g/m*3 16.6 C 0 km/h
1199 07-08-2019 03:50:00 16.6 C 13.56 g/m*3 16.6 C 0 km/h
1200 07-08-2019 03:55:00 16.6 C 13.56 g/m*3 16.6 C 0 km/h
Sensor: Nr:Datum:Temp:Abs-Feuchte:Windchill:Wind:
Aussen-T/F 1201 07-08-2019 04:00:00 16.6 C 13.7 g/m*3 16.6 C 0 km/h
1202 07-08-2019 04:05:00 16.6 C 13.7 g/m*3 16.6 C 0 km/h
1203 07-08-2019 04:10:00 16.6 C 13.7 g/m*3 16.6 C 0 km/h
1204 07-08-2019 04:15:00 16.6 C 13.7 g/m*3 16.6 C 0 km/h
1205 07-08-2019 04:20:00 16.6 C 13.7 g/m*3 16.6 C 0 km/h
1206 07-08-2019 04:25:00 16.6 C 13.7 g/m*3 16.6 C 0 km/h
1207 07-08-2019 04:30:00 16.7 C 13.79 g/m*3 16.7 C 0 km/h
1208 07-08-2019 04:35:00 16.6 C 13.7 g/m*3 16.6 C 0 km/h
1209 07-08-2019 04:40:00 16.7 C 13.79 g/m*3 16.7 C 0 km/h
1210 07-08-2019 04:45:00 16.7 C 13.79 g/m*3 16.7 C 0 km/h
1211 07-08-2019 04:50:00 16.7 C 13.79 g/m*3 16.7 C 0 km/h
1212 07-08-2019 04:55:00 16.6 C 13.7 g/m*3 16.6 C 0 km/h
1213 07-08-2019 05:00:00 16.6 C 13.7 g/m*3 16.6 C 0 km/h
1214 07-08-2019 05:05:00 16.6 C 13.7 g/m*3 16.6 C 0 km/h
1215 07-08-2019 05:10:00 16.7 C 13.79 g/m*3 16.7 C 0 km/h
1216 07-08-2019 05:15:00 16.6 C 13.7 g/m*3 16.6 C 0 km/h
1217 07-08-2019 05:20:00 16.6 C 13.7 g/m*3 16.6 C 0 km/h
1218 07-08-2019 05:25:00 16.7 C 13.79 g/m*3 16.7 C 0 km/h
1219 07-08-2019 05:30:00 16.7 C 13.79 g/m*3 16.7 C 0 km/h
1220 07-08-2019 05:35:00 16.7 C 13.79 g/m*3 16.7 C 0 km/h
1221 07-08-2019 05:40:00 16.7 C 13.79 g/m*3 16.7 C 0 km/h
1222 07-08-2019 05:45:00 16.7 C 13.79 g/m*3 16.7 C 0 km/h
1223 07-08-2019 05:50:00 16.7 C 13.79 g/m*3 16.7 C 0 km/h
1224 07-08-2019 05:55:00 16.7 C 13.79 g/m*3 16.7 C 0 km/h
1225 07-08-2019 06:00:00 16.7 C 13.79 g/m*3 16.7 C 0 km/h
Sensor: Nr:Datum:Temp:Abs-Feuchte:Windchill:Wind:
Aussen-T/F 1226 07-08-2019 06:05:00 16.8 C 13.87 g/m*3 16.8 C 0 km/h
1227 07-08-2019 06:10:00 16.8 C 13.87 g/m*3 16.8 C 0 km/h
1228 07-08-2019 06:15:00 16.8 C 13.87 g/m*3 16.8 C 0 km/h
1229 07-08-2019 06:20:00 16.8 C 13.87 g/m*3 16.8 C 0 km/h
1230 07-08-2019 06:25:00 16.8 C 13.87 g/m*3 16.8 C 0 km/h
1231 07-08-2019 06:30:00 16.9 C 13.95 g/m*3 16.9 C 1.6 km/h
1232 07-08-2019 06:35:00 16.9 C 13.95 g/m*3 16.9 C 0 km/h
1233 07-08-2019 06:40:00 16.9 C 13.95 g/m*3 16.9 C 0 km/h
1234 07-08-2019 06:45:00 17 C 14.04 g/m*3 17 C 0 km/h
1235 07-08-2019 06:50:00 17 C 14.04 g/m*3 17 C 0 km/h
1236 07-08-2019 06:55:00 17.1 C 14.12 g/m*3 17.1 C 0 km/h
1237 07-08-2019 07:00:00 17.1 C 14.12 g/m*3 17.1 C 0 km/h
1238 07-08-2019 07:05:00 17.1 C 14.12 g/m*3 17.1 C 0 km/h
1239 07-08-2019 07:10:00 17.1 C 14.12 g/m*3 17.1 C 0 km/h
1240 07-08-2019 07:15:00 17.2 C 14.2 g/m*3 17.2 C 0 km/h
1241 07-08-2019 07:20:00 17.2 C 14.2 g/m*3 17.2 C 0 km/h
1242 07-08-2019 07:25:00 17.2 C 14.2 g/m*3 17.2 C 0 km/h
1243 07-08-2019 07:30:00 17.3 C 14.29 g/m*3 17.3 C 0 km/h
1244 07-08-2019 07:35:00 17.3 C 14.29 g/m*3 17.3 C 0 km/h
1245 07-08-2019 07:40:00 17.3 C 14.29 g/m*3 17.3 C 0 km/h
1246 07-08-2019 07:45:00 17.4 C 14.38 g/m*3 17.4 C 0 km/h
1247 07-08-2019 07:50:00 17.4 C 14.38 g/m*3 17.4 C 1.6 km/h
1248 07-08-2019 07:55:00 17.4 C 14.38 g/m*3 17.4 C 1.6 km/h
1249 07-08-2019 08:00:00 17.4 C 14.38 g/m*3 17.4 C 0 km/h
1250 07-08-2019 08:05:00 17.4 C 14.38 g/m*3 17.4 C 0 km/h
Sensor: Nr:Datum:Temp:Abs-Feuchte:Windchill:Wind:
Aussen-T/F 1251 07-08-2019 08:10:00 17.5 C 14.46 g/m*3 17.5 C 1.6 km/h
1252 07-08-2019 08:15:00 17.6 C 14.55 g/m*3 17.6 C 3.2 km/h
1253 07-08-2019 08:20:00 17.6 C 14.55 g/m*3 17.6 C 0 km/h
1254 07-08-2019 08:25:00 17.7 C 14.64 g/m*3 17.7 C 0 km/h
1255 07-08-2019 08:30:00 17.8 C 14.72 g/m*3 17.8 C 0 km/h
1256 07-08-2019 08:35:00 17.9 C 14.81 g/m*3 17.9 C 0 km/h
1257 07-08-2019 08:40:00 17.9 C 14.81 g/m*3 17.9 C 0 km/h
1258 07-08-2019 08:45:00 18.1 C 14.99 g/m*3 18.1 C 0 km/h
1259 07-08-2019 08:50:00 18.1 C 14.99 g/m*3 18.1 C 0 km/h
1260 07-08-2019 08:55:00 18.1 C 14.99 g/m*3 18.1 C 3.2 km/h
1261 07-08-2019 09:00:00 18.1 C 14.99 g/m*3 18.1 C 3.2 km/h
1262 07-08-2019 09:05:00 18.1 C 14.99 g/m*3 18.1 C 3.2 km/h
1263 07-08-2019 09:10:00 18 C 14.9 g/m*3 18 C 3.2 km/h
1264 07-08-2019 09:15:00 18 C 14.9 g/m*3 18 C 0 km/h
1265 07-08-2019 09:20:00 18.1 C 14.99 g/m*3 18.1 C 3.2 km/h
1266 07-08-2019 09:25:00 18.2 C 15.08 g/m*3 18.2 C 3.2 km/h
1267 07-08-2019 09:30:00 18.3 C 15.17 g/m*3 18.3 C 4.8 km/h
1268 07-08-2019 09:35:00 18.3 C 15.17 g/m*3 18.3 C 4.8 km/h
1269 07-08-2019 09:40:00 18.3 C 15.17 g/m*3 18.3 C 6.4 km/h
1270 07-08-2019 09:45:00 18.4 C 15.26 g/m*3 18.4 C 1.6 km/h
1271 07-08-2019 09:50:00 18.6 C 15.44 g/m*3 18.6 C 8.1 km/h
1272 07-08-2019 09:55:00 18.6 C 15.44 g/m*3 18.6 C 8.1 km/h
1273 07-08-2019 10:00:00 18.6 C 15.44 g/m*3 18.6 C 3.2 km/h
1274 07-08-2019 10:05:00 18.7 C 15.53 g/m*3 18.7 C 1.6 km/h
1275 07-08-2019 10:10:00 18.8 C 15.62 g/m*3 18.8 C 3.2 km/h
Sensor: Nr:Datum:Temp:Abs-Feuchte:Windchill:Wind:
Aussen-T/F 1276 07-08-2019 10:15:00 19 C 15.81 g/m*3 19 C 3.2 km/h
1277 07-08-2019 10:20:00 18.8 C 15.46 g/m*3 18.8 C 3.2 km/h
1278 07-08-2019 10:25:00 18.8 C 15.46 g/m*3 18.8 C 0 km/h
1279 07-08-2019 10:30:00 18.9 C 15.55 g/m*3 18.9 C 0 km/h
1280 07-08-2019 10:35:00 19.1 C 15.74 g/m*3 19.1 C 0 km/h
1281 07-08-2019 10:40:00 19.2 C 15.99 g/m*3 19.2 C 0 km/h
1282 07-08-2019 10:45:00 19.2 C 15.83 g/m*3 19.2 C 0 km/h
1283 07-08-2019 10:50:00 19.3 C 15.92 g/m*3 19.3 C 3.2 km/h
1284 07-08-2019 10:55:00 19.2 C 15.83 g/m*3 19.2 C 1.6 km/h
1285 07-08-2019 11:00:00 19.3 C 15.92 g/m*3 19.3 C 0 km/h
1286 07-08-2019 11:05:00 19.5 C 16.11 g/m*3 19.5 C 1.6 km/h
1287 07-08-2019 11:10:00 19.5 C 15.94 g/m*3 19.5 C 3.2 km/h
1288 07-08-2019 11:15:00 19.6 C 16.04 g/m*3 19.6 C 1.6 km/h
1289 07-08-2019 11:20:00 19.6 C 15.87 g/m*3 19.6 C 1.6 km/h
1290 07-08-2019 11:25:00 19.6 C 15.87 g/m*3 19.6 C 1.6 km/h
1291 07-08-2019 11:30:00 19.8 C 16.06 g/m*3 19.8 C 0 km/h
1292 07-08-2019 11:35:00 19.8 C 15.71 g/m*3 19.8 C 6.4 km/h
1293 07-08-2019 11:40:00 19.8 C 15.37 g/m*3 19.8 C 8.1 km/h
1294 07-08-2019 11:45:00 19.9 C 15.81 g/m*3 19.9 C 0 km/h
1295 07-08-2019 11:50:00 20.1 C 15.82 g/m*3 20.1 C 0 km/h
1296 07-08-2019 11:55:00 20.2 C 15.39 g/m*3 20.2 C 3.2 km/h
1297 07-08-2019 12:00:00 20.3 C 15.83 g/m*3 20.3 C 0 km/h
1298 07-08-2019 12:05:00 20.3 C 14.95 g/m*3 20.3 C 4.8 km/h
1299 07-08-2019 12:10:00 20.4 C 15.21 g/m*3 20.4 C 9.7 km/h
1300 07-08-2019 12:15:00 20.6 C 15.39 g/m*3 20.6 C 1.6 km/h
Sensor: Nr:Datum:Temp:Abs-Feuchte:Windchill:Wind:
Aussen-T/F 1301 07-08-2019 12:20:00 20.8 C 15.93 g/m*3 20.8 C 3.2 km/h
1302 07-08-2019 12:25:00 20.9 C 15.66 g/m*3 20.9 C 1.6 km/h
1303 07-08-2019 12:30:00 20.8 C 14.67 g/m*3 20.8 C 3.2 km/h
1304 07-08-2019 12:35:00 20.9 C 15.3 g/m*3 20.9 C 3.2 km/h
1305 07-08-2019 12:40:00 21.1 C 15.11 g/m*3 21.1 C 4.8 km/h
1306 07-08-2019 12:45:00 21.2 C 15.01 g/m*3 21.2 C 3.2 km/h
1307 07-08-2019 12:50:00 21.3 C 15.47 g/m*3 21.3 C 3.2 km/h
1308 07-08-2019 12:55:00 21.4 C 15.37 g/m*3 21.4 C 8.1 km/h
1309 07-08-2019 13:00:00 21.5 C 15.65 g/m*3 21.5 C 6.4 km/h
1310 07-08-2019 13:05:00 21.5 C 14.9 g/m*3 21.5 C 4.8 km/h
1311 07-08-2019 13:10:00 21.6 C 14.79 g/m*3 21.6 C 0 km/h
1312 07-08-2019 13:15:00 21.8 C 16.12 g/m*3 21.8 C 0 km/h
1313 07-08-2019 13:20:00 21.8 C 14.39 g/m*3 21.8 C 4.8 km/h
1314 07-08-2019 13:25:00 21.8 C 14.58 g/m*3 21.8 C 9.7 km/h
1315 07-08-2019 13:30:00 21.8 C 14.39 g/m*3 21.8 C 9.7 km/h
1316 07-08-2019 13:35:00 21.9 C 13.89 g/m*3 21.9 C 8.1 km/h
1317 07-08-2019 13:40:00 22 C 14.75 g/m*3 22 C 4.8 km/h
1318 07-08-2019 13:45:00 22.1 C 14.05 g/m*3 22.1 C 4.8 km/h
1319 07-08-2019 13:50:00 22.2 C 14.14 g/m*3 22.2 C 11.3 km/h
1320 07-08-2019 13:55:00 22.3 C 14.61 g/m*3 22.3 C 4.8 km/h
1321 07-08-2019 14:00:00 22.4 C 14.5 g/m*3 22.4 C 4.8 km/h
1322 07-08-2019 14:05:00 22.6 C 15.27 g/m*3 22.6 C 1.6 km/h
1323 07-08-2019 14:10:00 22.7 C 15.56 g/m*3 22.7 C 8.1 km/h
1324 07-08-2019 14:15:00 22.7 C 15.76 g/m*3 22.7 C 6.4 km/h
1325 07-08-2019 14:20:00 22.6 C 14.87 g/m*3 22.6 C 6.4 km/h
Sensor: Nr:Datum:Temp:Abs-Feuchte:Windchill:Wind:
Aussen-T/F 1326 07-08-2019 14:25:00 22.4 C 15.09 g/m*3 22.4 C 6.4 km/h
1327 07-08-2019 14:30:00 22.4 C 15.09 g/m*3 22.4 C 6.4 km/h
1328 07-08-2019 14:35:00 22.4 C 15.09 g/m*3 22.4 C 8.1 km/h
1329 07-08-2019 14:40:00 22.4 C 15.09 g/m*3 22.4 C 4.8 km/h
1330 07-08-2019 14:45:00 22.5 C 14.98 g/m*3 22.5 C 12.9 km/h
1331 07-08-2019 14:50:00 22.6 C 14.66 g/m*3 22.6 C 8.1 km/h
1332 07-08-2019 14:55:00 22.6 C 14.87 g/m*3 22.6 C 14.5 km/h
1333 07-08-2019 15:00:00 22.6 C 14.87 g/m*3 22.6 C 11.3 km/h
1334 07-08-2019 15:05:00 22.7 C 14.75 g/m*3 22.7 C 11.3 km/h
1335 07-08-2019 15:10:00 22.7 C 14.55 g/m*3 22.7 C 9.7 km/h
1336 07-08-2019 15:15:00 22.7 C 14.95 g/m*3 22.7 C 4.8 km/h
1337 07-08-2019 15:20:00 22.7 C 14.95 g/m*3 22.7 C 6.4 km/h
1338 07-08-2019 15:25:00 22.7 C 14.75 g/m*3 22.7 C 12.9 km/h
1339 07-08-2019 15:30:00 22.6 C 14.66 g/m*3 22.6 C 11.3 km/h
1340 07-08-2019 15:35:00 22.6 C 14.66 g/m*3 22.6 C 9.7 km/h
1341 07-08-2019 15:40:00 22.6 C 14.66 g/m*3 22.6 C 12.9 km/h
1342 07-08-2019 15:45:00 22.5 C 14.18 g/m*3 22.5 C 11.3 km/h
1343 07-08-2019 15:50:00 22.4 C 14.5 g/m*3 22.4 C 12.9 km/h
1344 07-08-2019 15:55:00 22.3 C 14.22 g/m*3 22.3 C 11.3 km/h
1345 07-08-2019 16:00:00 22.3 C 14.22 g/m*3 22.3 C 9.7 km/h
1346 07-08-2019 16:05:00 22.2 C 14.33 g/m*3 22.2 C 9.7 km/h
1347 07-08-2019 16:10:00 22.2 C 14.53 g/m*3 22.2 C 8.1 km/h
1348 07-08-2019 16:15:00 22.2 C 14.14 g/m*3 22.2 C 12.9 km/h
1349 07-08-2019 16:20:00 22.1 C 14.45 g/m*3 22.1 C 8.1 km/h
1350 07-08-2019 16:25:00 22 C 14.17 g/m*3 22 C 8.1 km/h
Sensor: Nr:Datum:Temp:Abs-Feuchte:Windchill:Wind:
Aussen-T/F 1351 07-08-2019 16:30:00 21.9 C 14.09 g/m*3 21.9 C 9.7 km/h
1352 07-08-2019 16:35:00 21.8 C 14.01 g/m*3 21.8 C 9.7 km/h
1353 07-08-2019 16:40:00 21.9 C 14.09 g/m*3 21.9 C 9.7 km/h
1354 07-08-2019 16:45:00 22.1 C 14.25 g/m*3 22.1 C 8.1 km/h
1355 07-08-2019 16:50:00 22.2 C 14.14 g/m*3 22.2 C 11.3 km/h
1356 07-08-2019 16:55:00 22.1 C 14.05 g/m*3 22.1 C 11.3 km/h
1357 07-08-2019 17:00:00 22.1 C 14.25 g/m*3 22.1 C 4.8 km/h
1358 07-08-2019 17:05:00 22 C 13.97 g/m*3 22 C 9.7 km/h
1359 07-08-2019 17:10:00 22 C 14.17 g/m*3 22 C 8.1 km/h
1360 07-08-2019 17:15:00 22.1 C 14.25 g/m*3 22.1 C 8.1 km/h
1361 07-08-2019 17:20:00 22.2 C 14.33 g/m*3 22.2 C 6.4 km/h
1362 07-08-2019 17:25:00 22.4 C 14.3 g/m*3 22.4 C 11.3 km/h
1363 07-08-2019 17:30:00 22.6 C 14.06 g/m*3 22.6 C 8.1 km/h
1364 07-08-2019 17:35:00 22.8 C 14.63 g/m*3 22.8 C 8.1 km/h
1365 07-08-2019 17:40:00 23.1 C 14.68 g/m*3 23.1 C 8.1 km/h
1366 07-08-2019 17:45:00 23.2 C 14.14 g/m*3 23.2 C 9.7 km/h
1367 07-08-2019 17:50:00 23.1 C 14.06 g/m*3 23.1 C 8.1 km/h
1368 07-08-2019 17:55:00 22.8 C 14.22 g/m*3 22.8 C 9.7 km/h
1369 07-08-2019 18:00:00 22.6 C 14.26 g/m*3 22.6 C 11.3 km/h
1370 07-08-2019 18:05:00 22.5 C 14.58 g/m*3 22.5 C 6.4 km/h
1371 07-08-2019 18:10:00 22.5 C 14.18 g/m*3 22.5 C 9.7 km/h
1372 07-08-2019 18:15:00 22.5 C 13.98 g/m*3 22.5 C 8.1 km/h
1373 07-08-2019 18:20:00 22.8 C 14.43 g/m*3 22.8 C 8.1 km/h
1374 07-08-2019 18:25:00 23.2 C 14.34 g/m*3 23.2 C 8.1 km/h
1375 07-08-2019 18:30:00 23.6 C 14.46 g/m*3 23.6 C 9.7 km/h
Sensor: Nr:Datum:Temp:Abs-Feuchte:Windchill:Wind:
Aussen-T/F 1376 07-08-2019 18:35:00 23.9 C 14.49 g/m*3 23.9 C 8.1 km/h
1377 07-08-2019 18:40:00 24.1 C 14.22 g/m*3 24.1 C 8.1 km/h
1378 07-08-2019 18:45:00 24.3 C 14.38 g/m*3 24.3 C 12.9 km/h
1379 07-08-2019 18:50:00 24.2 C 14.52 g/m*3 24.2 C 8.1 km/h
1380 07-08-2019 18:55:00 24.1 C 14.22 g/m*3 24.1 C 6.4 km/h
1381 07-08-2019 19:00:00 23.8 C 13.98 g/m*3 23.8 C 6.4 km/h
1382 07-08-2019 19:05:00 23.5 C 14.17 g/m*3 23.5 C 9.7 km/h
1383 07-08-2019 19:10:00 23.2 C 14.14 g/m*3 23.2 C 12.9 km/h
1384 07-08-2019 19:15:00 22.9 C 14.92 g/m*3 22.9 C 9.7 km/h
1385 07-08-2019 19:20:00 22.7 C 14.55 g/m*3 22.7 C 0 km/h
1386 07-08-2019 19:25:00 22.4 C 14.5 g/m*3 22.4 C 8.1 km/h
1387 07-08-2019 19:30:00 22.2 C 14.92 g/m*3 22.2 C 0 km/h
1388 07-08-2019 19:35:00 21.9 C 14.86 g/m*3 21.9 C 0 km/h
1389 07-08-2019 19:40:00 21.8 C 14.97 g/m*3 21.8 C 0 km/h
1390 07-08-2019 19:45:00 21.6 C 14.79 g/m*3 21.6 C 0 km/h
1391 07-08-2019 19:50:00 21.4 C 14.81 g/m*3 21.4 C 0 km/h
1392 07-08-2019 19:55:00 21.2 C 14.64 g/m*3 21.2 C 1.6 km/h
1393 07-08-2019 20:00:00 21.1 C 14.74 g/m*3 21.1 C 0 km/h
1394 07-08-2019 20:05:00 20.8 C 14.67 g/m*3 20.8 C 0 km/h
1395 07-08-2019 20:10:00 20.7 C 14.76 g/m*3 20.7 C 0 km/h
1396 07-08-2019 20:15:00 20.4 C 14.68 g/m*3 20.4 C 0 km/h
1397 07-08-2019 20:20:00 20.3 C 14.6 g/m*3 20.3 C 0 km/h
1398 07-08-2019 20:25:00 20.1 C 14.6 g/m*3 20.1 C 8.1 km/h
1399 07-08-2019 20:30:00 19.9 C 14.43 g/m*3 19.9 C 6.4 km/h
1400 07-08-2019 20:35:00 19.8 C 14.35 g/m*3 19.8 C 3.2 km/h
Sensor: Nr:Datum:Temp:Abs-Feuchte:Windchill:Wind:
Aussen-T/F 1401 07-08-2019 20:40:00 19.7 C 14.43 g/m*3 19.7 C 1.6 km/h
1402 07-08-2019 20:45:00 19.4 C 14.18 g/m*3 19.4 C 9.7 km/h
1403 07-08-2019 20:50:00 19.3 C 14.1 g/m*3 19.3 C 1.6 km/h
1404 07-08-2019 20:55:00 19.2 C 14.18 g/m*3 19.2 C 0 km/h
1405 07-08-2019 21:00:00 19.1 C 14.1 g/m*3 19.1 C 1.6 km/h
1406 07-08-2019 21:05:00 18.9 C 14.09 g/m*3 18.9 C 1.6 km/h
1407 07-08-2019 21:10:00 18.8 C 13.85 g/m*3 18.8 C 6.4 km/h
1408 07-08-2019 21:15:00 18.6 C 13.69 g/m*3 18.6 C 0 km/h
1409 07-08-2019 21:20:00 18.3 C 13.45 g/m*3 18.3 C 0 km/h
1410 07-08-2019 21:25:00 18.1 C 13.29 g/m*3 18.1 C 0 km/h
1411 07-08-2019 21:30:00 17.9 C 13.28 g/m*3 17.9 C 0 km/h
1412 07-08-2019 21:35:00 17.7 C 13.13 g/m*3 17.7 C 0 km/h
1413 07-08-2019 21:40:00 17.5 C 12.97 g/m*3 17.5 C 0 km/h
1414 07-08-2019 21:45:00 17.3 C 12.82 g/m*3 17.3 C 0 km/h
1415 07-08-2019 21:50:00 17.3 C 12.96 g/m*3 17.3 C 0 km/h
1416 07-08-2019 21:55:00 17.1 C 12.81 g/m*3 17.1 C 0 km/h
1417 07-08-2019 22:00:00 17.1 C 12.96 g/m*3 17.1 C 0 km/h
1418 07-08-2019 22:05:00 17 C 12.88 g/m*3 17 C 0 km/h
1419 07-08-2019 22:10:00 16.9 C 12.8 g/m*3 16.9 C 0 km/h
1420 07-08-2019 22:15:00 16.8 C 12.72 g/m*3 16.8 C 0 km/h
1421 07-08-2019 22:20:00 16.7 C 12.65 g/m*3 16.7 C 0 km/h
1422 07-08-2019 22:25:00 16.7 C 12.79 g/m*3 16.7 C 0 km/h
1423 07-08-2019 22:30:00 16.7 C 12.79 g/m*3 16.7 C 0 km/h
1424 07-08-2019 22:35:00 16.6 C 12.71 g/m*3 16.6 C 0 km/h
1425 07-08-2019 22:40:00 16.6 C 12.71 g/m*3 16.6 C 0 km/h
Sensor: Nr:Datum:Temp:Abs-Feuchte:Windchill:Wind:
Aussen-T/F 1426 07-08-2019 22:45:00 16.6 C 12.86 g/m*3 16.6 C 1.6 km/h
1427 07-08-2019 22:50:00 16.6 C 12.86 g/m*3 16.6 C 1.6 km/h
1428 07-08-2019 22:55:00 16.6 C 12.71 g/m*3 16.6 C 3.2 km/h
1429 07-08-2019 23:00:00 16.7 C 12.65 g/m*3 16.7 C 4.8 km/h
1430 07-08-2019 23:05:00 16.8 C 12.87 g/m*3 16.8 C 0 km/h
1431 07-08-2019 23:10:00 16.8 C 12.72 g/m*3 16.8 C 0 km/h
1432 07-08-2019 23:15:00 16.8 C 12.72 g/m*3 16.8 C 0 km/h
1433 07-08-2019 23:20:00 16.8 C 12.72 g/m*3 16.8 C 6.4 km/h
1434 07-08-2019 23:25:00 16.8 C 12.72 g/m*3 16.8 C 1.6 km/h
1435 07-08-2019 23:30:00 16.8 C 12.72 g/m*3 16.8 C 0 km/h
1436 07-08-2019 23:35:00 16.7 C 12.65 g/m*3 16.7 C 0 km/h
1437 07-08-2019 23:40:00 16.6 C 12.57 g/m*3 16.6 C 0 km/h
1438 07-08-2019 23:45:00 16.4 C 12.42 g/m*3 16.4 C 0 km/h
1439 07-08-2019 23:50:00 16.3 C 12.35 g/m*3 16.3 C 0 km/h
1440 07-08-2019 23:55:00 16.2 C 12.41 g/m*3 16.2 C 0 km/h
1441 08-08-2019 00:00:00 16.1 C 12.34 g/m*3 16.1 C 0 km/h
1442 08-08-2019 00:05:00 15.9 C 12.19 g/m*3 15.9 C 0 km/h
1443 08-08-2019 00:10:00 15.8 C 12.11 g/m*3 15.8 C 0 km/h
1444 08-08-2019 00:15:00 15.7 C 12.04 g/m*3 15.7 C 0 km/h
1445 08-08-2019 00:20:00 15.7 C 12.18 g/m*3 15.7 C 0 km/h
1446 08-08-2019 00:25:00 15.6 C 12.1 g/m*3 15.6 C 0 km/h
1447 08-08-2019 00:30:00 15.6 C 12.23 g/m*3 15.6 C 0 km/h
1448 08-08-2019 00:35:00 15.6 C 12.23 g/m*3 15.6 C 0 km/h
1449 08-08-2019 00:40:00 15.6 C 12.23 g/m*3 15.6 C 0 km/h
1450 08-08-2019 00:45:00 15.7 C 12.44 g/m*3 15.7 C 0 km/h
Sensor: Nr:Datum:Temp:Abs-Feuchte:Windchill:Wind:
Aussen-T/F 1451 08-08-2019 00:50:00 15.8 C 12.52 g/m*3 15.8 C 8.1 km/h
1452 08-08-2019 00:55:00 16.1 C 12.75 g/m*3 16.1 C 14.5 km/h
1453 08-08-2019 01:00:00 16.2 C 12.69 g/m*3 16.2 C 6.4 km/h
1454 08-08-2019 01:05:00 16.2 C 12.69 g/m*3 16.2 C 4.8 km/h
1455 08-08-2019 01:10:00 16.3 C 12.76 g/m*3 16.3 C 6.4 km/h
1456 08-08-2019 01:15:00 16.3 C 12.76 g/m*3 16.3 C 0 km/h
1457 08-08-2019 01:20:00 16.4 C 12.84 g/m*3 16.4 C 1.6 km/h
1458 08-08-2019 01:25:00 16.4 C 12.84 g/m*3 16.4 C 0 km/h
1459 08-08-2019 01:30:00 16.4 C 12.84 g/m*3 16.4 C 0 km/h
1460 08-08-2019 01:35:00 16.4 C 12.84 g/m*3 16.4 C 0 km/h
1461 08-08-2019 01:40:00 16.4 C 12.84 g/m*3 16.4 C 0 km/h
1462 08-08-2019 01:45:00 16.4 C 12.84 g/m*3 16.4 C 0 km/h
1463 08-08-2019 01:50:00 16.4 C 12.84 g/m*3 16.4 C 0 km/h
1464 08-08-2019 01:55:00 16.4 C 12.84 g/m*3 16.4 C 0 km/h
1465 08-08-2019 02:00:00 16.4 C 12.84 g/m*3 16.4 C 3.2 km/h
1466 08-08-2019 02:05:00 16.5 C 12.92 g/m*3 16.5 C 4.8 km/h
1467 08-08-2019 02:10:00 16.5 C 12.92 g/m*3 16.5 C 0 km/h
1468 08-08-2019 02:15:00 16.5 C 12.92 g/m*3 16.5 C 0 km/h
1469 08-08-2019 02:20:00 16.5 C 12.92 g/m*3 16.5 C 0 km/h
1470 08-08-2019 02:25:00 16.5 C 12.92 g/m*3 16.5 C 0 km/h
1471 08-08-2019 02:30:00 16.5 C 12.92 g/m*3 16.5 C 0 km/h
1472 08-08-2019 02:35:00 16.5 C 12.92 g/m*3 16.5 C 0 km/h
1473 08-08-2019 02:40:00 16.4 C 12.84 g/m*3 16.4 C 0 km/h
1474 08-08-2019 02:45:00 16.4 C 12.84 g/m*3 16.4 C 0 km/h
1475 08-08-2019 02:50:00 16.4 C 12.84 g/m*3 16.4 C 0 km/h
Sensor: Nr:Datum:Temp:Abs-Feuchte:Windchill:Wind:
Aussen-T/F 1476 08-08-2019 02:55:00 16.3 C 12.76 g/m*3 16.3 C 0 km/h
1477 08-08-2019 03:00:00 16.3 C 12.76 g/m*3 16.3 C 3.2 km/h
1478 08-08-2019 03:05:00 16.4 C 12.84 g/m*3 16.4 C 8.1 km/h
1479 08-08-2019 03:10:00 16.4 C 12.84 g/m*3 16.4 C 1.6 km/h
1480 08-08-2019 03:15:00 16.4 C 12.84 g/m*3 16.4 C 6.4 km/h
1481 08-08-2019 03:20:00 16.5 C 12.92 g/m*3 16.5 C 3.2 km/h
1482 08-08-2019 03:25:00 16.6 C 13 g/m*3 16.6 C 1.6 km/h
1483 08-08-2019 03:30:00 16.6 C 13 g/m*3 16.6 C 0 km/h
1484 08-08-2019 03:35:00 16.6 C 13 g/m*3 16.6 C 0 km/h
1485 08-08-2019 03:40:00 16.5 C 12.92 g/m*3 16.5 C 0 km/h
1486 08-08-2019 03:45:00 16.4 C 12.84 g/m*3 16.4 C 0 km/h
1487 08-08-2019 03:50:00 16.3 C 12.62 g/m*3 16.3 C 0 km/h
1488 08-08-2019 03:55:00 16.3 C 12.76 g/m*3 16.3 C 0 km/h
1489 08-08-2019 04:00:00 16.2 C 12.69 g/m*3 16.2 C 0 km/h
1490 08-08-2019 04:05:00 16.2 C 12.69 g/m*3 16.2 C 0 km/h
1491 08-08-2019 04:10:00 16.2 C 12.69 g/m*3 16.2 C 0 km/h
1492 08-08-2019 04:15:00 16.1 C 12.75 g/m*3 16.1 C 0 km/h
1493 08-08-2019 04:20:00 16.1 C 12.61 g/m*3 16.1 C 0 km/h
1494 08-08-2019 04:25:00 16.1 C 12.75 g/m*3 16.1 C 0 km/h
1495 08-08-2019 04:30:00 16 C 12.67 g/m*3 16 C 0 km/h
1496 08-08-2019 04:35:00 16 C 12.67 g/m*3 16 C 1.6 km/h
1497 08-08-2019 04:40:00 16 C 12.67 g/m*3 16 C 0 km/h
1498 08-08-2019 04:45:00 16 C 12.67 g/m*3 16 C 0 km/h
1499 08-08-2019 04:50:00 16 C 12.67 g/m*3 16 C 0 km/h
1500 08-08-2019 04:55:00 15.9 C 12.59 g/m*3 15.9 C 0 km/h
Sensor: Nr:Datum:Temp:Abs-Feuchte:Windchill:Wind:
Aussen-T/F 1501 08-08-2019 05:00:00 15.8 C 12.52 g/m*3 15.8 C 0 km/h
1502 08-08-2019 05:05:00 15.7 C 12.44 g/m*3 15.7 C 0 km/h
1503 08-08-2019 05:10:00 15.6 C 12.23 g/m*3 15.6 C 0 km/h
1504 08-08-2019 05:15:00 15.4 C 12.09 g/m*3 15.4 C 0 km/h
1505 08-08-2019 05:20:00 15.3 C 12.14 g/m*3 15.3 C 0 km/h
1506 08-08-2019 05:25:00 15.2 C 12.07 g/m*3 15.2 C 0 km/h
1507 08-08-2019 05:30:00 15.1 C 12 g/m*3 15.1 C 0 km/h
1508 08-08-2019 05:35:00 15 C 11.93 g/m*3 15 C 0 km/h
1509 08-08-2019 05:40:00 15.1 C 12.13 g/m*3 15.1 C 0 km/h
1510 08-08-2019 05:45:00 15.1 C 12.13 g/m*3 15.1 C 3.2 km/h
1511 08-08-2019 05:50:00 15.2 C 12.2 g/m*3 15.2 C 3.2 km/h
1512 08-08-2019 05:55:00 15.3 C 12.41 g/m*3 15.3 C 0 km/h
1513 08-08-2019 06:00:00 15.3 C 12.41 g/m*3 15.3 C 6.4 km/h
1514 08-08-2019 06:05:00 15.4 C 12.48 g/m*3 15.4 C 1.6 km/h
1515 08-08-2019 06:10:00 15.4 C 12.48 g/m*3 15.4 C 4.8 km/h
1516 08-08-2019 06:15:00 15.6 C 12.63 g/m*3 15.6 C 4.8 km/h
1517 08-08-2019 06:20:00 15.7 C 12.58 g/m*3 15.7 C 6.4 km/h
1518 08-08-2019 06:25:00 15.8 C 12.65 g/m*3 15.8 C 3.2 km/h
1519 08-08-2019 06:30:00 15.8 C 12.65 g/m*3 15.8 C 3.2 km/h
1520 08-08-2019 06:35:00 15.9 C 12.73 g/m*3 15.9 C 8.1 km/h
1521 08-08-2019 06:40:00 15.9 C 12.59 g/m*3 15.9 C 3.2 km/h
1522 08-08-2019 06:45:00 15.9 C 12.59 g/m*3 15.9 C 3.2 km/h
1523 08-08-2019 06:50:00 15.9 C 12.59 g/m*3 15.9 C 4.8 km/h
1524 08-08-2019 06:55:00 15.8 C 12.52 g/m*3 15.8 C 3.2 km/h
1525 08-08-2019 07:00:00 15.8 C 12.52 g/m*3 15.8 C 3.2 km/h
Sensor: Nr:Datum:Temp:Abs-Feuchte:Windchill:Wind:
Aussen-T/F 1526 08-08-2019 07:05:00 15.8 C 12.52 g/m*3 15.8 C 1.6 km/h
1527 08-08-2019 07:10:00 15.8 C 12.52 g/m*3 15.8 C 0 km/h
1528 08-08-2019 07:15:00 15.8 C 12.52 g/m*3 15.8 C 0 km/h
1529 08-08-2019 07:20:00 15.8 C 12.52 g/m*3 15.8 C 3.2 km/h
1530 08-08-2019 07:25:00 15.9 C 12.73 g/m*3 15.9 C 1.6 km/h
1531 08-08-2019 07:30:00 15.9 C 12.73 g/m*3 15.9 C 1.6 km/h
1532 08-08-2019 07:35:00 16 C 12.81 g/m*3 16 C 1.6 km/h
1533 08-08-2019 07:40:00 16.1 C 12.88 g/m*3 16.1 C 0 km/h
1534 08-08-2019 07:45:00 16.1 C 12.88 g/m*3 16.1 C 3.2 km/h
1535 08-08-2019 07:50:00 16.2 C 12.96 g/m*3 16.2 C 1.6 km/h
1536 08-08-2019 07:55:00 16.2 C 12.96 g/m*3 16.2 C 3.2 km/h
1537 08-08-2019 08:00:00 16.3 C 13.04 g/m*3 16.3 C 8.1 km/h
1538 08-08-2019 08:05:00 16.4 C 12.98 g/m*3 16.4 C 8.1 km/h
1539 08-08-2019 08:10:00 16.6 C 13.14 g/m*3 16.6 C 9.7 km/h
1540 08-08-2019 08:15:00 16.7 C 13.07 g/m*3 16.7 C 8.1 km/h
1541 08-08-2019 08:20:00 16.9 C 13.23 g/m*3 16.9 C 9.7 km/h
1542 08-08-2019 08:25:00 17.1 C 13.25 g/m*3 17.1 C 9.7 km/h
1543 08-08-2019 08:30:00 17.2 C 13.33 g/m*3 17.2 C 6.4 km/h
1544 08-08-2019 08:35:00 17.3 C 13.26 g/m*3 17.3 C 8.1 km/h
1545 08-08-2019 08:40:00 17.4 C 13.34 g/m*3 17.4 C 9.7 km/h
1546 08-08-2019 08:45:00 17.5 C 13.42 g/m*3 17.5 C 9.7 km/h
1547 08-08-2019 08:50:00 17.6 C 13.35 g/m*3 17.6 C 8.1 km/h
1548 08-08-2019 08:55:00 17.7 C 13.43 g/m*3 17.7 C 9.7 km/h
1549 08-08-2019 09:00:00 17.8 C 13.51 g/m*3 17.8 C 6.4 km/h
1550 08-08-2019 09:05:00 17.9 C 13.44 g/m*3 17.9 C 11.3 km/h
Sensor: Nr:Datum:Temp:Abs-Feuchte:Windchill:Wind:
Aussen-T/F 1551 08-08-2019 09:10:00 18.1 C 13.6 g/m*3 18.1 C 8.1 km/h
1552 08-08-2019 09:15:00 18.3 C 13.6 g/m*3 18.3 C 11.3 km/h
1553 08-08-2019 09:20:00 18.4 C 13.37 g/m*3 18.4 C 8.1 km/h
1554 08-08-2019 09:25:00 18.5 C 13.45 g/m*3 18.5 C 8.1 km/h
1555 08-08-2019 09:30:00 18.6 C 13.37 g/m*3 18.6 C 9.7 km/h
1556 08-08-2019 09:35:00 18.7 C 13.45 g/m*3 18.7 C 3.2 km/h
1557 08-08-2019 09:40:00 18.9 C 13.12 g/m*3 18.9 C 8.1 km/h
1558 08-08-2019 09:45:00 19.1 C 13.28 g/m*3 19.1 C 6.4 km/h
1559 08-08-2019 09:50:00 19.2 C 13.19 g/m*3 19.2 C 9.7 km/h
1560 08-08-2019 09:55:00 19.2 C 12.7 g/m*3 19.2 C 8.1 km/h
1561 08-08-2019 10:00:00 19.3 C 12.61 g/m*3 19.3 C 9.7 km/h
1562 08-08-2019 10:05:00 19.4 C 12.35 g/m*3 19.4 C 11.3 km/h
1563 08-08-2019 10:10:00 19.5 C 12.75 g/m*3 19.5 C 6.4 km/h
1564 08-08-2019 10:15:00 19.6 C 12.83 g/m*3 19.6 C 9.7 km/h
1565 08-08-2019 10:20:00 19.7 C 12.4 g/m*3 19.7 C 12.9 km/h
1566 08-08-2019 10:25:00 19.9 C 12.54 g/m*3 19.9 C 16.1 km/h
1567 08-08-2019 10:30:00 20.2 C 12.59 g/m*3 20.2 C 16.1 km/h
1568 08-08-2019 10:35:00 20.3 C 12.66 g/m*3 20.3 C 8.1 km/h
1569 08-08-2019 10:40:00 20.5 C 12.81 g/m*3 20.5 C 12.9 km/h
1570 08-08-2019 10:45:00 20.7 C 12.78 g/m*3 20.7 C 14.5 km/h
1571 08-08-2019 10:50:00 20.8 C 12.86 g/m*3 20.8 C 9.7 km/h
1572 08-08-2019 10:55:00 20.8 C 12.67 g/m*3 20.8 C 8.1 km/h
1573 08-08-2019 11:00:00 21 C 12.82 g/m*3 21 C 11.3 km/h
1574 08-08-2019 11:05:00 21.1 C 12.53 g/m*3 21.1 C 11.3 km/h
1575 08-08-2019 11:10:00 21.2 C 12.42 g/m*3 21.2 C 11.3 km/h
Sensor: Nr:Datum:Temp:Abs-Feuchte:Windchill:Wind:
Aussen-T/F 1576 08-08-2019 11:15:00 21.3 C 12.68 g/m*3 21.3 C 9.7 km/h
1577 08-08-2019 11:20:00 21.5 C 12.63 g/m*3 21.5 C 12.9 km/h
1578 08-08-2019 11:25:00 21.6 C 12.9 g/m*3 21.6 C 9.7 km/h
1579 08-08-2019 11:30:00 21.8 C 12.66 g/m*3 21.8 C 11.3 km/h
1580 08-08-2019 11:35:00 21.9 C 12.35 g/m*3 21.9 C 14.5 km/h
1581 08-08-2019 11:40:00 22 C 12.62 g/m*3 22 C 6.4 km/h
1582 08-08-2019 11:45:00 22.3 C 12.24 g/m*3 22.3 C 14.5 km/h
1583 08-08-2019 11:50:00 22.5 C 12.38 g/m*3 22.5 C 16.1 km/h
1584 08-08-2019 11:55:00 22.7 C 12.53 g/m*3 22.7 C 12.9 km/h
1585 08-08-2019 12:00:00 22.8 C 12.6 g/m*3 22.8 C 12.9 km/h
1586 08-08-2019 12:05:00 22.7 C 12.73 g/m*3 22.7 C 11.3 km/h
1587 08-08-2019 12:10:00 22.6 C 12.66 g/m*3 22.6 C 12.9 km/h
1588 08-08-2019 12:15:00 22.7 C 12.93 g/m*3 22.7 C 12.9 km/h
1589 08-08-2019 12:20:00 22.7 C 12.53 g/m*3 22.7 C 16.1 km/h
1590 08-08-2019 12:25:00 22.9 C 12.26 g/m*3 22.9 C 20.9 km/h
1591 08-08-2019 12:30:00 23 C 12.54 g/m*3 23 C 20.9 km/h
1592 08-08-2019 12:35:00 23 C 12.54 g/m*3 23 C 16.1 km/h
1593 08-08-2019 12:40:00 23.2 C 12.47 g/m*3 23.2 C 17.7 km/h
1594 08-08-2019 12:45:00 23.3 C 12.55 g/m*3 23.3 C 14.5 km/h
1595 08-08-2019 12:50:00 23.4 C 12.62 g/m*3 23.4 C 16.1 km/h
1596 08-08-2019 12:55:00 23.6 C 12.34 g/m*3 23.6 C 14.5 km/h
1597 08-08-2019 13:00:00 23.7 C 12.83 g/m*3 23.7 C 12.9 km/h
1598 08-08-2019 13:05:00 23.8 C 12.69 g/m*3 23.8 C 11.3 km/h
1599 08-08-2019 13:10:00 23.9 C 12.76 g/m*3 23.9 C 14.5 km/h
1600 08-08-2019 13:15:00 24.1 C 12.47 g/m*3 24.1 C 14.5 km/h
Sensor: Nr:Datum:Temp:Abs-Feuchte:Windchill:Wind:
Aussen-T/F 1601 08-08-2019 13:20:00 24.1 C 12.47 g/m*3 24.1 C 9.7 km/h
1602 08-08-2019 13:25:00 24.2 C 12.54 g/m*3 24.2 C 14.5 km/h
1603 08-08-2019 13:30:00 24.2 C 12.1 g/m*3 24.2 C 16.1 km/h
1604 08-08-2019 13:35:00 24.1 C 12.25 g/m*3 24.1 C 11.3 km/h
1605 08-08-2019 13:40:00 24 C 12.62 g/m*3 24 C 6.4 km/h
1606 08-08-2019 13:45:00 24 C 12.62 g/m*3 24 C 8.1 km/h
1607 08-08-2019 13:50:00 24 C 12.18 g/m*3 24 C 9.7 km/h
1608 08-08-2019 13:55:00 24.2 C 12.54 g/m*3 24.2 C 14.5 km/h
1609 08-08-2019 14:00:00 24.2 C 12.76 g/m*3 24.2 C 9.7 km/h
1610 08-08-2019 14:05:00 24.1 C 12.47 g/m*3 24.1 C 8.1 km/h
1611 08-08-2019 14:10:00 24.1 C 12.91 g/m*3 24.1 C 8.1 km/h
1612 08-08-2019 14:15:00 24.2 C 12.76 g/m*3 24.2 C 11.3 km/h
1613 08-08-2019 14:20:00 24.3 C 13.06 g/m*3 24.3 C 11.3 km/h
1614 08-08-2019 14:25:00 24.3 C 12.83 g/m*3 24.3 C 8.1 km/h
1615 08-08-2019 14:30:00 24.3 C 12.61 g/m*3 24.3 C 8.1 km/h
1616 08-08-2019 14:35:00 24.2 C 12.54 g/m*3 24.2 C 8.1 km/h
1617 08-08-2019 14:40:00 24.2 C 12.1 g/m*3 24.2 C 11.3 km/h
1618 08-08-2019 14:45:00 24.2 C 12.32 g/m*3 24.2 C 11.3 km/h
1619 08-08-2019 14:50:00 24.2 C 12.54 g/m*3 24.2 C 11.3 km/h
1620 08-08-2019 14:55:00 24.2 C 12.54 g/m*3 24.2 C 14.5 km/h
1621 08-08-2019 15:00:00 24.2 C 12.32 g/m*3 24.2 C 11.3 km/h
1622 08-08-2019 15:05:00 24.2 C 13.2 g/m*3 24.2 C 4.8 km/h
1623 08-08-2019 15:10:00 24.3 C 12.39 g/m*3 24.3 C 11.3 km/h
1624 08-08-2019 15:15:00 24.4 C 12.46 g/m*3 24.4 C 9.7 km/h
1625 08-08-2019 15:20:00 24.6 C 12.83 g/m*3 24.6 C 3.2 km/h
Sensor: Nr:Datum:Temp:Abs-Feuchte:Windchill:Wind:
Aussen-T/F 1626 08-08-2019 15:25:00 24.7 C 12.68 g/m*3 24.7 C 6.4 km/h
1627 08-08-2019 15:30:00 24.7 C 13.13 g/m*3 24.7 C 9.7 km/h
1628 08-08-2019 15:35:00 24.5 C 12.98 g/m*3 24.5 C 4.8 km/h
1629 08-08-2019 15:40:00 24.3 C 13.28 g/m*3 24.3 C 4.8 km/h
1630 08-08-2019 15:45:00 24.5 C 13.2 g/m*3 24.5 C 3.2 km/h
1631 08-08-2019 15:50:00 24.7 C 12.68 g/m*3 24.7 C 11.3 km/h
1632 08-08-2019 15:55:00 25.1 C 12.5 g/m*3 25.1 C 9.7 km/h
1633 08-08-2019 16:00:00 25.4 C 12.48 g/m*3 25.4 C 11.3 km/h
1634 08-08-2019 16:05:00 25.5 C 12.78 g/m*3 25.5 C 12.9 km/h
1635 08-08-2019 16:10:00 25.8 C 13.24 g/m*3 25.8 C 9.7 km/h
1636 08-08-2019 16:15:00 26.1 C 12.49 g/m*3 26.1 C 9.7 km/h
1637 08-08-2019 16:20:00 26.3 C 13.62 g/m*3 26.3 C 9.7 km/h
1638 08-08-2019 16:25:00 26.8 C 12.98 g/m*3 26.8 C 14.5 km/h
1639 08-08-2019 16:30:00 26.8 C 12.98 g/m*3 26.8 C 11.3 km/h
1640 08-08-2019 16:35:00 27.1 C 13.2 g/m*3 27.1 C 16.1 km/h
1641 08-08-2019 16:40:00 27.3 C 12.56 g/m*3 27.3 C 19.3 km/h
1642 08-08-2019 16:45:00 27.3 C 13.08 g/m*3 27.3 C 11.3 km/h
1643 08-08-2019 16:50:00 27.2 C 13.01 g/m*3 27.2 C 9.7 km/h
1644 08-08-2019 16:55:00 27.4 C 12.63 g/m*3 27.4 C 9.7 km/h
1645 08-08-2019 17:00:00 27.5 C 12.7 g/m*3 27.5 C 9.7 km/h
1646 08-08-2019 17:05:00 27.5 C 12.7 g/m*3 27.5 C 14.5 km/h
1647 08-08-2019 17:10:00 27.2 C 12.23 g/m*3 27.2 C 14.5 km/h
1648 08-08-2019 17:15:00 26.6 C 12.33 g/m*3 26.6 C 9.7 km/h
1649 08-08-2019 17:20:00 26.6 C 13.34 g/m*3 26.6 C 4.8 km/h
1650 08-08-2019 17:25:00 27.1 C 12.68 g/m*3 27.1 C 11.3 km/h
Sensor: Nr:Datum:Temp:Abs-Feuchte:Windchill:Wind:
Aussen-T/F 1651 08-08-2019 17:30:00 27.5 C 12.43 g/m*3 27.5 C 12.9 km/h
1652 08-08-2019 17:35:00 27.7 C 12.57 g/m*3 27.7 C 14.5 km/h
1653 08-08-2019 17:40:00 27.4 C 12.1 g/m*3 27.4 C 9.7 km/h
1654 08-08-2019 17:45:00 26.9 C 12.29 g/m*3 26.9 C 9.7 km/h
1655 08-08-2019 17:50:00 27 C 12.35 g/m*3 27 C 9.7 km/h
1656 08-08-2019 17:55:00 27.2 C 12.49 g/m*3 27.2 C 12.9 km/h
1657 08-08-2019 18:00:00 27.2 C 12.23 g/m*3 27.2 C 9.7 km/h
1658 08-08-2019 18:05:00 27.1 C 12.42 g/m*3 27.1 C 6.4 km/h
1659 08-08-2019 18:10:00 27.4 C 12.37 g/m*3 27.4 C 8.1 km/h
1660 08-08-2019 18:15:00 27.8 C 12.64 g/m*3 27.8 C 4.8 km/h
1661 08-08-2019 18:20:00 27.9 C 12.17 g/m*3 27.9 C 16.1 km/h
1662 08-08-2019 18:25:00 27.8 C 12.1 g/m*3 27.8 C 8.1 km/h
1663 08-08-2019 18:30:00 27.7 C 12.3 g/m*3 27.7 C 9.7 km/h
1664 08-08-2019 18:35:00 27.7 C 12.57 g/m*3 27.7 C 9.7 km/h
1665 08-08-2019 18:40:00 27.7 C 12.3 g/m*3 27.7 C 9.7 km/h
1666 08-08-2019 18:45:00 27.4 C 13.16 g/m*3 27.4 C 9.7 km/h
1667 08-08-2019 18:50:00 27.1 C 12.94 g/m*3 27.1 C 8.1 km/h
1668 08-08-2019 18:55:00 26.8 C 12.73 g/m*3 26.8 C 6.4 km/h
1669 08-08-2019 19:00:00 26.3 C 12.63 g/m*3 26.3 C 11.3 km/h
1670 08-08-2019 19:05:00 26.1 C 13.46 g/m*3 26.1 C 0 km/h
1671 08-08-2019 19:10:00 25.9 C 14.04 g/m*3 25.9 C 0 km/h
1672 08-08-2019 19:15:00 25.7 C 14.84 g/m*3 25.7 C 0 km/h
1673 08-08-2019 19:20:00 25.6 C 14.76 g/m*3 25.6 C 0 km/h
1674 08-08-2019 19:25:00 25.4 C 14.6 g/m*3 25.4 C 0 km/h
1675 08-08-2019 19:30:00 25.2 C 14.9 g/m*3 25.2 C 0 km/h
Sensor: Nr:Datum:Temp:Abs-Feuchte:Windchill:Wind:
Aussen-T/F 1676 08-08-2019 19:35:00 25.1 C 15.05 g/m*3 25.1 C 0 km/h
1677 08-08-2019 19:40:00 25 C 15.19 g/m*3 25 C 0 km/h
1678 08-08-2019 19:45:00 24.9 C 15.34 g/m*3 24.9 C 0 km/h
1679 08-08-2019 19:50:00 24.9 C 15.11 g/m*3 24.9 C 0 km/h
1680 08-08-2019 19:55:00 25.1 C 15.51 g/m*3 25.1 C 0 km/h
1681 08-08-2019 20:00:00 25.1 C 15.28 g/m*3 25.1 C 0 km/h
1682 08-08-2019 20:05:00 25.1 C 15.05 g/m*3 25.1 C 0 km/h
1683 08-08-2019 20:10:00 24.9 C 14.65 g/m*3 24.9 C 0 km/h
1684 08-08-2019 20:15:00 24.7 C 14.49 g/m*3 24.7 C 0 km/h
1685 08-08-2019 20:20:00 24.3 C 14.61 g/m*3 24.3 C 0 km/h
1686 08-08-2019 20:25:00 23.9 C 14.49 g/m*3 23.9 C 0 km/h
1687 08-08-2019 20:30:00 23.4 C 14.3 g/m*3 23.4 C 0 km/h
1688 08-08-2019 20:35:00 22.9 C 14.1 g/m*3 22.9 C 0 km/h
1689 08-08-2019 20:40:00 22.6 C 14.06 g/m*3 22.6 C 0 km/h
1690 08-08-2019 20:45:00 22.2 C 13.74 g/m*3 22.2 C 0 km/h
1691 08-08-2019 20:50:00 22 C 13.78 g/m*3 22 C 0 km/h
1692 08-08-2019 20:55:00 21.8 C 13.62 g/m*3 21.8 C 0 km/h
1693 08-08-2019 21:00:00 21.6 C 13.66 g/m*3 21.6 C 0 km/h
1694 08-08-2019 21:05:00 21.4 C 13.69 g/m*3 21.4 C 0 km/h
1695 08-08-2019 21:10:00 21.2 C 13.71 g/m*3 21.2 C 0 km/h
1696 08-08-2019 21:15:00 21 C 13.74 g/m*3 21 C 0 km/h
1697 08-08-2019 21:20:00 20.8 C 13.58 g/m*3 20.8 C 0 km/h
1698 08-08-2019 21:25:00 20.7 C 13.86 g/m*3 20.7 C 0 km/h
1699 08-08-2019 21:30:00 20.5 C 13.88 g/m*3 20.5 C 0 km/h
1700 08-08-2019 21:35:00 20.3 C 13.72 g/m*3 20.3 C 0 km/h
Sensor: Nr:Datum:Temp:Abs-Feuchte:Windchill:Wind:
Aussen-T/F 1701 08-08-2019 21:40:00 20.2 C 13.64 g/m*3 20.2 C 0 km/h
1702 08-08-2019 21:45:00 20.1 C 13.73 g/m*3 20.1 C 0 km/h
1703 08-08-2019 21:50:00 19.9 C 13.57 g/m*3 19.9 C 0 km/h
1704 08-08-2019 21:55:00 19.8 C 13.49 g/m*3 19.8 C 0 km/h
1705 08-08-2019 22:00:00 19.8 C 13.66 g/m*3 19.8 C 0 km/h
1706 08-08-2019 22:05:00 19.7 C 13.75 g/m*3 19.7 C 0 km/h
1707 08-08-2019 22:10:00 19.6 C 13.84 g/m*3 19.6 C 0 km/h
1708 08-08-2019 22:15:00 19.4 C 13.68 g/m*3 19.4 C 0 km/h
1709 08-08-2019 22:20:00 19.3 C 13.77 g/m*3 19.3 C 0 km/h
1710 08-08-2019 22:25:00 19.2 C 13.69 g/m*3 19.2 C 0 km/h
1711 08-08-2019 22:30:00 19.1 C 13.61 g/m*3 19.1 C 0 km/h
1712 08-08-2019 22:35:00 18.9 C 13.61 g/m*3 18.9 C 0 km/h
1713 08-08-2019 22:40:00 18.8 C 13.53 g/m*3 18.8 C 0 km/h
1714 08-08-2019 22:45:00 18.8 C 13.69 g/m*3 18.8 C 0 km/h
1715 08-08-2019 22:50:00 18.7 C 13.61 g/m*3 18.7 C 0 km/h
1716 08-08-2019 22:55:00 18.6 C 13.69 g/m*3 18.6 C 0 km/h
1717 08-08-2019 23:00:00 18.4 C 13.53 g/m*3 18.4 C 0 km/h
1718 08-08-2019 23:05:00 18.4 C 13.53 g/m*3 18.4 C 0 km/h
1719 08-08-2019 23:10:00 18.3 C 13.6 g/m*3 18.3 C 0 km/h
1720 08-08-2019 23:15:00 18.2 C 13.52 g/m*3 18.2 C 0 km/h
1721 08-08-2019 23:20:00 18.2 C 13.68 g/m*3 18.2 C 0 km/h
1722 08-08-2019 23:25:00 18.2 C 13.68 g/m*3 18.2 C 0 km/h
1723 08-08-2019 23:30:00 18.2 C 13.68 g/m*3 18.2 C 0 km/h
1724 08-08-2019 23:35:00 18.2 C 13.68 g/m*3 18.2 C 0 km/h
1725 08-08-2019 23:40:00 18.1 C 13.6 g/m*3 18.1 C 0 km/h
Sensor: Nr:Datum:Temp:Abs-Feuchte:Windchill:Wind:
Aussen-T/F 1726 08-08-2019 23:45:00 18.1 C 13.6 g/m*3 18.1 C 0 km/h
1727 08-08-2019 23:50:00 17.9 C 13.44 g/m*3 17.9 C 0 km/h
1728 08-08-2019 23:55:00 17.8 C 13.36 g/m*3 17.8 C 0 km/h
1729 09-08-2019 00:00:00 17.7 C 13.28 g/m*3 17.7 C 0 km/h
1730 09-08-2019 00:05:00 17.6 C 13.2 g/m*3 17.6 C 0 km/h
1731 09-08-2019 00:10:00 17.5 C 13.12 g/m*3 17.5 C 0 km/h
1732 09-08-2019 00:15:00 17.4 C 13.19 g/m*3 17.4 C 0 km/h
1733 09-08-2019 00:20:00 17.3 C 13.11 g/m*3 17.3 C 0 km/h
1734 09-08-2019 00:25:00 17.2 C 13.03 g/m*3 17.2 C 0 km/h
1735 09-08-2019 00:30:00 17.1 C 13.1 g/m*3 17.1 C 0 km/h
1736 09-08-2019 00:35:00 17 C 13.02 g/m*3 17 C 0 km/h
1737 09-08-2019 00:40:00 16.9 C 12.94 g/m*3 16.9 C 0 km/h
1738 09-08-2019 00:45:00 16.8 C 12.87 g/m*3 16.8 C 0 km/h
1739 09-08-2019 00:50:00 16.7 C 12.93 g/m*3 16.7 C 0 km/h
1740 09-08-2019 00:55:00 16.7 C 12.93 g/m*3 16.7 C 0 km/h
1741 09-08-2019 01:00:00 16.6 C 12.86 g/m*3 16.6 C 0 km/h
1742 09-08-2019 01:05:00 16.6 C 12.86 g/m*3 16.6 C 0 km/h
1743 09-08-2019 01:10:00 16.4 C 12.7 g/m*3 16.4 C 0 km/h
1744 09-08-2019 01:15:00 16.4 C 12.7 g/m*3 16.4 C 0 km/h
1745 09-08-2019 01:20:00 16.3 C 12.62 g/m*3 16.3 C 0 km/h
1746 09-08-2019 01:25:00 16.3 C 12.62 g/m*3 16.3 C 0 km/h
1747 09-08-2019 01:30:00 16.2 C 12.55 g/m*3 16.2 C 0 km/h
1748 09-08-2019 01:35:00 16.2 C 12.55 g/m*3 16.2 C 0 km/h
1749 09-08-2019 01:40:00 16.1 C 12.47 g/m*3 16.1 C 0 km/h
1750 09-08-2019 01:45:00 16 C 12.53 g/m*3 16 C 0 km/h
Sensor: Nr:Datum:Temp:Abs-Feuchte:Windchill:Wind:
Aussen-T/F 1751 09-08-2019 01:50:00 16 C 12.53 g/m*3 16 C 0 km/h
1752 09-08-2019 01:55:00 16 C 12.53 g/m*3 16 C 0 km/h
1753 09-08-2019 02:00:00 16 C 12.53 g/m*3 16 C 0 km/h
1754 09-08-2019 02:05:00 16 C 12.53 g/m*3 16 C 0 km/h
1755 09-08-2019 02:10:00 16 C 12.53 g/m*3 16 C 0 km/h
1756 09-08-2019 02:15:00 16 C 12.53 g/m*3 16 C 0 km/h
1757 09-08-2019 02:20:00 16 C 12.53 g/m*3 16 C 0 km/h
1758 09-08-2019 02:25:00 15.9 C 12.46 g/m*3 15.9 C 0 km/h
1759 09-08-2019 02:30:00 15.9 C 12.46 g/m*3 15.9 C 0 km/h
1760 09-08-2019 02:35:00 15.9 C 12.46 g/m*3 15.9 C 0 km/h
1761 09-08-2019 02:40:00 15.8 C 12.38 g/m*3 15.8 C 0 km/h
1762 09-08-2019 02:45:00 15.7 C 12.31 g/m*3 15.7 C 0 km/h
1763 09-08-2019 02:50:00 15.7 C 12.31 g/m*3 15.7 C 0 km/h
1764 09-08-2019 02:55:00 15.6 C 12.23 g/m*3 15.6 C 0 km/h
1765 09-08-2019 03:00:00 15.6 C 12.23 g/m*3 15.6 C 0 km/h
1766 09-08-2019 03:05:00 15.4 C 12.09 g/m*3 15.4 C 0 km/h
1767 09-08-2019 03:10:00 15.4 C 12.22 g/m*3 15.4 C 0 km/h
1768 09-08-2019 03:15:00 15.3 C 12.01 g/m*3 15.3 C 0 km/h
1769 09-08-2019 03:20:00 15.2 C 12.07 g/m*3 15.2 C 0 km/h
1770 09-08-2019 03:25:00 15.2 C 12.07 g/m*3 15.2 C 0 km/h
1771 09-08-2019 03:30:00 15.2 C 12.07 g/m*3 15.2 C 0 km/h
1772 09-08-2019 03:35:00 15.1 C 12 g/m*3 15.1 C 0 km/h
1773 09-08-2019 03:40:00 15.1 C 12 g/m*3 15.1 C 0 km/h
1774 09-08-2019 03:45:00 15.1 C 12 g/m*3 15.1 C 0 km/h
1775 09-08-2019 03:50:00 15 C 11.93 g/m*3 15 C 0 km/h
Sensor: Nr:Datum:Temp:Abs-Feuchte:Windchill:Wind:
Aussen-T/F 1776 09-08-2019 03:55:00 15 C 11.93 g/m*3 15 C 0 km/h
1777 09-08-2019 04:00:00 14.9 C 11.98 g/m*3 14.9 C 0 km/h
1778 09-08-2019 04:05:00 14.9 C 11.85 g/m*3 14.9 C 0 km/h
1779 09-08-2019 04:10:00 14.8 C 11.91 g/m*3 14.8 C 0 km/h
1780 09-08-2019 04:15:00 14.8 C 11.78 g/m*3 14.8 C 0 km/h
1781 09-08-2019 04:20:00 14.7 C 11.71 g/m*3 14.7 C 0 km/h
1782 09-08-2019 04:25:00 14.6 C 11.64 g/m*3 14.6 C 0 km/h
1783 09-08-2019 04:30:00 14.6 C 11.76 g/m*3 14.6 C 0 km/h
1784 09-08-2019 04:35:00 14.7 C 11.83 g/m*3 14.7 C 0 km/h
1785 09-08-2019 04:40:00 14.7 C 11.83 g/m*3 14.7 C 0 km/h
1786 09-08-2019 04:45:00 14.7 C 11.83 g/m*3 14.7 C 0 km/h
1787 09-08-2019 04:50:00 14.7 C 11.83 g/m*3 14.7 C 0 km/h
1788 09-08-2019 04:55:00 14.6 C 11.76 g/m*3 14.6 C 0 km/h
1789 09-08-2019 05:00:00 14.6 C 11.76 g/m*3 14.6 C 0 km/h
1790 09-08-2019 05:05:00 14.5 C 11.69 g/m*3 14.5 C 0 km/h
1791 09-08-2019 05:10:00 14.5 C 11.69 g/m*3 14.5 C 0 km/h
1792 09-08-2019 05:15:00 14.5 C 11.69 g/m*3 14.5 C 0 km/h
1793 09-08-2019 05:20:00 14.4 C 11.62 g/m*3 14.4 C 0 km/h
1794 09-08-2019 05:25:00 14.4 C 11.62 g/m*3 14.4 C 0 km/h
1795 09-08-2019 05:30:00 14.4 C 11.62 g/m*3 14.4 C 0 km/h
1796 09-08-2019 05:35:00 14.4 C 11.62 g/m*3 14.4 C 0 km/h
1797 09-08-2019 05:40:00 14.4 C 11.62 g/m*3 14.4 C 0 km/h
1798 09-08-2019 05:45:00 14.4 C 11.62 g/m*3 14.4 C 0 km/h
1799 09-08-2019 05:50:00 14.4 C 11.62 g/m*3 14.4 C 0 km/h
1800 09-08-2019 05:55:00 14.4 C 11.74 g/m*3 14.4 C 0 km/h
Sensor: Nr:Datum:Temp:Abs-Feuchte:Windchill:Wind:
Aussen-T/F 1801 09-08-2019 06:00:00 14.4 C 11.74 g/m*3 14.4 C 0 km/h
1802 09-08-2019 06:05:00 14.4 C 11.74 g/m*3 14.4 C 0 km/h
1803 09-08-2019 06:10:00 14.4 C 11.74 g/m*3 14.4 C 0 km/h
1804 09-08-2019 06:15:00 14.5 C 11.82 g/m*3 14.5 C 0 km/h
1805 09-08-2019 06:20:00 14.5 C 11.82 g/m*3 14.5 C 0 km/h
1806 09-08-2019 06:25:00 14.6 C 11.89 g/m*3 14.6 C 0 km/h
1807 09-08-2019 06:30:00 14.6 C 11.89 g/m*3 14.6 C 0 km/h
1808 09-08-2019 06:35:00 14.6 C 11.89 g/m*3 14.6 C 0 km/h
1809 09-08-2019 06:40:00 14.6 C 11.89 g/m*3 14.6 C 0 km/h
1810 09-08-2019 06:45:00 14.7 C 11.96 g/m*3 14.7 C 0 km/h
1811 09-08-2019 06:50:00 14.7 C 11.96 g/m*3 14.7 C 0 km/h
1812 09-08-2019 06:55:00 14.8 C 12.03 g/m*3 14.8 C 0 km/h
1813 09-08-2019 07:00:00 14.8 C 12.03 g/m*3 14.8 C 0 km/h
1814 09-08-2019 07:05:00 15 C 12.18 g/m*3 15 C 0 km/h
1815 09-08-2019 07:10:00 15.1 C 12.39 g/m*3 15.1 C 0 km/h
1816 09-08-2019 07:15:00 15.2 C 12.46 g/m*3 15.2 C 0 km/h
1817 09-08-2019 07:20:00 15.3 C 12.54 g/m*3 15.3 C 0 km/h
1818 09-08-2019 07:25:00 15.4 C 12.61 g/m*3 15.4 C 0 km/h
1819 09-08-2019 07:30:00 15.5 C 12.56 g/m*3 15.5 C 0 km/h
1820 09-08-2019 07:35:00 15.6 C 12.63 g/m*3 15.6 C 0 km/h
1821 09-08-2019 07:40:00 15.6 C 12.63 g/m*3 15.6 C 0 km/h
1822 09-08-2019 07:45:00 15.7 C 12.71 g/m*3 15.7 C 0 km/h
1823 09-08-2019 07:50:00 15.8 C 12.79 g/m*3 15.8 C 0 km/h
1824 09-08-2019 07:55:00 15.9 C 12.87 g/m*3 15.9 C 0 km/h
1825 09-08-2019 08:00:00 15.9 C 12.73 g/m*3 15.9 C 0 km/h
Sensor: Nr:Datum:Temp:Abs-Feuchte:Windchill:Wind:
Aussen-T/F 1826 09-08-2019 08:05:00 15.9 C 12.73 g/m*3 15.9 C 0 km/h
1827 09-08-2019 08:10:00 16.1 C 12.88 g/m*3 16.1 C 0 km/h
1828 09-08-2019 08:15:00 16.2 C 12.96 g/m*3 16.2 C 0 km/h
1829 09-08-2019 08:20:00 16.2 C 12.96 g/m*3 16.2 C 0 km/h
1830 09-08-2019 08:25:00 16.4 C 13.12 g/m*3 16.4 C 1.6 km/h
1831 09-08-2019 08:30:00 16.5 C 13.06 g/m*3 16.5 C 1.6 km/h
1832 09-08-2019 08:35:00 16.6 C 13.14 g/m*3 16.6 C 1.6 km/h
1833 09-08-2019 08:40:00 16.7 C 13.07 g/m*3 16.7 C 1.6 km/h
1834 09-08-2019 08:45:00 16.8 C 13.15 g/m*3 16.8 C 0 km/h
1835 09-08-2019 08:50:00 16.9 C 13.23 g/m*3 16.9 C 0 km/h
1836 09-08-2019 08:55:00 17.1 C 13.39 g/m*3 17.1 C 0 km/h
1837 09-08-2019 09:00:00 17.2 C 13.33 g/m*3 17.2 C 0 km/h
1838 09-08-2019 09:05:00 17.4 C 13.49 g/m*3 17.4 C 0 km/h
1839 09-08-2019 09:10:00 17.6 C 13.65 g/m*3 17.6 C 0 km/h
1840 09-08-2019 09:15:00 17.7 C 13.43 g/m*3 17.7 C 0 km/h
1841 09-08-2019 09:20:00 17.9 C 13.59 g/m*3 17.9 C 0 km/h
1842 09-08-2019 09:25:00 18.2 C 13.68 g/m*3 18.2 C 0 km/h
1843 09-08-2019 09:30:00 18.4 C 13.68 g/m*3 18.4 C 0 km/h
1844 09-08-2019 09:35:00 18.6 C 13.85 g/m*3 18.6 C 0 km/h
1845 09-08-2019 09:40:00 18.8 C 13.85 g/m*3 18.8 C 0 km/h
1846 09-08-2019 09:45:00 18.9 C 13.93 g/m*3 18.9 C 0 km/h
1847 09-08-2019 09:50:00 19.2 C 14.02 g/m*3 19.2 C 0 km/h
1848 09-08-2019 09:55:00 19.3 C 13.93 g/m*3 19.3 C 0 km/h
1849 09-08-2019 10:00:00 19.5 C 13.76 g/m*3 19.5 C 0 km/h
1850 09-08-2019 10:05:00 19.7 C 13.92 g/m*3 19.7 C 0 km/h
Sensor: Nr:Datum:Temp:Abs-Feuchte:Windchill:Wind:
Aussen-T/F 1851 09-08-2019 10:10:00 19.9 C 14.09 g/m*3 19.9 C 0 km/h
1852 09-08-2019 10:15:00 20.1 C 14.25 g/m*3 20.1 C 0 km/h
1853 09-08-2019 10:20:00 20.3 C 14.25 g/m*3 20.3 C 0 km/h
1854 09-08-2019 10:25:00 20.5 C 14.59 g/m*3 20.5 C 0 km/h
1855 09-08-2019 10:30:00 20.7 C 14.4 g/m*3 20.7 C 0 km/h
1856 09-08-2019 10:35:00 20.9 C 14.57 g/m*3 20.9 C 0 km/h
1857 09-08-2019 10:40:00 21.1 C 14.56 g/m*3 21.1 C 0 km/h
1858 09-08-2019 10:45:00 21.3 C 15.1 g/m*3 21.3 C 0 km/h
1859 09-08-2019 10:50:00 21.6 C 14.98 g/m*3 21.6 C 0 km/h
1860 09-08-2019 10:55:00 21.7 C 15.07 g/m*3 21.7 C 0 km/h
1861 09-08-2019 11:00:00 21.9 C 15.05 g/m*3 21.9 C 0 km/h
1862 09-08-2019 11:05:00 22.2 C 15.12 g/m*3 22.2 C 0 km/h
1863 09-08-2019 11:10:00 22.6 C 15.07 g/m*3 22.6 C 0 km/h
1864 09-08-2019 11:15:00 23 C 15.62 g/m*3 23 C 0 km/h
1865 09-08-2019 11:20:00 23.4 C 15.56 g/m*3 23.4 C 1.6 km/h
1866 09-08-2019 11:25:00 23.7 C 14.97 g/m*3 23.7 C 1.6 km/h
1867 09-08-2019 11:30:00 24.2 C 15.4 g/m*3 24.2 C 0 km/h
1868 09-08-2019 11:35:00 24.5 C 15.22 g/m*3 24.5 C 0 km/h
1869 09-08-2019 11:40:00 24.8 C 15.71 g/m*3 24.8 C 0 km/h
1870 09-08-2019 11:45:00 25 C 15.42 g/m*3 25 C 0 km/h
1871 09-08-2019 11:50:00 25.1 C 15.28 g/m*3 25.1 C 0 km/h
1872 09-08-2019 11:55:00 25.2 C 16.06 g/m*3 25.2 C 0 km/h
1873 09-08-2019 12:00:00 25.1 C 15.28 g/m*3 25.1 C 1.6 km/h
1874 09-08-2019 12:05:00 25.2 C 15.83 g/m*3 25.2 C 0 km/h
1875 09-08-2019 12:10:00 25.2 C 15.83 g/m*3 25.2 C 0 km/h
Sensor: Nr:Datum:Temp:Abs-Feuchte:Windchill:Wind:
Aussen-T/F 1876 09-08-2019 12:15:00 25.3 C 15.45 g/m*3 25.3 C 0 km/h
1877 09-08-2019 12:20:00 25.2 C 14.67 g/m*3 25.2 C 0 km/h
1878 09-08-2019 12:25:00 25.3 C 16.62 g/m*3 25.3 C 0 km/h
1879 09-08-2019 12:30:00 25.3 C 14.98 g/m*3 25.3 C 1.6 km/h
1880 09-08-2019 12:35:00 25.3 C 14.75 g/m*3 25.3 C 0 km/h
1881 09-08-2019 12:40:00 25.3 C 14.98 g/m*3 25.3 C 0 km/h
1882 09-08-2019 12:45:00 25.3 C 14.98 g/m*3 25.3 C 0 km/h
1883 09-08-2019 12:50:00 25.4 C 16.48 g/m*3 25.4 C 0 km/h
1884 09-08-2019 12:55:00 25.3 C 14.75 g/m*3 25.3 C 0 km/h
1885 09-08-2019 13:00:00 25.3 C 14.75 g/m*3 25.3 C 1.6 km/h
1886 09-08-2019 13:05:00 25.3 C 16.15 g/m*3 25.3 C 0 km/h
1887 09-08-2019 13:10:00 25.2 C 14.67 g/m*3 25.2 C 0 km/h
1888 09-08-2019 13:15:00 25.2 C 16.76 g/m*3 25.2 C 0 km/h
1889 09-08-2019 13:20:00 25.1 C 15.74 g/m*3 25.1 C 0 km/h
1890 09-08-2019 13:25:00 25.1 C 15.97 g/m*3 25.1 C 0 km/h
1891 09-08-2019 13:30:00 25.2 C 15.83 g/m*3 25.2 C 0 km/h
1892 09-08-2019 13:35:00 25.2 C 14.67 g/m*3 25.2 C 0 km/h
1893 09-08-2019 13:40:00 25.3 C 15.22 g/m*3 25.3 C 0 km/h
1894 09-08-2019 13:45:00 25.4 C 15.07 g/m*3 25.4 C 0 km/h
1895 09-08-2019 13:50:00 25.4 C 15.07 g/m*3 25.4 C 0 km/h
1896 09-08-2019 13:55:00 25.6 C 16.43 g/m*3 25.6 C 0 km/h
1897 09-08-2019 14:00:00 25.6 C 16.19 g/m*3 25.6 C 0 km/h
1898 09-08-2019 14:05:00 25.5 C 16.34 g/m*3 25.5 C 0 km/h
1899 09-08-2019 14:10:00 25.4 C 15.77 g/m*3 25.4 C 0 km/h
1900 09-08-2019 14:15:00 25.4 C 17.19 g/m*3 25.4 C 0 km/h
Sensor: Nr:Datum:Temp:Abs-Feuchte:Windchill:Wind:
Aussen-T/F 1901 09-08-2019 14:20:00 25.2 C 17.69 g/m*3 25.2 C 0 km/h
1902 09-08-2019 14:25:00 25 C 17.96 g/m*3 25 C 0 km/h
1903 09-08-2019 14:30:00 24.8 C 18.21 g/m*3 24.8 C 0 km/h
1904 09-08-2019 14:35:00 24.4 C 18.25 g/m*3 24.4 C 0 km/h
1905 09-08-2019 14:40:00 24.2 C 18.26 g/m*3 24.2 C 0 km/h
1906 09-08-2019 14:45:00 24 C 18.06 g/m*3 24 C 0 km/h
1907 09-08-2019 14:50:00 23.8 C 18.07 g/m*3 23.8 C 0 km/h
1908 09-08-2019 14:55:00 23.7 C 18.18 g/m*3 23.7 C 0 km/h
1909 09-08-2019 15:00:00 23.4 C 17.87 g/m*3 23.4 C 0 km/h
1910 09-08-2019 15:05:00 23.2 C 17.88 g/m*3 23.2 C 0 km/h
1911 09-08-2019 15:10:00 23.1 C 18.19 g/m*3 23.1 C 0 km/h
1912 09-08-2019 15:15:00 23.3 C 18.61 g/m*3 23.3 C 0 km/h
1913 09-08-2019 15:20:00 23.7 C 18.18 g/m*3 23.7 C 0 km/h
1914 09-08-2019 15:25:00 24 C 18.06 g/m*3 24 C 0 km/h
1915 09-08-2019 15:30:00 24.3 C 18.37 g/m*3 24.3 C 0 km/h
1916 09-08-2019 15:35:00 24.7 C 18.33 g/m*3 24.7 C 0 km/h
1917 09-08-2019 15:40:00 25.1 C 18.06 g/m*3 25.1 C 0 km/h
1918 09-08-2019 15:45:00 25.6 C 18.57 g/m*3 25.6 C 1.6 km/h
1919 09-08-2019 15:50:00 26.1 C 18.61 g/m*3 26.1 C 1.6 km/h
1920 09-08-2019 15:55:00 26.7 C 18.48 g/m*3 26.7 C 0 km/h
1921 09-08-2019 16:00:00 27.2 C 18.74 g/m*3 27.2 C 9.7 km/h
1922 09-08-2019 16:05:00 27.4 C 17.89 g/m*3 27.4 C 11.3 km/h
1923 09-08-2019 16:10:00 27.6 C 17.56 g/m*3 27.6 C 11.3 km/h
1924 09-08-2019 16:15:00 27.4 C 17.63 g/m*3 27.4 C 3.2 km/h
1925 09-08-2019 16:20:00 27.4 C 17.89 g/m*3 27.4 C 4.8 km/h
Sensor: Nr:Datum:Temp:Abs-Feuchte:Windchill:Wind:
Aussen-T/F 1926 09-08-2019 16:25:00 27.3 C 17.79 g/m*3 27.3 C 4.8 km/h
1927 09-08-2019 16:30:00 27.3 C 18.58 g/m*3 27.3 C 1.6 km/h
1928 09-08-2019 16:35:00 27.2 C 18.48 g/m*3 27.2 C 3.2 km/h
1929 09-08-2019 16:40:00 27.1 C 17.6 g/m*3 27.1 C 1.6 km/h
1930 09-08-2019 16:45:00 27 C 18.02 g/m*3 27 C 3.2 km/h
1931 09-08-2019 16:50:00 27.1 C 19.41 g/m*3 27.1 C 0 km/h
1932 09-08-2019 16:55:00 27 C 19.3 g/m*3 27 C 0 km/h
1933 09-08-2019 17:00:00 26.9 C 19.96 g/m*3 26.9 C 0 km/h
1934 09-08-2019 17:05:00 26.7 C 19.74 g/m*3 26.7 C 0 km/h
1935 09-08-2019 17:10:00 26.4 C 19.67 g/m*3 26.4 C 0 km/h
1936 09-08-2019 17:15:00 26.2 C 19.69 g/m*3 26.2 C 0 km/h
1937 09-08-2019 17:20:00 25.8 C 19.26 g/m*3 25.8 C 0 km/h
1938 09-08-2019 17:25:00 25.5 C 19.18 g/m*3 25.5 C 0 km/h
1939 09-08-2019 17:30:00 25.2 C 18.86 g/m*3 25.2 C 0 km/h
1940 09-08-2019 17:35:00 24.9 C 18.77 g/m*3 24.9 C 0 km/h
1941 09-08-2019 17:40:00 24.8 C 18.89 g/m*3 24.8 C 1.6 km/h
1942 09-08-2019 17:45:00 24.6 C 19.13 g/m*3 24.6 C 1.6 km/h
1943 09-08-2019 17:50:00 24.3 C 18.81 g/m*3 24.3 C 3.2 km/h
1944 09-08-2019 17:55:00 24.1 C 18.82 g/m*3 24.1 C 3.2 km/h
1945 09-08-2019 18:00:00 23.8 C 18.71 g/m*3 23.8 C 1.6 km/h
1946 09-08-2019 18:05:00 23.6 C 18.5 g/m*3 23.6 C 0 km/h
1947 09-08-2019 18:10:00 23.4 C 18.5 g/m*3 23.4 C 0 km/h
1948 09-08-2019 18:15:00 23.2 C 18.29 g/m*3 23.2 C 1.6 km/h
1949 09-08-2019 18:20:00 23.1 C 18.19 g/m*3 23.1 C 0 km/h
1950 09-08-2019 18:25:00 22.9 C 18.19 g/m*3 22.9 C 1.6 km/h
Sensor: Nr:Datum:Temp:Abs-Feuchte:Windchill:Wind:
Aussen-T/F 1951 09-08-2019 18:30:00 22.7 C 17.98 g/m*3 22.7 C 3.2 km/h
1952 09-08-2019 18:35:00 22.4 C 17.68 g/m*3 22.4 C 1.6 km/h
1953 09-08-2019 18:40:00 22.3 C 17.77 g/m*3 22.3 C 1.6 km/h
1954 09-08-2019 18:45:00 22.1 C 17.57 g/m*3 22.1 C 1.6 km/h
1955 09-08-2019 18:50:00 22 C 17.66 g/m*3 22 C 1.6 km/h
1956 09-08-2019 18:55:00 21.9 C 17.56 g/m*3 21.9 C 1.6 km/h
1957 09-08-2019 19:00:00 21.8 C 17.65 g/m*3 21.8 C 0 km/h
1958 09-08-2019 19:05:00 21.8 C 17.65 g/m*3 21.8 C 0 km/h
1959 09-08-2019 19:10:00 21.7 C 17.55 g/m*3 21.7 C 0 km/h
1960 09-08-2019 19:15:00 21.7 C 17.74 g/m*3 21.7 C 3.2 km/h
1961 09-08-2019 19:20:00 21.7 C 17.74 g/m*3 21.7 C 1.6 km/h
1962 09-08-2019 19:25:00 21.7 C 17.93 g/m*3 21.7 C 14.5 km/h
1963 09-08-2019 19:30:00 21.7 C 17.93 g/m*3 21.7 C 12.9 km/h
1964 09-08-2019 19:35:00 21.6 C 17.83 g/m*3 21.6 C 9.7 km/h
1965 09-08-2019 19:40:00 21.5 C 17.73 g/m*3 21.5 C 11.3 km/h
1966 09-08-2019 19:45:00 21.2 C 17.23 g/m*3 21.2 C 17.7 km/h
1967 09-08-2019 19:50:00 20.9 C 16.94 g/m*3 20.9 C 22.5 km/h
1968 09-08-2019 19:55:00 20.7 C 16.74 g/m*3 20.7 C 9.7 km/h
1969 09-08-2019 20:00:00 20.4 C 16.45 g/m*3 20.4 C 6.4 km/h
1970 09-08-2019 20:05:00 20 C 16.07 g/m*3 20 C 3.2 km/h
1971 09-08-2019 20:10:00 19.8 C 15.89 g/m*3 19.8 C 0 km/h
1972 09-08-2019 20:15:00 19.7 C 15.96 g/m*3 19.7 C 0 km/h
1973 09-08-2019 20:20:00 19.6 C 15.87 g/m*3 19.6 C 0 km/h
1974 09-08-2019 20:25:00 19.6 C 15.87 g/m*3 19.6 C 0 km/h
1975 09-08-2019 20:30:00 19.5 C 15.78 g/m*3 19.5 C 1.6 km/h
Sensor: Nr:Datum:Temp:Abs-Feuchte:Windchill:Wind:
Aussen-T/F 1976 09-08-2019 20:35:00 19.4 C 15.68 g/m*3 19.4 C 0 km/h
1977 09-08-2019 20:40:00 19.4 C 15.85 g/m*3 19.4 C 0 km/h
1978 09-08-2019 20:45:00 19.4 C 15.85 g/m*3 19.4 C 0 km/h
1979 09-08-2019 20:50:00 19.4 C 15.85 g/m*3 19.4 C 0 km/h
1980 09-08-2019 20:55:00 19.4 C 15.85 g/m*3 19.4 C 0 km/h
1981 09-08-2019 21:00:00 19.3 C 15.76 g/m*3 19.3 C 0 km/h
1982 09-08-2019 21:05:00 19.3 C 15.76 g/m*3 19.3 C 0 km/h
1983 09-08-2019 21:10:00 19.3 C 15.76 g/m*3 19.3 C 0 km/h
1984 09-08-2019 21:15:00 19.3 C 15.76 g/m*3 19.3 C 0 km/h
1985 09-08-2019 21:20:00 19.3 C 15.76 g/m*3 19.3 C 0 km/h
1986 09-08-2019 21:25:00 19.3 C 15.76 g/m*3 19.3 C 0 km/h
1987 09-08-2019 21:30:00 19.3 C 15.92 g/m*3 19.3 C 3.2 km/h
1988 09-08-2019 21:35:00 19.3 C 15.92 g/m*3 19.3 C 1.6 km/h
1989 09-08-2019 21:40:00 19.4 C 16.02 g/m*3 19.4 C 6.4 km/h
1990 09-08-2019 21:45:00 19.4 C 16.02 g/m*3 19.4 C 0 km/h
1991 09-08-2019 21:50:00 19.3 C 15.92 g/m*3 19.3 C 0 km/h
1992 09-08-2019 21:55:00 19.3 C 15.92 g/m*3 19.3 C 0 km/h
1993 09-08-2019 22:00:00 19.4 C 16.02 g/m*3 19.4 C 1.6 km/h
1994 09-08-2019 22:05:00 19.4 C 16.02 g/m*3 19.4 C 1.6 km/h
1995 09-08-2019 22:10:00 19.4 C 16.02 g/m*3 19.4 C 0 km/h
1996 09-08-2019 22:15:00 19.4 C 16.02 g/m*3 19.4 C 0 km/h
1997 09-08-2019 22:20:00 19.4 C 16.02 g/m*3 19.4 C 0 km/h
1998 09-08-2019 22:25:00 19.4 C 16.02 g/m*3 19.4 C 0 km/h
1999 09-08-2019 22:30:00 19.3 C 15.92 g/m*3 19.3 C 0 km/h
2000 09-08-2019 22:35:00 19.3 C 15.92 g/m*3 19.3 C 0 km/h
Sensor: Nr:Datum:Temp:Abs-Feuchte:Windchill:Wind:
Aussen-T/F 2001 09-08-2019 22:40:00 19.2 C 15.83 g/m*3 19.2 C 0 km/h
2002 09-08-2019 22:45:00 19.2 C 15.83 g/m*3 19.2 C 0 km/h
2003 09-08-2019 22:50:00 19.2 C 15.83 g/m*3 19.2 C 0 km/h
2004 09-08-2019 22:55:00 19.1 C 15.74 g/m*3 19.1 C 0 km/h
2005 09-08-2019 23:00:00 19.1 C 15.74 g/m*3 19.1 C 0 km/h
2006 09-08-2019 23:05:00 19.1 C 15.74 g/m*3 19.1 C 0 km/h
2007 09-08-2019 23:10:00 19.1 C 15.74 g/m*3 19.1 C 0 km/h
2008 09-08-2019 23:15:00 19 C 15.64 g/m*3 19 C 0 km/h
2009 09-08-2019 23:20:00 18.9 C 15.55 g/m*3 18.9 C 0 km/h
2010 09-08-2019 23:25:00 18.8 C 15.46 g/m*3 18.8 C 0 km/h
2011 09-08-2019 23:30:00 18.8 C 15.46 g/m*3 18.8 C 0 km/h
2012 09-08-2019 23:35:00 18.8 C 15.46 g/m*3 18.8 C 0 km/h
2013 09-08-2019 23:40:00 18.7 C 15.37 g/m*3 18.7 C 1.6 km/h
2014 09-08-2019 23:45:00 18.7 C 15.37 g/m*3 18.7 C 0 km/h
2015 09-08-2019 23:50:00 18.7 C 15.37 g/m*3 18.7 C 0 km/h
2016 09-08-2019 23:55:00 18.7 C 15.37 g/m*3 18.7 C 0 km/h
2017 10-08-2019 00:00:00 18.6 C 15.28 g/m*3 18.6 C 0 km/h
2018 10-08-2019 00:05:00 18.6 C 15.28 g/m*3 18.6 C 0 km/h
2019 10-08-2019 00:10:00 18.6 C 15.28 g/m*3 18.6 C 0 km/h
2020 10-08-2019 00:15:00 18.7 C 15.37 g/m*3 18.7 C 0 km/h
2021 10-08-2019 00:20:00 18.8 C 15.46 g/m*3 18.8 C 0 km/h
2022 10-08-2019 00:25:00 18.8 C 15.62 g/m*3 18.8 C 0 km/h
2023 10-08-2019 00:30:00 18.8 C 15.62 g/m*3 18.8 C 0 km/h
2024 10-08-2019 00:35:00 18.8 C 15.62 g/m*3 18.8 C 0 km/h
2025 10-08-2019 00:40:00 18.9 C 15.71 g/m*3 18.9 C 0 km/h
Sensor: Nr:Datum:Temp:Abs-Feuchte:Windchill:Wind:
Aussen-T/F 2026 10-08-2019 00:45:00 18.9 C 15.71 g/m*3 18.9 C 0 km/h
2027 10-08-2019 00:50:00 18.9 C 15.71 g/m*3 18.9 C 0 km/h
2028 10-08-2019 00:55:00 18.9 C 15.71 g/m*3 18.9 C 3.2 km/h
2029 10-08-2019 01:00:00 18.9 C 15.71 g/m*3 18.9 C 0 km/h
2030 10-08-2019 01:05:00 18.9 C 15.71 g/m*3 18.9 C 0 km/h
2031 10-08-2019 01:10:00 18.9 C 15.71 g/m*3 18.9 C 0 km/h
2032 10-08-2019 01:15:00 18.8 C 15.62 g/m*3 18.8 C 0 km/h
2033 10-08-2019 01:20:00 18.8 C 15.62 g/m*3 18.8 C 0 km/h
2034 10-08-2019 01:25:00 18.7 C 15.37 g/m*3 18.7 C 0 km/h
2035 10-08-2019 01:30:00 18.7 C 15.53 g/m*3 18.7 C 0 km/h
2036 10-08-2019 01:35:00 18.7 C 15.53 g/m*3 18.7 C 0 km/h
2037 10-08-2019 01:40:00 18.6 C 15.44 g/m*3 18.6 C 0 km/h
2038 10-08-2019 01:45:00 18.6 C 15.44 g/m*3 18.6 C 0 km/h
2039 10-08-2019 01:50:00 18.6 C 15.44 g/m*3 18.6 C 0 km/h
2040 10-08-2019 01:55:00 18.6 C 15.44 g/m*3 18.6 C 0 km/h
2041 10-08-2019 02:00:00 18.6 C 15.44 g/m*3 18.6 C 0 km/h
2042 10-08-2019 02:05:00 18.7 C 15.53 g/m*3 18.7 C 0 km/h
2043 10-08-2019 02:10:00 18.6 C 15.44 g/m*3 18.6 C 0 km/h
2044 10-08-2019 02:15:00 18.6 C 15.44 g/m*3 18.6 C 0 km/h
2045 10-08-2019 02:20:00 18.5 C 15.35 g/m*3 18.5 C 0 km/h
2046 10-08-2019 02:25:00 18.4 C 15.26 g/m*3 18.4 C 0 km/h
2047 10-08-2019 02:30:00 18.4 C 15.26 g/m*3 18.4 C 0 km/h
2048 10-08-2019 02:35:00 18.4 C 15.26 g/m*3 18.4 C 0 km/h
2049 10-08-2019 02:40:00 18.5 C 15.35 g/m*3 18.5 C 0 km/h
2050 10-08-2019 02:45:00 18.5 C 15.35 g/m*3 18.5 C 0 km/h
Sensor: Nr:Datum:Temp:Abs-Feuchte:Windchill:Wind:
Aussen-T/F 2051 10-08-2019 02:50:00 18.5 C 15.35 g/m*3 18.5 C 0 km/h
2052 10-08-2019 02:55:00 18.4 C 15.26 g/m*3 18.4 C 0 km/h
2053 10-08-2019 03:00:00 18.4 C 15.26 g/m*3 18.4 C 0 km/h
2054 10-08-2019 03:05:00 18.4 C 15.26 g/m*3 18.4 C 0 km/h
2055 10-08-2019 03:10:00 18.3 C 15.17 g/m*3 18.3 C 0 km/h
2056 10-08-2019 03:15:00 18.3 C 15.17 g/m*3 18.3 C 0 km/h
2057 10-08-2019 03:20:00 18.3 C 15.17 g/m*3 18.3 C 0 km/h
2058 10-08-2019 03:25:00 18.2 C 15.08 g/m*3 18.2 C 0 km/h
2059 10-08-2019 03:30:00 18.2 C 15.08 g/m*3 18.2 C 0 km/h
2060 10-08-2019 03:35:00 18.2 C 15.08 g/m*3 18.2 C 0 km/h
2061 10-08-2019 03:40:00 18.3 C 15.17 g/m*3 18.3 C 0 km/h
2062 10-08-2019 03:45:00 18.3 C 15.17 g/m*3 18.3 C 0 km/h
2063 10-08-2019 03:50:00 18.3 C 15.17 g/m*3 18.3 C 4.8 km/h
2064 10-08-2019 03:55:00 18.3 C 15.17 g/m*3 18.3 C 0 km/h
2065 10-08-2019 04:00:00 18.3 C 15.17 g/m*3 18.3 C 0 km/h
2066 10-08-2019 04:05:00 18.3 C 15.17 g/m*3 18.3 C 0 km/h
2067 10-08-2019 04:10:00 18.4 C 15.26 g/m*3 18.4 C 0 km/h
2068 10-08-2019 04:15:00 18.4 C 15.26 g/m*3 18.4 C 0 km/h
2069 10-08-2019 04:20:00 18.3 C 15.17 g/m*3 18.3 C 0 km/h
2070 10-08-2019 04:25:00 18.2 C 15.08 g/m*3 18.2 C 0 km/h
2071 10-08-2019 04:30:00 18.1 C 14.99 g/m*3 18.1 C 0 km/h
2072 10-08-2019 04:35:00 18 C 14.9 g/m*3 18 C 0 km/h
2073 10-08-2019 04:40:00 17.9 C 14.81 g/m*3 17.9 C 0 km/h
2074 10-08-2019 04:45:00 17.9 C 14.81 g/m*3 17.9 C 0 km/h
2075 10-08-2019 04:50:00 17.8 C 14.72 g/m*3 17.8 C 0 km/h
Sensor: Nr:Datum:Temp:Abs-Feuchte:Windchill:Wind:
Aussen-T/F 2076 10-08-2019 04:55:00 17.8 C 14.72 g/m*3 17.8 C 0 km/h
2077 10-08-2019 05:00:00 17.7 C 14.64 g/m*3 17.7 C 0 km/h
2078 10-08-2019 05:05:00 17.6 C 14.55 g/m*3 17.6 C 0 km/h
2079 10-08-2019 05:10:00 17.6 C 14.55 g/m*3 17.6 C 0 km/h
2080 10-08-2019 05:15:00 17.6 C 14.55 g/m*3 17.6 C 0 km/h
2081 10-08-2019 05:20:00 17.5 C 14.46 g/m*3 17.5 C 0 km/h
2082 10-08-2019 05:25:00 17.5 C 14.46 g/m*3 17.5 C 0 km/h
2083 10-08-2019 05:30:00 17.5 C 14.46 g/m*3 17.5 C 0 km/h
2084 10-08-2019 05:35:00 17.5 C 14.46 g/m*3 17.5 C 0 km/h
2085 10-08-2019 05:40:00 17.5 C 14.46 g/m*3 17.5 C 0 km/h
2086 10-08-2019 05:45:00 17.5 C 14.46 g/m*3 17.5 C 0 km/h
2087 10-08-2019 05:50:00 17.5 C 14.46 g/m*3 17.5 C 0 km/h
2088 10-08-2019 05:55:00 17.4 C 14.38 g/m*3 17.4 C 0 km/h
2089 10-08-2019 06:00:00 17.4 C 14.38 g/m*3 17.4 C 0 km/h
2090 10-08-2019 06:05:00 17.5 C 14.46 g/m*3 17.5 C 0 km/h
2091 10-08-2019 06:10:00 17.5 C 14.46 g/m*3 17.5 C 0 km/h
2092 10-08-2019 06:15:00 17.5 C 14.46 g/m*3 17.5 C 0 km/h
2093 10-08-2019 06:20:00 17.5 C 14.46 g/m*3 17.5 C 0 km/h
2094 10-08-2019 06:25:00 17.5 C 14.46 g/m*3 17.5 C 0 km/h
2095 10-08-2019 06:30:00 17.5 C 14.46 g/m*3 17.5 C 0 km/h
2096 10-08-2019 06:35:00 17.5 C 14.46 g/m*3 17.5 C 0 km/h
2097 10-08-2019 06:40:00 17.4 C 14.38 g/m*3 17.4 C 0 km/h
2098 10-08-2019 06:45:00 17.4 C 14.38 g/m*3 17.4 C 0 km/h
2099 10-08-2019 06:50:00 17.4 C 14.38 g/m*3 17.4 C 0 km/h
2100 10-08-2019 06:55:00 17.3 C 14.29 g/m*3 17.3 C 0 km/h
Sensor: Nr:Datum:Temp:Abs-Feuchte:Windchill:Wind:
Aussen-T/F 2101 10-08-2019 07:00:00 17.3 C 14.29 g/m*3 17.3 C 14.5 km/h
2102 10-08-2019 07:05:00 17.3 C 14.29 g/m*3 17.3 C 6.4 km/h
2103 10-08-2019 07:10:00 17.3 C 14.29 g/m*3 17.3 C 11.3 km/h
2104 10-08-2019 07:15:00 17.3 C 14.29 g/m*3 17.3 C 8.1 km/h
2105 10-08-2019 07:20:00 17.3 C 14.29 g/m*3 17.3 C 0 km/h
2106 10-08-2019 07:25:00 17.3 C 14.29 g/m*3 17.3 C 1.6 km/h
2107 10-08-2019 07:30:00 17.3 C 14.29 g/m*3 17.3 C 1.6 km/h
2108 10-08-2019 07:35:00 17.3 C 14.29 g/m*3 17.3 C 1.6 km/h
2109 10-08-2019 07:40:00 17.3 C 14.29 g/m*3 17.3 C 1.6 km/h
2110 10-08-2019 07:45:00 17.4 C 14.38 g/m*3 17.4 C 1.6 km/h
2111 10-08-2019 07:50:00 17.4 C 14.38 g/m*3 17.4 C 9.7 km/h
2112 10-08-2019 07:55:00 17.5 C 14.46 g/m*3 17.5 C 1.6 km/h
2113 10-08-2019 08:00:00 17.6 C 14.55 g/m*3 17.6 C 6.4 km/h
2114 10-08-2019 08:05:00 17.4 C 14.38 g/m*3 17.4 C 8.1 km/h
2115 10-08-2019 08:10:00 17.2 C 14.2 g/m*3 17.2 C 8.1 km/h
2116 10-08-2019 08:15:00 17.1 C 13.97 g/m*3 17.1 C 11.3 km/h
2117 10-08-2019 08:20:00 17.2 C 14.06 g/m*3 17.2 C 6.4 km/h
2118 10-08-2019 08:25:00 17.2 C 14.06 g/m*3 17.2 C 11.3 km/h
2119 10-08-2019 08:30:00 17.2 C 14.06 g/m*3 17.2 C 14.5 km/h
2120 10-08-2019 08:35:00 17.3 C 14 g/m*3 17.3 C 11.3 km/h
2121 10-08-2019 08:40:00 17.4 C 13.93 g/m*3 17.4 C 16.1 km/h
2122 10-08-2019 08:45:00 17.7 C 14.03 g/m*3 17.7 C 12.9 km/h
2123 10-08-2019 08:50:00 17.8 C 13.96 g/m*3 17.8 C 14.5 km/h
2124 10-08-2019 08:55:00 17.9 C 14.05 g/m*3 17.9 C 11.3 km/h
2125 10-08-2019 09:00:00 18.2 C 13.99 g/m*3 18.2 C 14.5 km/h
Sensor: Nr:Datum:Temp:Abs-Feuchte:Windchill:Wind:
Aussen-T/F 2126 10-08-2019 09:05:00 18.6 C 14.17 g/m*3 18.6 C 14.5 km/h
2127 10-08-2019 09:10:00 18.8 C 14.33 g/m*3 18.8 C 19.3 km/h
2128 10-08-2019 09:15:00 18.9 C 14.09 g/m*3 18.9 C 14.5 km/h
2129 10-08-2019 09:20:00 19 C 14.01 g/m*3 19 C 24.1 km/h
2130 10-08-2019 09:25:00 19.1 C 13.93 g/m*3 19.1 C 16.1 km/h
2131 10-08-2019 09:30:00 19.2 C 14.18 g/m*3 19.2 C 9.7 km/h
2132 10-08-2019 09:35:00 19.3 C 14.1 g/m*3 19.3 C 8.1 km/h
2133 10-08-2019 09:40:00 19.4 C 14.18 g/m*3 19.4 C 11.3 km/h
2134 10-08-2019 09:45:00 19.6 C 14.18 g/m*3 19.6 C 14.5 km/h
2135 10-08-2019 09:50:00 19.7 C 14.09 g/m*3 19.7 C 12.9 km/h
2136 10-08-2019 09:55:00 19.7 C 14.09 g/m*3 19.7 C 17.7 km/h
2137 10-08-2019 10:00:00 19.8 C 14.01 g/m*3 19.8 C 17.7 km/h
2138 10-08-2019 10:05:00 19.9 C 14.09 g/m*3 19.9 C 14.5 km/h
2139 10-08-2019 10:10:00 20.1 C 14.08 g/m*3 20.1 C 14.5 km/h
2140 10-08-2019 10:15:00 20.2 C 14.16 g/m*3 20.2 C 9.7 km/h
2141 10-08-2019 10:20:00 20.2 C 13.99 g/m*3 20.2 C 12.9 km/h
2142 10-08-2019 10:25:00 20.3 C 14.07 g/m*3 20.3 C 22.5 km/h
2143 10-08-2019 10:30:00 20.3 C 14.07 g/m*3 20.3 C 11.3 km/h
2144 10-08-2019 10:35:00 20.4 C 14.15 g/m*3 20.4 C 11.3 km/h
2145 10-08-2019 10:40:00 20.6 C 14.32 g/m*3 20.6 C 11.3 km/h
2146 10-08-2019 10:45:00 20.7 C 13.86 g/m*3 20.7 C 17.7 km/h
2147 10-08-2019 10:50:00 20.8 C 13.58 g/m*3 20.8 C 12.9 km/h
2148 10-08-2019 10:55:00 21.1 C 14 g/m*3 21.1 C 16.1 km/h
2149 10-08-2019 11:00:00 21.3 C 14.17 g/m*3 21.3 C 9.7 km/h
2150 10-08-2019 11:05:00 21.6 C 14.79 g/m*3 21.6 C 9.7 km/h
Sensor: Nr:Datum:Temp:Abs-Feuchte:Windchill:Wind:
Aussen-T/F 2151 10-08-2019 11:10:00 21.6 C 14.03 g/m*3 21.6 C 14.5 km/h
2152 10-08-2019 11:15:00 21.6 C 13.85 g/m*3 21.6 C 14.5 km/h
2153 10-08-2019 11:20:00 21.4 C 13.69 g/m*3 21.4 C 14.5 km/h
2154 10-08-2019 11:25:00 21.2 C 13.71 g/m*3 21.2 C 16.1 km/h
2155 10-08-2019 11:30:00 21.2 C 13.71 g/m*3 21.2 C 11.3 km/h
2156 10-08-2019 11:35:00 21.3 C 13.98 g/m*3 21.3 C 12.9 km/h
2157 10-08-2019 11:40:00 21.4 C 13.87 g/m*3 21.4 C 12.9 km/h
2158 10-08-2019 11:45:00 21.5 C 13.77 g/m*3 21.5 C 16.1 km/h
2159 10-08-2019 11:50:00 21.5 C 13.95 g/m*3 21.5 C 16.1 km/h
2160 10-08-2019 11:55:00 21.6 C 14.03 g/m*3 21.6 C 16.1 km/h
2161 10-08-2019 12:00:00 21.6 C 13.66 g/m*3 21.6 C 17.7 km/h
2162 10-08-2019 12:05:00 21.7 C 13.73 g/m*3 21.7 C 16.1 km/h
2163 10-08-2019 12:10:00 21.8 C 13.81 g/m*3 21.8 C 14.5 km/h
2164 10-08-2019 12:15:00 22.1 C 14.05 g/m*3 22.1 C 19.3 km/h
2165 10-08-2019 12:20:00 22.3 C 13.82 g/m*3 22.3 C 14.5 km/h
2166 10-08-2019 12:25:00 22.4 C 13.5 g/m*3 22.4 C 20.9 km/h
2167 10-08-2019 12:30:00 22.6 C 13.86 g/m*3 22.6 C 14.5 km/h
2168 10-08-2019 12:35:00 22.7 C 13.74 g/m*3 22.7 C 16.1 km/h
2169 10-08-2019 12:40:00 22.8 C 13.61 g/m*3 22.8 C 14.5 km/h
2170 10-08-2019 12:45:00 22.9 C 13.69 g/m*3 22.9 C 11.3 km/h
2171 10-08-2019 12:50:00 22.9 C 13.28 g/m*3 22.9 C 19.3 km/h
2172 10-08-2019 12:55:00 22.8 C 13.41 g/m*3 22.8 C 16.1 km/h
2173 10-08-2019 13:00:00 22.8 C 13.21 g/m*3 22.8 C 17.7 km/h
2174 10-08-2019 13:05:00 22.9 C 13.28 g/m*3 22.9 C 22.5 km/h
2175 10-08-2019 13:10:00 23.1 C 13.02 g/m*3 23.1 C 24.1 km/h
Sensor: Nr:Datum:Temp:Abs-Feuchte:Windchill:Wind:
Aussen-T/F 2176 10-08-2019 13:15:00 23.3 C 13.38 g/m*3 23.3 C 12.9 km/h
2177 10-08-2019 13:20:00 23.4 C 13.04 g/m*3 23.4 C 14.5 km/h
2178 10-08-2019 13:25:00 23.4 C 13.46 g/m*3 23.4 C 14.5 km/h
2179 10-08-2019 13:30:00 23.4 C 13.46 g/m*3 23.4 C 9.7 km/h
2180 10-08-2019 13:35:00 23.4 C 13.25 g/m*3 23.4 C 12.9 km/h
2181 10-08-2019 13:40:00 23.6 C 13.4 g/m*3 23.6 C 16.1 km/h
2182 10-08-2019 13:45:00 23.5 C 13.11 g/m*3 23.5 C 20.9 km/h
2183 10-08-2019 13:50:00 23.3 C 13.17 g/m*3 23.3 C 14.5 km/h
2184 10-08-2019 13:55:00 23.1 C 13.02 g/m*3 23.1 C 20.9 km/h
2185 10-08-2019 14:00:00 23.1 C 13.02 g/m*3 23.1 C 22.5 km/h
2186 10-08-2019 14:05:00 23.4 C 13.04 g/m*3 23.4 C 16.1 km/h
2187 10-08-2019 14:10:00 23.6 C 13.19 g/m*3 23.6 C 14.5 km/h
2188 10-08-2019 14:15:00 23.7 C 13.05 g/m*3 23.7 C 17.7 km/h
2189 10-08-2019 14:20:00 23.8 C 13.34 g/m*3 23.8 C 17.7 km/h
2190 10-08-2019 14:25:00 24 C 12.84 g/m*3 24 C 16.1 km/h
2191 10-08-2019 14:30:00 23.9 C 13.41 g/m*3 23.9 C 20.9 km/h
2192 10-08-2019 14:35:00 23.8 C 13.34 g/m*3 23.8 C 17.7 km/h
2193 10-08-2019 14:40:00 24 C 13.05 g/m*3 24 C 22.5 km/h
2194 10-08-2019 14:45:00 24.1 C 13.13 g/m*3 24.1 C 11.3 km/h
2195 10-08-2019 14:50:00 24.2 C 12.76 g/m*3 24.2 C 14.5 km/h
2196 10-08-2019 14:55:00 24.4 C 12.91 g/m*3 24.4 C 17.7 km/h
2197 10-08-2019 15:00:00 24.6 C 12.83 g/m*3 24.6 C 20.9 km/h
2198 10-08-2019 15:05:00 24.6 C 12.38 g/m*3 24.6 C 19.3 km/h
2199 10-08-2019 15:10:00 24.6 C 12.83 g/m*3 24.6 C 12.9 km/h
2200 10-08-2019 15:15:00 24.8 C 12.97 g/m*3 24.8 C 17.7 km/h
Sensor: Nr:Datum:Temp:Abs-Feuchte:Windchill:Wind:
Aussen-T/F 2201 10-08-2019 15:20:00 25.1 C 12.73 g/m*3 25.1 C 12.9 km/h
2202 10-08-2019 15:25:00 24.9 C 12.59 g/m*3 24.9 C 14.5 km/h
2203 10-08-2019 15:30:00 24.7 C 12.68 g/m*3 24.7 C 12.9 km/h
2204 10-08-2019 15:35:00 24.8 C 13.43 g/m*3 24.8 C 14.5 km/h
2205 10-08-2019 15:40:00 25.2 C 12.8 g/m*3 25.2 C 17.7 km/h
2206 10-08-2019 15:45:00 25.5 C 12.78 g/m*3 25.5 C 19.3 km/h
2207 10-08-2019 15:50:00 25.7 C 12.45 g/m*3 25.7 C 25.7 km/h
2208 10-08-2019 15:55:00 25.4 C 12.48 g/m*3 25.4 C 20.9 km/h
2209 10-08-2019 16:00:00 25.1 C 12.73 g/m*3 25.1 C 17.7 km/h
2210 10-08-2019 16:05:00 25.2 C 12.34 g/m*3 25.2 C 19.3 km/h
2211 10-08-2019 16:10:00 24.9 C 11.9 g/m*3 24.9 C 19.3 km/h
2212 10-08-2019 16:15:00 24.8 C 12.29 g/m*3 24.8 C 6.4 km/h
2213 10-08-2019 16:20:00 25.3 C 12.41 g/m*3 25.3 C 16.1 km/h
2214 10-08-2019 16:25:00 25.6 C 13.09 g/m*3 25.6 C 14.5 km/h
2215 10-08-2019 16:30:00 25.7 C 12.45 g/m*3 25.7 C 20.9 km/h
2216 10-08-2019 16:35:00 25.4 C 12.24 g/m*3 25.4 C 12.9 km/h
2217 10-08-2019 16:40:00 25.1 C 12.73 g/m*3 25.1 C 12.9 km/h
2218 10-08-2019 16:45:00 25.1 C 12.27 g/m*3 25.1 C 14.5 km/h
2219 10-08-2019 16:50:00 25.3 C 13.58 g/m*3 25.3 C 9.7 km/h
2220 10-08-2019 16:55:00 25.4 C 11.77 g/m*3 25.4 C 19.3 km/h
2221 10-08-2019 17:00:00 25.8 C 12.52 g/m*3 25.8 C 20.9 km/h
2222 10-08-2019 17:05:00 25.8 C 11.8 g/m*3 25.8 C 22.5 km/h
2223 10-08-2019 17:10:00 25.7 C 11.73 g/m*3 25.7 C 12.9 km/h
2224 10-08-2019 17:15:00 25.9 C 12.1 g/m*3 25.9 C 16.1 km/h
2225 10-08-2019 17:20:00 26.2 C 12.56 g/m*3 26.2 C 14.5 km/h
Sensor: Nr:Datum:Temp:Abs-Feuchte:Windchill:Wind:
Aussen-T/F 2226 10-08-2019 17:25:00 26.4 C 11.95 g/m*3 26.4 C 17.7 km/h
2227 10-08-2019 17:30:00 26.6 C 12.59 g/m*3 26.6 C 16.1 km/h
2228 10-08-2019 17:35:00 26.8 C 12.22 g/m*3 26.8 C 12.9 km/h
2229 10-08-2019 17:40:00 26.8 C 11.96 g/m*3 26.8 C 14.5 km/h
2230 10-08-2019 17:45:00 26.7 C 11.9 g/m*3 26.7 C 9.7 km/h
2231 10-08-2019 17:50:00 26.4 C 12.2 g/m*3 26.4 C 16.1 km/h
2232 10-08-2019 17:55:00 26.4 C 12.7 g/m*3 26.4 C 9.7 km/h
2233 10-08-2019 18:00:00 26.8 C 12.22 g/m*3 26.8 C 12.9 km/h
2234 10-08-2019 18:05:00 26.7 C 11.64 g/m*3 26.7 C 12.9 km/h
2235 10-08-2019 18:10:00 26.4 C 11.7 g/m*3 26.4 C 17.7 km/h
2236 10-08-2019 18:15:00 26.4 C 11.7 g/m*3 26.4 C 17.7 km/h
2237 10-08-2019 18:20:00 26.3 C 11.88 g/m*3 26.3 C 14.5 km/h
2238 10-08-2019 18:25:00 26.2 C 12.56 g/m*3 26.2 C 9.7 km/h
2239 10-08-2019 18:30:00 25.9 C 11.86 g/m*3 25.9 C 14.5 km/h
2240 10-08-2019 18:35:00 25.5 C 11.6 g/m*3 25.5 C 11.3 km/h
2241 10-08-2019 18:40:00 25.2 C 11.64 g/m*3 25.2 C 11.3 km/h
2242 10-08-2019 18:45:00 25.2 C 12.11 g/m*3 25.2 C 12.9 km/h
2243 10-08-2019 18:50:00 25.5 C 11.84 g/m*3 25.5 C 8.1 km/h
2244 10-08-2019 18:55:00 25.8 C 12.52 g/m*3 25.8 C 17.7 km/h
2245 10-08-2019 19:00:00 25.8 C 11.8 g/m*3 25.8 C 11.3 km/h
2246 10-08-2019 19:05:00 25.9 C 11.38 g/m*3 25.9 C 11.3 km/h
2247 10-08-2019 19:10:00 25.8 C 11.32 g/m*3 25.8 C 14.5 km/h
2248 10-08-2019 19:15:00 25.7 C 11.49 g/m*3 25.7 C 9.7 km/h
2249 10-08-2019 19:20:00 25.5 C 11.36 g/m*3 25.5 C 16.1 km/h
2250 10-08-2019 19:25:00 25.1 C 11.34 g/m*3 25.1 C 14.5 km/h
Sensor: Nr:Datum:Temp:Abs-Feuchte:Windchill:Wind:
Aussen-T/F 2251 10-08-2019 19:30:00 24.9 C 11.67 g/m*3 24.9 C 9.7 km/h
2252 10-08-2019 19:35:00 24.8 C 11.15 g/m*3 24.8 C 9.7 km/h
2253 10-08-2019 19:40:00 24.4 C 11.13 g/m*3 24.4 C 11.3 km/h
2254 10-08-2019 19:45:00 24.2 C 11.66 g/m*3 24.2 C 8.1 km/h
2255 10-08-2019 19:50:00 24.1 C 11.38 g/m*3 24.1 C 6.4 km/h
2256 10-08-2019 19:55:00 23.9 C 11.47 g/m*3 23.9 C 8.1 km/h
2257 10-08-2019 20:00:00 23.9 C 11.25 g/m*3 23.9 C 12.9 km/h
2258 10-08-2019 20:05:00 23.8 C 11.19 g/m*3 23.8 C 4.8 km/h
2259 10-08-2019 20:10:00 23.8 C 11.83 g/m*3 23.8 C 1.6 km/h
2260 10-08-2019 20:15:00 23.7 C 11.98 g/m*3 23.7 C 0 km/h
2261 10-08-2019 20:20:00 23.4 C 12.62 g/m*3 23.4 C 1.6 km/h
2262 10-08-2019 20:25:00 23 C 12.74 g/m*3 23 C 3.2 km/h
2263 10-08-2019 20:30:00 22.7 C 12.93 g/m*3 22.7 C 1.6 km/h
2264 10-08-2019 20:35:00 22.2 C 12.96 g/m*3 22.2 C 1.6 km/h
2265 10-08-2019 20:40:00 21.8 C 12.28 g/m*3 21.8 C 0 km/h
2266 10-08-2019 20:45:00 21.4 C 12.56 g/m*3 21.4 C 0 km/h
2267 10-08-2019 20:50:00 21.1 C 12.53 g/m*3 21.1 C 0 km/h
2268 10-08-2019 20:55:00 20.8 C 12.49 g/m*3 20.8 C 0 km/h
2269 10-08-2019 21:00:00 20.5 C 12.28 g/m*3 20.5 C 0 km/h
2270 10-08-2019 21:05:00 20.2 C 11.89 g/m*3 20.2 C 0 km/h
2271 10-08-2019 21:10:00 20 C 12.27 g/m*3 20 C 3.2 km/h
2272 10-08-2019 21:15:00 19.8 C 12.13 g/m*3 19.8 C 0 km/h
2273 10-08-2019 21:20:00 19.6 C 11.99 g/m*3 19.6 C 0 km/h
2274 10-08-2019 21:25:00 19.4 C 12.01 g/m*3 19.4 C 0 km/h
2275 10-08-2019 21:30:00 19.3 C 12.11 g/m*3 19.3 C 0 km/h
Sensor: Nr:Datum:Temp:Abs-Feuchte:Windchill:Wind:
Aussen-T/F 2276 10-08-2019 21:35:00 19.1 C 12.13 g/m*3 19.1 C 0 km/h
2277 10-08-2019 21:40:00 19 C 12.22 g/m*3 19 C 0 km/h
2278 10-08-2019 21:45:00 18.8 C 12.08 g/m*3 18.8 C 0 km/h
2279 10-08-2019 21:50:00 18.7 C 12.17 g/m*3 18.7 C 0 km/h
2280 10-08-2019 21:55:00 18.6 C 12.26 g/m*3 18.6 C 0 km/h
2281 10-08-2019 22:00:00 18.4 C 11.95 g/m*3 18.4 C 0 km/h
2282 10-08-2019 22:05:00 18.3 C 12.04 g/m*3 18.3 C 0 km/h
2283 10-08-2019 22:10:00 18.2 C 11.97 g/m*3 18.2 C 0 km/h
2284 10-08-2019 22:15:00 18.1 C 12.21 g/m*3 18.1 C 0 km/h
2285 10-08-2019 22:20:00 17.9 C 12.06 g/m*3 17.9 C 0 km/h
2286 10-08-2019 22:25:00 17.7 C 11.77 g/m*3 17.7 C 0 km/h
2287 10-08-2019 22:30:00 17.6 C 11.85 g/m*3 17.6 C 0 km/h
2288 10-08-2019 22:35:00 17.4 C 11.71 g/m*3 17.4 C 0 km/h
2289 10-08-2019 22:40:00 17.3 C 11.64 g/m*3 17.3 C 0 km/h
2290 10-08-2019 22:45:00 17.3 C 11.79 g/m*3 17.3 C 0 km/h
2291 10-08-2019 22:50:00 17.2 C 11.86 g/m*3 17.2 C 0 km/h
2292 10-08-2019 22:55:00 17.2 C 11.86 g/m*3 17.2 C 0 km/h
2293 10-08-2019 23:00:00 17.1 C 11.79 g/m*3 17.1 C 0 km/h
2294 10-08-2019 23:05:00 16.9 C 11.65 g/m*3 16.9 C 0 km/h
2295 10-08-2019 23:10:00 16.8 C 11.72 g/m*3 16.8 C 1.6 km/h
2296 10-08-2019 23:15:00 16.7 C 11.65 g/m*3 16.7 C 0 km/h
2297 10-08-2019 23:20:00 16.6 C 11.58 g/m*3 16.6 C 0 km/h
2298 10-08-2019 23:25:00 16.4 C 11.31 g/m*3 16.4 C 0 km/h
2299 10-08-2019 23:30:00 16.3 C 11.24 g/m*3 16.3 C 0 km/h
2300 10-08-2019 23:35:00 16.2 C 11.31 g/m*3 16.2 C 0 km/h
Sensor: Nr:Datum:Temp:Abs-Feuchte:Windchill:Wind:
Aussen-T/F 2301 10-08-2019 23:40:00 16.2 C 11.45 g/m*3 16.2 C 0 km/h
2302 10-08-2019 23:45:00 16.1 C 11.38 g/m*3 16.1 C 0 km/h
2303 10-08-2019 23:50:00 16.1 C 11.38 g/m*3 16.1 C 0 km/h
2304 10-08-2019 23:55:00 16.1 C 11.38 g/m*3 16.1 C 0 km/h
2305 11-08-2019 00:00:00 16 C 11.44 g/m*3 16 C 0 km/h
2306 11-08-2019 00:05:00 15.9 C 11.51 g/m*3 15.9 C 0 km/h
2307 11-08-2019 00:10:00 15.9 C 11.51 g/m*3 15.9 C 0 km/h
2308 11-08-2019 00:15:00 15.8 C 11.44 g/m*3 15.8 C 0 km/h
2309 11-08-2019 00:20:00 15.8 C 11.31 g/m*3 15.8 C 0 km/h
2310 11-08-2019 00:25:00 15.8 C 11.44 g/m*3 15.8 C 0 km/h
2311 11-08-2019 00:30:00 15.7 C 11.24 g/m*3 15.7 C 0 km/h
2312 11-08-2019 00:35:00 15.7 C 11.37 g/m*3 15.7 C 0 km/h
2313 11-08-2019 00:40:00 15.7 C 11.37 g/m*3 15.7 C 0 km/h
2314 11-08-2019 00:45:00 15.6 C 11.3 g/m*3 15.6 C 0 km/h
2315 11-08-2019 00:50:00 15.6 C 11.3 g/m*3 15.6 C 0 km/h
2316 11-08-2019 00:55:00 15.6 C 11.44 g/m*3 15.6 C 0 km/h
2317 11-08-2019 01:00:00 15.6 C 11.57 g/m*3 15.6 C 0 km/h
2318 11-08-2019 01:05:00 15.6 C 11.57 g/m*3 15.6 C 0 km/h
2319 11-08-2019 01:10:00 15.5 C 11.5 g/m*3 15.5 C 0 km/h
2320 11-08-2019 01:15:00 15.4 C 11.43 g/m*3 15.4 C 0 km/h
2321 11-08-2019 01:20:00 15.4 C 11.43 g/m*3 15.4 C 0 km/h
2322 11-08-2019 01:25:00 15.4 C 11.43 g/m*3 15.4 C 0 km/h
2323 11-08-2019 01:30:00 15.3 C 11.36 g/m*3 15.3 C 0 km/h
2324 11-08-2019 01:35:00 15.3 C 11.36 g/m*3 15.3 C 0 km/h
2325 11-08-2019 01:40:00 15.2 C 11.42 g/m*3 15.2 C 0 km/h
Sensor: Nr:Datum:Temp:Abs-Feuchte:Windchill:Wind:
Aussen-T/F 2326 11-08-2019 01:45:00 15.2 C 11.42 g/m*3 15.2 C 0 km/h
2327 11-08-2019 01:50:00 15.3 C 11.49 g/m*3 15.3 C 0 km/h
2328 11-08-2019 01:55:00 15.3 C 11.49 g/m*3 15.3 C 0 km/h
2329 11-08-2019 02:00:00 15.4 C 11.56 g/m*3 15.4 C 0 km/h
2330 11-08-2019 02:05:00 15.5 C 11.5 g/m*3 15.5 C 0 km/h
2331 11-08-2019 02:10:00 15.6 C 11.57 g/m*3 15.6 C 0 km/h
2332 11-08-2019 02:15:00 15.7 C 11.64 g/m*3 15.7 C 0 km/h
2333 11-08-2019 02:20:00 15.7 C 11.64 g/m*3 15.7 C 0 km/h
2334 11-08-2019 02:25:00 15.8 C 11.58 g/m*3 15.8 C 0 km/h
2335 11-08-2019 02:30:00 15.8 C 11.58 g/m*3 15.8 C 0 km/h
2336 11-08-2019 02:35:00 15.8 C 11.71 g/m*3 15.8 C 0 km/h
2337 11-08-2019 02:40:00 15.8 C 11.58 g/m*3 15.8 C 0 km/h
2338 11-08-2019 02:45:00 15.8 C 11.58 g/m*3 15.8 C 0 km/h
2339 11-08-2019 02:50:00 15.8 C 11.58 g/m*3 15.8 C 0 km/h
2340 11-08-2019 02:55:00 15.7 C 11.37 g/m*3 15.7 C 0 km/h
2341 11-08-2019 03:00:00 15.7 C 11.37 g/m*3 15.7 C 0 km/h
2342 11-08-2019 03:05:00 15.6 C 11.3 g/m*3 15.6 C 0 km/h
2343 11-08-2019 03:10:00 15.6 C 11.44 g/m*3 15.6 C 0 km/h
2344 11-08-2019 03:15:00 15.4 C 11.3 g/m*3 15.4 C 0 km/h
2345 11-08-2019 03:20:00 15.3 C 11.23 g/m*3 15.3 C 0 km/h
2346 11-08-2019 03:25:00 15.2 C 11.16 g/m*3 15.2 C 0 km/h
2347 11-08-2019 03:30:00 15.1 C 11.22 g/m*3 15.1 C 0 km/h
2348 11-08-2019 03:35:00 15.1 C 11.22 g/m*3 15.1 C 0 km/h
2349 11-08-2019 03:40:00 15 C 11.16 g/m*3 15 C 0 km/h
2350 11-08-2019 03:45:00 14.9 C 11.09 g/m*3 14.9 C 0 km/h
Sensor: Nr:Datum:Temp:Abs-Feuchte:Windchill:Wind:
Aussen-T/F 2351 11-08-2019 03:50:00 14.8 C 11.15 g/m*3 14.8 C 0 km/h
2352 11-08-2019 03:55:00 14.8 C 11.15 g/m*3 14.8 C 0 km/h
2353 11-08-2019 04:00:00 14.7 C 11.08 g/m*3 14.7 C 0 km/h
2354 11-08-2019 04:05:00 14.7 C 11.08 g/m*3 14.7 C 0 km/h
2355 11-08-2019 04:10:00 14.6 C 11.01 g/m*3 14.6 C 0 km/h
2356 11-08-2019 04:15:00 14.6 C 11.01 g/m*3 14.6 C 0 km/h
2357 11-08-2019 04:20:00 14.6 C 11.01 g/m*3 14.6 C 0 km/h
2358 11-08-2019 04:25:00 14.5 C 10.94 g/m*3 14.5 C 0 km/h
2359 11-08-2019 04:30:00 14.4 C 10.88 g/m*3 14.4 C 0 km/h
2360 11-08-2019 04:35:00 14.3 C 10.81 g/m*3 14.3 C 0 km/h
2361 11-08-2019 04:40:00 14.2 C 10.87 g/m*3 14.2 C 0 km/h
2362 11-08-2019 04:45:00 14.2 C 10.87 g/m*3 14.2 C 0 km/h
2363 11-08-2019 04:50:00 14.2 C 10.87 g/m*3 14.2 C 0 km/h
2364 11-08-2019 04:55:00 14.2 C 10.87 g/m*3 14.2 C 0 km/h
2365 11-08-2019 05:00:00 14.1 C 10.8 g/m*3 14.1 C 0 km/h
2366 11-08-2019 05:05:00 13.9 C 10.67 g/m*3 13.9 C 0 km/h
2367 11-08-2019 05:10:00 13.8 C 10.72 g/m*3 13.8 C 0 km/h
2368 11-08-2019 05:15:00 13.7 C 10.66 g/m*3 13.7 C 0 km/h
2369 11-08-2019 05:20:00 13.7 C 10.66 g/m*3 13.7 C 0 km/h
2370 11-08-2019 05:25:00 13.6 C 10.59 g/m*3 13.6 C 0 km/h
2371 11-08-2019 05:30:00 13.6 C 10.59 g/m*3 13.6 C 0 km/h
2372 11-08-2019 05:35:00 13.4 C 10.46 g/m*3 13.4 C 0 km/h
2373 11-08-2019 05:40:00 13.3 C 10.51 g/m*3 13.3 C 0 km/h
2374 11-08-2019 05:45:00 13.3 C 10.51 g/m*3 13.3 C 0 km/h
2375 11-08-2019 05:50:00 13.3 C 10.51 g/m*3 13.3 C 0 km/h
Sensor: Nr:Datum:Temp:Abs-Feuchte:Windchill:Wind:
Aussen-T/F 2376 11-08-2019 05:55:00 13.3 C 10.51 g/m*3 13.3 C 0 km/h
2377 11-08-2019 06:00:00 13.2 C 10.45 g/m*3 13.2 C 0 km/h
2378 11-08-2019 06:05:00 13.2 C 10.56 g/m*3 13.2 C 0 km/h
2379 11-08-2019 06:10:00 13.1 C 10.5 g/m*3 13.1 C 0 km/h
2380 11-08-2019 06:15:00 13.1 C 10.5 g/m*3 13.1 C 0 km/h
2381 11-08-2019 06:20:00 13.2 C 10.68 g/m*3 13.2 C 0 km/h
2382 11-08-2019 06:25:00 13.3 C 10.74 g/m*3 13.3 C 1.6 km/h
2383 11-08-2019 06:30:00 13.5 C 10.99 g/m*3 13.5 C 1.6 km/h
2384 11-08-2019 06:35:00 13.6 C 10.95 g/m*3 13.6 C 0 km/h
2385 11-08-2019 06:40:00 13.6 C 10.95 g/m*3 13.6 C 0 km/h
2386 11-08-2019 06:45:00 13.7 C 11.01 g/m*3 13.7 C 0 km/h
2387 11-08-2019 06:50:00 13.7 C 11.01 g/m*3 13.7 C 0 km/h
2388 11-08-2019 06:55:00 13.7 C 11.01 g/m*3 13.7 C 0 km/h
2389 11-08-2019 07:00:00 13.7 C 11.01 g/m*3 13.7 C 0 km/h
2390 11-08-2019 07:05:00 13.8 C 11.08 g/m*3 13.8 C 0 km/h
2391 11-08-2019 07:10:00 13.8 C 11.08 g/m*3 13.8 C 0 km/h
2392 11-08-2019 07:15:00 13.8 C 10.96 g/m*3 13.8 C 0 km/h
2393 11-08-2019 07:20:00 13.9 C 11.15 g/m*3 13.9 C 0 km/h
2394 11-08-2019 07:25:00 13.9 C 11.15 g/m*3 13.9 C 0 km/h
2395 11-08-2019 07:30:00 14.1 C 11.17 g/m*3 14.1 C 0 km/h
2396 11-08-2019 07:35:00 14.3 C 11.3 g/m*3 14.3 C 0 km/h
2397 11-08-2019 07:40:00 14.3 C 11.3 g/m*3 14.3 C 0 km/h
2398 11-08-2019 07:45:00 14.3 C 11.18 g/m*3 14.3 C 0 km/h
2399 11-08-2019 07:50:00 14.3 C 11.18 g/m*3 14.3 C 0 km/h
2400 11-08-2019 07:55:00 14.3 C 11.3 g/m*3 14.3 C 0 km/h
Sensor: Nr:Datum:Temp:Abs-Feuchte:Windchill:Wind:
Aussen-T/F 2401 11-08-2019 08:00:00 14.4 C 11.37 g/m*3 14.4 C 0 km/h
2402 11-08-2019 08:05:00 14.6 C 11.51 g/m*3 14.6 C 0 km/h
2403 11-08-2019 08:10:00 14.7 C 11.58 g/m*3 14.7 C 0 km/h
2404 11-08-2019 08:15:00 14.8 C 11.65 g/m*3 14.8 C 0 km/h
2405 11-08-2019 08:20:00 14.8 C 11.65 g/m*3 14.8 C 0 km/h
2406 11-08-2019 08:25:00 14.9 C 11.6 g/m*3 14.9 C 0 km/h
2407 11-08-2019 08:30:00 14.9 C 11.6 g/m*3 14.9 C 0 km/h
2408 11-08-2019 08:35:00 15 C 11.67 g/m*3 15 C 0 km/h
2409 11-08-2019 08:40:00 15.1 C 11.61 g/m*3 15.1 C 0 km/h
2410 11-08-2019 08:45:00 15.1 C 11.74 g/m*3 15.1 C 0 km/h
2411 11-08-2019 08:50:00 15.2 C 11.81 g/m*3 15.2 C 0 km/h
2412 11-08-2019 08:55:00 15.3 C 11.88 g/m*3 15.3 C 0 km/h
2413 11-08-2019 09:00:00 15.3 C 11.75 g/m*3 15.3 C 0 km/h
2414 11-08-2019 09:05:00 15.3 C 11.75 g/m*3 15.3 C 0 km/h
2415 11-08-2019 09:10:00 15.4 C 11.82 g/m*3 15.4 C 0 km/h
2416 11-08-2019 09:15:00 15.6 C 12.1 g/m*3 15.6 C 0 km/h
2417 11-08-2019 09:20:00 15.8 C 12.11 g/m*3 15.8 C 0 km/h
2418 11-08-2019 09:25:00 15.9 C 12.05 g/m*3 15.9 C 0 km/h
2419 11-08-2019 09:30:00 16.2 C 11.86 g/m*3 16.2 C 1.6 km/h
2420 11-08-2019 09:35:00 16.6 C 12.15 g/m*3 16.6 C 1.6 km/h
2421 11-08-2019 09:40:00 16.8 C 12.3 g/m*3 16.8 C 0 km/h
2422 11-08-2019 09:45:00 16.9 C 12.08 g/m*3 16.9 C 0 km/h
2423 11-08-2019 09:50:00 17.2 C 12.01 g/m*3 17.2 C 1.6 km/h
2424 11-08-2019 09:55:00 17.6 C 12.15 g/m*3 17.6 C 1.6 km/h
2425 11-08-2019 10:00:00 17.9 C 11.91 g/m*3 17.9 C 8.1 km/h
Sensor: Nr:Datum:Temp:Abs-Feuchte:Windchill:Wind:
Aussen-T/F 2426 11-08-2019 10:05:00 18.3 C 11.73 g/m*3 18.3 C 9.7 km/h
2427 11-08-2019 10:10:00 18.7 C 12.01 g/m*3 18.7 C 8.1 km/h
2428 11-08-2019 10:15:00 18.8 C 12.08 g/m*3 18.8 C 4.8 km/h
2429 11-08-2019 10:20:00 18.9 C 11.66 g/m*3 18.9 C 6.4 km/h
2430 11-08-2019 10:25:00 19.2 C 11.71 g/m*3 19.2 C 6.4 km/h
2431 11-08-2019 10:30:00 19.5 C 11.41 g/m*3 19.5 C 9.7 km/h
2432 11-08-2019 10:35:00 19.8 C 11.61 g/m*3 19.8 C 11.3 km/h
2433 11-08-2019 10:40:00 20.1 C 11.3 g/m*3 20.1 C 11.3 km/h
2434 11-08-2019 10:45:00 20.3 C 11.26 g/m*3 20.3 C 12.9 km/h
2435 11-08-2019 10:50:00 20.4 C 11.14 g/m*3 20.4 C 9.7 km/h
2436 11-08-2019 10:55:00 20.6 C 11.28 g/m*3 20.6 C 9.7 km/h
2437 11-08-2019 11:00:00 20.7 C 11.16 g/m*3 20.7 C 12.9 km/h
2438 11-08-2019 11:05:00 20.7 C 10.98 g/m*3 20.7 C 12.9 km/h
2439 11-08-2019 11:10:00 20.8 C 10.86 g/m*3 20.8 C 12.9 km/h
2440 11-08-2019 11:15:00 20.8 C 10.86 g/m*3 20.8 C 14.5 km/h
2441 11-08-2019 11:20:00 20.9 C 10.93 g/m*3 20.9 C 12.9 km/h
2442 11-08-2019 11:25:00 21.2 C 11.12 g/m*3 21.2 C 11.3 km/h
2443 11-08-2019 11:30:00 21.3 C 11.56 g/m*3 21.3 C 4.8 km/h
2444 11-08-2019 11:35:00 21.6 C 11.19 g/m*3 21.6 C 9.7 km/h
2445 11-08-2019 11:40:00 21.8 C 10.94 g/m*3 21.8 C 12.9 km/h
2446 11-08-2019 11:45:00 21.8 C 10.55 g/m*3 21.8 C 16.1 km/h
2447 11-08-2019 11:50:00 21.8 C 11.32 g/m*3 21.8 C 11.3 km/h
2448 11-08-2019 11:55:00 21.8 C 10.74 g/m*3 21.8 C 9.7 km/h
2449 11-08-2019 12:00:00 21.8 C 11.13 g/m*3 21.8 C 11.3 km/h
2450 11-08-2019 12:05:00 21.8 C 11.13 g/m*3 21.8 C 4.8 km/h
Sensor: Nr:Datum:Temp:Abs-Feuchte:Windchill:Wind:
Aussen-T/F 2451 11-08-2019 12:10:00 21.8 C 11.13 g/m*3 21.8 C 8.1 km/h
2452 11-08-2019 12:15:00 22 C 10.87 g/m*3 22 C 11.3 km/h
2453 11-08-2019 12:20:00 22.1 C 11.13 g/m*3 22.1 C 11.3 km/h
2454 11-08-2019 12:25:00 22.2 C 10.8 g/m*3 22.2 C 16.1 km/h
2455 11-08-2019 12:30:00 22.1 C 10.74 g/m*3 22.1 C 9.7 km/h
2456 11-08-2019 12:35:00 22.2 C 10.8 g/m*3 22.2 C 12.9 km/h
2457 11-08-2019 12:40:00 22.1 C 10.93 g/m*3 22.1 C 9.7 km/h
2458 11-08-2019 12:45:00 22.2 C 10.6 g/m*3 22.2 C 9.7 km/h
2459 11-08-2019 12:50:00 22.3 C 10.86 g/m*3 22.3 C 9.7 km/h
2460 11-08-2019 12:55:00 22.5 C 10.59 g/m*3 22.5 C 14.5 km/h
2461 11-08-2019 13:00:00 22.6 C 10.04 g/m*3 22.6 C 17.7 km/h
2462 11-08-2019 13:05:00 22.6 C 10.25 g/m*3 22.6 C 16.1 km/h
2463 11-08-2019 13:10:00 22.7 C 10.51 g/m*3 22.7 C 11.3 km/h
2464 11-08-2019 13:15:00 22.7 C 10.3 g/m*3 22.7 C 12.9 km/h
2465 11-08-2019 13:20:00 22.7 C 10.3 g/m*3 22.7 C 17.7 km/h
2466 11-08-2019 13:25:00 22.7 C 10.51 g/m*3 22.7 C 11.3 km/h
2467 11-08-2019 13:30:00 22.8 C 10.36 g/m*3 22.8 C 19.3 km/h
2468 11-08-2019 13:35:00 22.7 C 10.1 g/m*3 22.7 C 19.3 km/h
2469 11-08-2019 13:40:00 22.8 C 10.77 g/m*3 22.8 C 11.3 km/h
2470 11-08-2019 13:45:00 22.9 C 10.42 g/m*3 22.9 C 11.3 km/h
2471 11-08-2019 13:50:00 23 C 10.28 g/m*3 23 C 11.3 km/h
2472 11-08-2019 13:55:00 23.1 C 10.54 g/m*3 23.1 C 14.5 km/h
2473 11-08-2019 14:00:00 23.1 C 10.54 g/m*3 23.1 C 9.7 km/h
2474 11-08-2019 14:05:00 23.1 C 10.34 g/m*3 23.1 C 11.3 km/h
2475 11-08-2019 14:10:00 23.1 C 10.75 g/m*3 23.1 C 9.7 km/h
Sensor: Nr:Datum:Temp:Abs-Feuchte:Windchill:Wind:
Aussen-T/F 2476 11-08-2019 14:15:00 23.2 C 10.81 g/m*3 23.2 C 12.9 km/h
2477 11-08-2019 14:20:00 23.3 C 11.08 g/m*3 23.3 C 9.7 km/h
2478 11-08-2019 14:25:00 23.2 C 10.6 g/m*3 23.2 C 12.9 km/h
2479 11-08-2019 14:30:00 22.9 C 10.42 g/m*3 22.9 C 6.4 km/h
2480 11-08-2019 14:35:00 22.7 C 10.3 g/m*3 22.7 C 9.7 km/h
2481 11-08-2019 14:40:00 22.6 C 10.25 g/m*3 22.6 C 6.4 km/h
2482 11-08-2019 14:45:00 22.6 C 10.45 g/m*3 22.6 C 4.8 km/h
2483 11-08-2019 14:50:00 22.5 C 11.58 g/m*3 22.5 C 8.1 km/h
2484 11-08-2019 14:55:00 22.4 C 11.72 g/m*3 22.4 C 8.1 km/h
2485 11-08-2019 15:00:00 22.2 C 10.99 g/m*3 22.2 C 3.2 km/h
2486 11-08-2019 15:05:00 22 C 11.06 g/m*3 22 C 1.6 km/h
2487 11-08-2019 15:10:00 21.8 C 10.55 g/m*3 21.8 C 4.8 km/h
2488 11-08-2019 15:15:00 21.7 C 11.25 g/m*3 21.7 C 4.8 km/h
2489 11-08-2019 15:20:00 21.6 C 10.62 g/m*3 21.6 C 6.4 km/h
2490 11-08-2019 15:25:00 21.6 C 11.76 g/m*3 21.6 C 0 km/h
2491 11-08-2019 15:30:00 21.4 C 12 g/m*3 21.4 C 3.2 km/h
2492 11-08-2019 15:35:00 21.4 C 12.37 g/m*3 21.4 C 0 km/h
2493 11-08-2019 15:40:00 21.3 C 11.74 g/m*3 21.3 C 3.2 km/h
2494 11-08-2019 15:45:00 21.2 C 12.42 g/m*3 21.2 C 3.2 km/h
2495 11-08-2019 15:50:00 21 C 11.91 g/m*3 21 C 4.8 km/h
2496 11-08-2019 15:55:00 20.9 C 12.02 g/m*3 20.9 C 3.2 km/h
2497 11-08-2019 16:00:00 20.8 C 10.86 g/m*3 20.8 C 8.1 km/h
2498 11-08-2019 16:05:00 20.8 C 11.95 g/m*3 20.8 C 1.6 km/h
2499 11-08-2019 16:10:00 20.7 C 11.34 g/m*3 20.7 C 4.8 km/h
2500 11-08-2019 16:15:00 20.6 C 11.63 g/m*3 20.6 C 1.6 km/h
Sensor: Nr:Datum:Temp:Abs-Feuchte:Windchill:Wind:
Aussen-T/F 2501 11-08-2019 16:20:00 20.5 C 11.57 g/m*3 20.5 C 4.8 km/h
2502 11-08-2019 16:25:00 20.4 C 12.03 g/m*3 20.4 C 0 km/h
2503 11-08-2019 16:30:00 20.3 C 11.61 g/m*3 20.3 C 4.8 km/h
2504 11-08-2019 16:35:00 20.2 C 12.76 g/m*3 20.2 C 0 km/h
2505 11-08-2019 16:40:00 19.8 C 12.81 g/m*3 19.8 C 4.8 km/h
2506 11-08-2019 16:45:00 19.3 C 12.94 g/m*3 19.3 C 3.2 km/h
2507 11-08-2019 16:50:00 18.8 C 12.88 g/m*3 18.8 C 3.2 km/h
2508 11-08-2019 16:55:00 18.4 C 12.74 g/m*3 18.4 C 3.2 km/h
2509 11-08-2019 17:00:00 18.2 C 12.9 g/m*3 18.2 C 3.2 km/h
2510 11-08-2019 17:05:00 17.8 C 12.75 g/m*3 17.8 C 1.6 km/h
2511 11-08-2019 17:10:00 17.6 C 12.75 g/m*3 17.6 C 3.2 km/h
2512 11-08-2019 17:15:00 17.4 C 12.75 g/m*3 17.4 C 3.2 km/h
2513 11-08-2019 17:20:00 17.2 C 12.59 g/m*3 17.2 C 1.6 km/h
2514 11-08-2019 17:25:00 17.1 C 12.66 g/m*3 17.1 C 3.2 km/h
2515 11-08-2019 17:30:00 17 C 12.59 g/m*3 17 C 1.6 km/h
2516 11-08-2019 17:35:00 16.8 C 12.44 g/m*3 16.8 C 3.2 km/h
2517 11-08-2019 17:40:00 16.8 C 12.72 g/m*3 16.8 C 1.6 km/h
2518 11-08-2019 17:45:00 16.8 C 12.72 g/m*3 16.8 C 1.6 km/h
2519 11-08-2019 17:50:00 16.8 C 12.72 g/m*3 16.8 C 1.6 km/h
2520 11-08-2019 17:55:00 16.7 C 12.79 g/m*3 16.7 C 1.6 km/h
2521 11-08-2019 18:00:00 16.7 C 12.79 g/m*3 16.7 C 1.6 km/h
2522 11-08-2019 18:05:00 16.6 C 12.71 g/m*3 16.6 C 1.6 km/h
2523 11-08-2019 18:10:00 16.5 C 12.64 g/m*3 16.5 C 1.6 km/h
2524 11-08-2019 18:15:00 16.5 C 12.78 g/m*3 16.5 C 1.6 km/h
2525 11-08-2019 18:20:00 16.6 C 12.86 g/m*3 16.6 C 1.6 km/h
Sensor: Nr:Datum:Temp:Abs-Feuchte:Windchill:Wind:
Aussen-T/F 2526 11-08-2019 18:25:00 16.6 C 12.86 g/m*3 16.6 C 1.6 km/h
2527 11-08-2019 18:30:00 16.6 C 12.86 g/m*3 16.6 C 1.6 km/h
2528 11-08-2019 18:35:00 16.5 C 12.78 g/m*3 16.5 C 3.2 km/h
2529 11-08-2019 18:40:00 16.4 C 12.7 g/m*3 16.4 C 1.6 km/h
2530 11-08-2019 18:45:00 16.3 C 12.49 g/m*3 16.3 C 0 km/h
2531 11-08-2019 18:50:00 16.2 C 12.41 g/m*3 16.2 C 1.6 km/h
2532 11-08-2019 18:55:00 16.2 C 12.27 g/m*3 16.2 C 3.2 km/h
2533 11-08-2019 19:00:00 16.1 C 12.2 g/m*3 16.1 C 1.6 km/h
2534 11-08-2019 19:05:00 16.1 C 12.2 g/m*3 16.1 C 1.6 km/h
2535 11-08-2019 19:10:00 16 C 12.13 g/m*3 16 C 3.2 km/h
2536 11-08-2019 19:15:00 15.9 C 11.92 g/m*3 15.9 C 3.2 km/h
2537 11-08-2019 19:20:00 15.9 C 12.05 g/m*3 15.9 C 1.6 km/h
2538 11-08-2019 19:25:00 16 C 12.13 g/m*3 16 C 1.6 km/h
2539 11-08-2019 19:30:00 16.1 C 12.34 g/m*3 16.1 C 0 km/h
2540 11-08-2019 19:35:00 16.2 C 12.41 g/m*3 16.2 C 0 km/h
2541 11-08-2019 19:40:00 16.2 C 12.55 g/m*3 16.2 C 0 km/h
2542 11-08-2019 19:45:00 16.2 C 12.55 g/m*3 16.2 C 0 km/h
2543 11-08-2019 19:50:00 16.1 C 12.34 g/m*3 16.1 C 0 km/h
2544 11-08-2019 19:55:00 16.1 C 12.47 g/m*3 16.1 C 0 km/h
2545 11-08-2019 20:00:00 16.1 C 12.47 g/m*3 16.1 C 0 km/h
2546 11-08-2019 20:05:00 16 C 12.4 g/m*3 16 C 0 km/h
2547 11-08-2019 20:10:00 15.9 C 12.32 g/m*3 15.9 C 0 km/h
2548 11-08-2019 20:15:00 15.9 C 12.32 g/m*3 15.9 C 0 km/h
2549 11-08-2019 20:20:00 15.8 C 12.25 g/m*3 15.8 C 0 km/h
2550 11-08-2019 20:25:00 15.8 C 12.25 g/m*3 15.8 C 0 km/h
Sensor: Nr:Datum:Temp:Abs-Feuchte:Windchill:Wind:
Aussen-T/F 2551 11-08-2019 20:30:00 15.7 C 12.18 g/m*3 15.7 C 0 km/h
2552 11-08-2019 20:35:00 15.7 C 12.18 g/m*3 15.7 C 0 km/h
2553 11-08-2019 20:40:00 15.6 C 12.1 g/m*3 15.6 C 0 km/h
2554 11-08-2019 20:45:00 15.6 C 12.1 g/m*3 15.6 C 1.6 km/h
2555 11-08-2019 20:50:00 15.6 C 12.1 g/m*3 15.6 C 0 km/h
2556 11-08-2019 20:55:00 15.6 C 12.1 g/m*3 15.6 C 1.6 km/h
2557 11-08-2019 21:00:00 15.5 C 12.03 g/m*3 15.5 C 0 km/h
2558 11-08-2019 21:05:00 15.4 C 12.09 g/m*3 15.4 C 0 km/h
2559 11-08-2019 21:10:00 15.4 C 12.09 g/m*3 15.4 C 1.6 km/h
2560 11-08-2019 21:15:00 15.4 C 12.09 g/m*3 15.4 C 0 km/h
2561 11-08-2019 21:20:00 15.3 C 12.01 g/m*3 15.3 C 1.6 km/h
2562 11-08-2019 21:25:00 15.3 C 12.01 g/m*3 15.3 C 1.6 km/h
2563 11-08-2019 21:30:00 15.3 C 12.01 g/m*3 15.3 C 0 km/h
2564 11-08-2019 21:35:00 15.2 C 11.94 g/m*3 15.2 C 1.6 km/h
2565 11-08-2019 21:40:00 15.2 C 11.94 g/m*3 15.2 C 1.6 km/h
2566 11-08-2019 21:45:00 15.1 C 11.87 g/m*3 15.1 C 0 km/h
2567 11-08-2019 21:50:00 14.9 C 11.6 g/m*3 14.9 C 0 km/h
2568 11-08-2019 21:55:00 14.8 C 11.53 g/m*3 14.8 C 1.6 km/h
2569 11-08-2019 22:00:00 14.7 C 11.46 g/m*3 14.7 C 0 km/h
2570 11-08-2019 22:05:00 14.6 C 11.39 g/m*3 14.6 C 0 km/h
2571 11-08-2019 22:10:00 14.5 C 11.32 g/m*3 14.5 C 0 km/h
2572 11-08-2019 22:15:00 14.4 C 11.25 g/m*3 14.4 C 0 km/h
2573 11-08-2019 22:20:00 14.3 C 11.3 g/m*3 14.3 C 0 km/h
2574 11-08-2019 22:25:00 14.3 C 11.3 g/m*3 14.3 C 1.6 km/h
2575 11-08-2019 22:30:00 14.2 C 11.23 g/m*3 14.2 C 0 km/h
Sensor: Nr:Datum:Temp:Abs-Feuchte:Windchill:Wind:
Aussen-T/F 2576 11-08-2019 22:35:00 14.2 C 11.23 g/m*3 14.2 C 0 km/h
2577 11-08-2019 22:40:00 14.1 C 11.17 g/m*3 14.1 C 1.6 km/h
2578 11-08-2019 22:45:00 14.1 C 11.17 g/m*3 14.1 C 1.6 km/h
2579 11-08-2019 22:50:00 14.1 C 11.29 g/m*3 14.1 C 1.6 km/h
2580 11-08-2019 22:55:00 14.1 C 11.29 g/m*3 14.1 C 1.6 km/h
2581 11-08-2019 23:00:00 14.1 C 11.29 g/m*3 14.1 C 1.6 km/h
2582 11-08-2019 23:05:00 14.1 C 11.29 g/m*3 14.1 C 0 km/h
2583 11-08-2019 23:10:00 14.2 C 11.36 g/m*3 14.2 C 3.2 km/h
2584 11-08-2019 23:15:00 14.2 C 11.36 g/m*3 14.2 C 1.6 km/h
2585 11-08-2019 23:20:00 14.2 C 11.36 g/m*3 14.2 C 1.6 km/h
2586 11-08-2019 23:25:00 14.2 C 11.36 g/m*3 14.2 C 1.6 km/h
2587 11-08-2019 23:30:00 14.2 C 11.36 g/m*3 14.2 C 0 km/h
2588 11-08-2019 23:35:00 14.2 C 11.36 g/m*3 14.2 C 0 km/h
2589 11-08-2019 23:40:00 14.2 C 11.48 g/m*3 14.2 C 1.6 km/h
2590 11-08-2019 23:45:00 14.3 C 11.55 g/m*3 14.3 C 0 km/h
2591 11-08-2019 23:50:00 14.4 C 11.62 g/m*3 14.4 C 3.2 km/h
2592 11-08-2019 23:55:00 14.6 C 11.76 g/m*3 14.6 C 3.2 km/h
2593 12-08-2019 00:00:00 14.7 C 11.83 g/m*3 14.7 C 1.6 km/h
2594 12-08-2019 00:05:00 14.7 C 11.71 g/m*3 14.7 C 4.8 km/h
2595 12-08-2019 00:10:00 14.8 C 11.78 g/m*3 14.8 C 0 km/h
2596 12-08-2019 00:15:00 14.8 C 11.78 g/m*3 14.8 C 0 km/h
2597 12-08-2019 00:20:00 14.8 C 11.78 g/m*3 14.8 C 0 km/h
2598 12-08-2019 00:25:00 14.9 C 11.85 g/m*3 14.9 C 0 km/h
2599 12-08-2019 00:30:00 14.8 C 11.78 g/m*3 14.8 C 3.2 km/h
2600 12-08-2019 00:35:00 14.9 C 11.73 g/m*3 14.9 C 6.4 km/h
Sensor: Nr:Datum:Temp:Abs-Feuchte:Windchill:Wind:
Aussen-T/F 2601 12-08-2019 00:40:00 15 C 11.8 g/m*3 15 C 4.8 km/h
2602 12-08-2019 00:45:00 15 C 11.8 g/m*3 15 C 4.8 km/h
2603 12-08-2019 00:50:00 15 C 11.8 g/m*3 15 C 1.6 km/h
2604 12-08-2019 00:55:00 14.9 C 11.6 g/m*3 14.9 C 1.6 km/h
2605 12-08-2019 01:00:00 14.8 C 11.53 g/m*3 14.8 C 0 km/h
2606 12-08-2019 01:05:00 14.7 C 11.46 g/m*3 14.7 C 3.2 km/h
2607 12-08-2019 01:10:00 14.6 C 11.51 g/m*3 14.6 C 0 km/h
2608 12-08-2019 01:15:00 14.5 C 11.44 g/m*3 14.5 C 1.6 km/h
2609 12-08-2019 01:20:00 14.4 C 11.37 g/m*3 14.4 C 0 km/h
2610 12-08-2019 01:25:00 14.3 C 11.3 g/m*3 14.3 C 6.4 km/h
2611 12-08-2019 01:30:00 14.3 C 11.3 g/m*3 14.3 C 3.2 km/h
2612 12-08-2019 01:35:00 14.2 C 11.23 g/m*3 14.2 C 0 km/h
2613 12-08-2019 01:40:00 14.1 C 11.17 g/m*3 14.1 C 0 km/h
2614 12-08-2019 01:45:00 14.1 C 11.29 g/m*3 14.1 C 1.6 km/h
2615 12-08-2019 01:50:00 14 C 11.22 g/m*3 14 C 0 km/h
2616 12-08-2019 01:55:00 13.9 C 11.15 g/m*3 13.9 C 0 km/h
2617 12-08-2019 02:00:00 13.9 C 11.15 g/m*3 13.9 C 0 km/h
2618 12-08-2019 02:05:00 13.8 C 11.08 g/m*3 13.8 C 0 km/h
2619 12-08-2019 02:10:00 13.8 C 11.08 g/m*3 13.8 C 0 km/h
2620 12-08-2019 02:15:00 13.8 C 11.08 g/m*3 13.8 C 0 km/h
2621 12-08-2019 02:20:00 13.7 C 11.01 g/m*3 13.7 C 0 km/h
2622 12-08-2019 02:25:00 13.7 C 11.01 g/m*3 13.7 C 0 km/h
2623 12-08-2019 02:30:00 13.6 C 10.95 g/m*3 13.6 C 1.6 km/h
2624 12-08-2019 02:35:00 13.6 C 11.06 g/m*3 13.6 C 1.6 km/h
2625 12-08-2019 02:40:00 13.6 C 11.06 g/m*3 13.6 C 0 km/h
Sensor: Nr:Datum:Temp:Abs-Feuchte:Windchill:Wind:
Aussen-T/F 2626 12-08-2019 02:45:00 13.6 C 11.06 g/m*3 13.6 C 0 km/h
2627 12-08-2019 02:50:00 13.5 C 10.99 g/m*3 13.5 C 0 km/h
2628 12-08-2019 02:55:00 13.4 C 10.93 g/m*3 13.4 C 0 km/h
2629 12-08-2019 03:00:00 13.3 C 10.86 g/m*3 13.3 C 0 km/h
2630 12-08-2019 03:05:00 13.3 C 10.86 g/m*3 13.3 C 0 km/h
2631 12-08-2019 03:10:00 13.3 C 10.86 g/m*3 13.3 C 0 km/h
2632 12-08-2019 03:15:00 13.2 C 10.79 g/m*3 13.2 C 0 km/h
2633 12-08-2019 03:20:00 13.2 C 10.79 g/m*3 13.2 C 0 km/h
2634 12-08-2019 03:25:00 13.1 C 10.73 g/m*3 13.1 C 0 km/h
2635 12-08-2019 03:30:00 13.1 C 10.73 g/m*3 13.1 C 0 km/h
2636 12-08-2019 03:35:00 13.1 C 10.73 g/m*3 13.1 C 0 km/h
2637 12-08-2019 03:40:00 13 C 10.66 g/m*3 13 C 0 km/h
2638 12-08-2019 03:45:00 13 C 10.66 g/m*3 13 C 0 km/h
2639 12-08-2019 03:50:00 13 C 10.66 g/m*3 13 C 0 km/h
2640 12-08-2019 03:55:00 12.9 C 10.59 g/m*3 12.9 C 0 km/h
2641 12-08-2019 04:00:00 12.9 C 10.71 g/m*3 12.9 C 0 km/h
2642 12-08-2019 04:05:00 12.9 C 10.71 g/m*3 12.9 C 0 km/h
2643 12-08-2019 04:10:00 12.9 C 10.71 g/m*3 12.9 C 0 km/h
2644 12-08-2019 04:15:00 12.9 C 10.71 g/m*3 12.9 C 0 km/h
2645 12-08-2019 04:20:00 13 C 10.77 g/m*3 13 C 0 km/h
2646 12-08-2019 04:25:00 13 C 10.77 g/m*3 13 C 0 km/h
2647 12-08-2019 04:30:00 12.9 C 10.71 g/m*3 12.9 C 0 km/h
2648 12-08-2019 04:35:00 12.9 C 10.71 g/m*3 12.9 C 0 km/h
2649 12-08-2019 04:40:00 12.9 C 10.71 g/m*3 12.9 C 0 km/h
2650 12-08-2019 04:45:00 12.8 C 10.64 g/m*3 12.8 C 0 km/h
Sensor: Nr:Datum:Temp:Abs-Feuchte:Windchill:Wind:
Aussen-T/F 2651 12-08-2019 04:50:00 12.8 C 10.64 g/m*3 12.8 C 0 km/h
2652 12-08-2019 04:55:00 12.8 C 10.64 g/m*3 12.8 C 0 km/h
2653 12-08-2019 05:00:00 12.8 C 10.64 g/m*3 12.8 C 0 km/h
2654 12-08-2019 05:05:00 12.8 C 10.64 g/m*3 12.8 C 0 km/h
2655 12-08-2019 05:10:00 12.8 C 10.64 g/m*3 12.8 C 0 km/h
2656 12-08-2019 05:15:00 12.8 C 10.64 g/m*3 12.8 C 0 km/h
2657 12-08-2019 05:20:00 12.8 C 10.64 g/m*3 12.8 C 0 km/h
2658 12-08-2019 05:25:00 12.7 C 10.58 g/m*3 12.7 C 0 km/h
2659 12-08-2019 05:30:00 12.6 C 10.51 g/m*3 12.6 C 0 km/h
2660 12-08-2019 05:35:00 12.6 C 10.51 g/m*3 12.6 C 0 km/h
2661 12-08-2019 05:40:00 12.6 C 10.51 g/m*3 12.6 C 0 km/h
2662 12-08-2019 05:45:00 12.6 C 10.51 g/m*3 12.6 C 0 km/h
2663 12-08-2019 05:50:00 12.5 C 10.44 g/m*3 12.5 C 0 km/h
2664 12-08-2019 05:55:00 12.5 C 10.44 g/m*3 12.5 C 0 km/h
2665 12-08-2019 06:00:00 12.5 C 10.44 g/m*3 12.5 C 0 km/h
2666 12-08-2019 06:05:00 12.5 C 10.44 g/m*3 12.5 C 0 km/h
2667 12-08-2019 06:10:00 12.5 C 10.44 g/m*3 12.5 C 0 km/h
2668 12-08-2019 06:15:00 12.5 C 10.44 g/m*3 12.5 C 0 km/h
2669 12-08-2019 06:20:00 12.6 C 10.51 g/m*3 12.6 C 0 km/h
2670 12-08-2019 06:25:00 12.6 C 10.62 g/m*3 12.6 C 0 km/h
2671 12-08-2019 06:30:00 12.7 C 10.69 g/m*3 12.7 C 0 km/h
2672 12-08-2019 06:35:00 12.8 C 10.75 g/m*3 12.8 C 0 km/h
2673 12-08-2019 06:40:00 12.8 C 10.75 g/m*3 12.8 C 0 km/h
2674 12-08-2019 06:45:00 12.9 C 10.82 g/m*3 12.9 C 0 km/h
2675 12-08-2019 06:50:00 12.9 C 10.82 g/m*3 12.9 C 0 km/h
Sensor: Nr:Datum:Temp:Abs-Feuchte:Windchill:Wind:
Aussen-T/F 2676 12-08-2019 06:55:00 13 C 10.89 g/m*3 13 C 0 km/h
2677 12-08-2019 07:00:00 13 C 10.89 g/m*3 13 C 0 km/h
2678 12-08-2019 07:05:00 13.1 C 10.95 g/m*3 13.1 C 0 km/h
2679 12-08-2019 07:10:00 13.1 C 10.95 g/m*3 13.1 C 0 km/h
2680 12-08-2019 07:15:00 13.1 C 10.95 g/m*3 13.1 C 0 km/h
2681 12-08-2019 07:20:00 13.1 C 10.95 g/m*3 13.1 C 0 km/h
2682 12-08-2019 07:25:00 13.1 C 10.95 g/m*3 13.1 C 0 km/h
2683 12-08-2019 07:30:00 13 C 10.89 g/m*3 13 C 0 km/h
2684 12-08-2019 07:35:00 13 C 10.89 g/m*3 13 C 0 km/h
2685 12-08-2019 07:40:00 13 C 10.89 g/m*3 13 C 0 km/h
2686 12-08-2019 07:45:00 13 C 10.89 g/m*3 13 C 0 km/h
2687 12-08-2019 07:50:00 13.1 C 10.95 g/m*3 13.1 C 0 km/h
2688 12-08-2019 07:55:00 13.1 C 10.95 g/m*3 13.1 C 0 km/h
2689 12-08-2019 08:00:00 13.2 C 11.02 g/m*3 13.2 C 0 km/h
2690 12-08-2019 08:05:00 13.2 C 11.02 g/m*3 13.2 C 0 km/h
2691 12-08-2019 08:10:00 13.2 C 11.02 g/m*3 13.2 C 0 km/h
2692 12-08-2019 08:15:00 13.3 C 11.09 g/m*3 13.3 C 0 km/h
2693 12-08-2019 08:20:00 13.3 C 11.09 g/m*3 13.3 C 0 km/h
2694 12-08-2019 08:25:00 13.4 C 11.16 g/m*3 13.4 C 0 km/h
2695 12-08-2019 08:30:00 13.5 C 11.23 g/m*3 13.5 C 0 km/h
2696 12-08-2019 08:35:00 13.6 C 11.3 g/m*3 13.6 C 0 km/h
2697 12-08-2019 08:40:00 13.7 C 11.37 g/m*3 13.7 C 0 km/h
2698 12-08-2019 08:45:00 13.7 C 11.37 g/m*3 13.7 C 0 km/h
2699 12-08-2019 08:50:00 13.9 C 11.51 g/m*3 13.9 C 0 km/h
2700 12-08-2019 08:55:00 14 C 11.58 g/m*3 14 C 0 km/h
Sensor: Nr:Datum:Temp:Abs-Feuchte:Windchill:Wind:
Aussen-T/F 2701 12-08-2019 09:00:00 14.2 C 11.72 g/m*3 14.2 C 0 km/h
2702 12-08-2019 09:05:00 14.3 C 11.79 g/m*3 14.3 C 0 km/h
2703 12-08-2019 09:10:00 14.4 C 11.74 g/m*3 14.4 C 8.1 km/h
2704 12-08-2019 09:15:00 14.7 C 11.83 g/m*3 14.7 C 4.8 km/h
2705 12-08-2019 09:20:00 14.8 C 11.91 g/m*3 14.8 C 3.2 km/h
2706 12-08-2019 09:25:00 15 C 11.93 g/m*3 15 C 0 km/h
2707 12-08-2019 09:30:00 15.1 C 12 g/m*3 15.1 C 0 km/h
2708 12-08-2019 09:35:00 15.2 C 11.94 g/m*3 15.2 C 0 km/h
2709 12-08-2019 09:40:00 15.3 C 11.88 g/m*3 15.3 C 6.4 km/h
2710 12-08-2019 09:45:00 15.6 C 11.97 g/m*3 15.6 C 3.2 km/h
2711 12-08-2019 09:50:00 15.9 C 12.05 g/m*3 15.9 C 4.8 km/h
2712 12-08-2019 09:55:00 16.1 C 12.06 g/m*3 16.1 C 6.4 km/h
2713 12-08-2019 10:00:00 16.3 C 12.07 g/m*3 16.3 C 4.8 km/h
2714 12-08-2019 10:05:00 16.6 C 12.29 g/m*3 16.6 C 1.6 km/h
2715 12-08-2019 10:10:00 16.8 C 12.15 g/m*3 16.8 C 6.4 km/h
2716 12-08-2019 10:15:00 17.1 C 12.52 g/m*3 17.1 C 1.6 km/h
2717 12-08-2019 10:20:00 17.3 C 12.37 g/m*3 17.3 C 9.7 km/h
2718 12-08-2019 10:25:00 17.6 C 12.45 g/m*3 17.6 C 9.7 km/h
2719 12-08-2019 10:30:00 17.8 C 12.45 g/m*3 17.8 C 8.1 km/h
2720 12-08-2019 10:35:00 18.1 C 12.36 g/m*3 18.1 C 11.3 km/h
2721 12-08-2019 10:40:00 18.3 C 12.66 g/m*3 18.3 C 6.4 km/h
2722 12-08-2019 10:45:00 18.5 C 12.34 g/m*3 18.5 C 8.1 km/h
2723 12-08-2019 10:50:00 18.7 C 12.65 g/m*3 18.7 C 8.1 km/h
2724 12-08-2019 10:55:00 18.7 C 12.49 g/m*3 18.7 C 3.2 km/h
2725 12-08-2019 11:00:00 18.8 C 12.72 g/m*3 18.8 C 4.8 km/h
Sensor: Nr:Datum:Temp:Abs-Feuchte:Windchill:Wind:
Aussen-T/F 2726 12-08-2019 11:05:00 19.1 C 12.79 g/m*3 19.1 C 8.1 km/h
2727 12-08-2019 11:10:00 19.3 C 12.61 g/m*3 19.3 C 8.1 km/h
2728 12-08-2019 11:15:00 19.6 C 12.66 g/m*3 19.6 C 6.4 km/h
2729 12-08-2019 11:20:00 19.8 C 12.81 g/m*3 19.8 C 4.8 km/h
2730 12-08-2019 11:25:00 20.1 C 12.52 g/m*3 20.1 C 6.4 km/h
2731 12-08-2019 11:30:00 20.3 C 12.66 g/m*3 20.3 C 8.1 km/h
2732 12-08-2019 11:35:00 20.4 C 12.21 g/m*3 20.4 C 8.1 km/h
2733 12-08-2019 11:40:00 20.7 C 12.42 g/m*3 20.7 C 8.1 km/h
2734 12-08-2019 11:45:00 20.8 C 12.67 g/m*3 20.8 C 8.1 km/h
2735 12-08-2019 11:50:00 21 C 12.46 g/m*3 21 C 12.9 km/h
2736 12-08-2019 11:55:00 21.1 C 12.53 g/m*3 21.1 C 6.4 km/h
2737 12-08-2019 12:00:00 21.1 C 12.71 g/m*3 21.1 C 8.1 km/h
2738 12-08-2019 12:05:00 21.1 C 12.34 g/m*3 21.1 C 6.4 km/h
2739 12-08-2019 12:10:00 21.2 C 12.97 g/m*3 21.2 C 3.2 km/h
2740 12-08-2019 12:15:00 21.3 C 12.49 g/m*3 21.3 C 8.1 km/h
2741 12-08-2019 12:20:00 21.2 C 12.42 g/m*3 21.2 C 6.4 km/h
2742 12-08-2019 12:25:00 21.1 C 12.16 g/m*3 21.1 C 11.3 km/h
2743 12-08-2019 12:30:00 21.1 C 12.53 g/m*3 21.1 C 8.1 km/h
2744 12-08-2019 12:35:00 21.2 C 12.23 g/m*3 21.2 C 9.7 km/h
2745 12-08-2019 12:40:00 21.3 C 11.74 g/m*3 21.3 C 8.1 km/h
2746 12-08-2019 12:45:00 21.4 C 12.19 g/m*3 21.4 C 9.7 km/h
2747 12-08-2019 12:50:00 21.6 C 11.57 g/m*3 21.6 C 12.9 km/h
2748 12-08-2019 12:55:00 21.7 C 11.25 g/m*3 21.7 C 11.3 km/h
2749 12-08-2019 13:00:00 21.7 C 11.06 g/m*3 21.7 C 19.3 km/h
2750 12-08-2019 13:05:00 21.8 C 11.32 g/m*3 21.8 C 6.4 km/h
Sensor: Nr:Datum:Temp:Abs-Feuchte:Windchill:Wind:
Aussen-T/F 2751 12-08-2019 13:10:00 21.8 C 11.32 g/m*3 21.8 C 11.3 km/h
2752 12-08-2019 13:15:00 21.8 C 11.51 g/m*3 21.8 C 9.7 km/h
2753 12-08-2019 13:20:00 21.8 C 11.7 g/m*3 21.8 C 12.9 km/h
2754 12-08-2019 13:25:00 21.9 C 11.77 g/m*3 21.9 C 9.7 km/h
2755 12-08-2019 13:30:00 21.9 C 11.39 g/m*3 21.9 C 11.3 km/h
2756 12-08-2019 13:35:00 21.9 C 11.96 g/m*3 21.9 C 11.3 km/h
2757 12-08-2019 13:40:00 21.8 C 11.7 g/m*3 21.8 C 11.3 km/h
2758 12-08-2019 13:45:00 21.6 C 12.14 g/m*3 21.6 C 9.7 km/h
2759 12-08-2019 13:50:00 21.6 C 11.95 g/m*3 21.6 C 8.1 km/h
2760 12-08-2019 13:55:00 21.7 C 11.83 g/m*3 21.7 C 9.7 km/h
2761 12-08-2019 14:00:00 21.8 C 11.9 g/m*3 21.8 C 8.1 km/h
2762 12-08-2019 14:05:00 21.9 C 11.96 g/m*3 21.9 C 8.1 km/h
2763 12-08-2019 14:10:00 22.1 C 12.3 g/m*3 22.1 C 14.5 km/h
2764 12-08-2019 14:15:00 22.3 C 12.05 g/m*3 22.3 C 14.5 km/h
2765 12-08-2019 14:20:00 22.4 C 12.11 g/m*3 22.4 C 11.3 km/h
2766 12-08-2019 14:25:00 22.5 C 11.98 g/m*3 22.5 C 8.1 km/h
2767 12-08-2019 14:30:00 22.6 C 11.65 g/m*3 22.6 C 11.3 km/h
2768 12-08-2019 14:35:00 22.7 C 12.32 g/m*3 22.7 C 16.1 km/h
2769 12-08-2019 14:40:00 22.9 C 12.06 g/m*3 22.9 C 11.3 km/h
2770 12-08-2019 14:45:00 22.9 C 12.47 g/m*3 22.9 C 11.3 km/h
2771 12-08-2019 14:50:00 23.2 C 12.06 g/m*3 23.2 C 8.1 km/h
2772 12-08-2019 14:55:00 23.3 C 11.92 g/m*3 23.3 C 12.9 km/h
2773 12-08-2019 15:00:00 23.6 C 12.55 g/m*3 23.6 C 16.1 km/h
2774 12-08-2019 15:05:00 23.6 C 11.91 g/m*3 23.6 C 11.3 km/h
2775 12-08-2019 15:10:00 23.7 C 11.98 g/m*3 23.7 C 16.1 km/h
Sensor: Nr:Datum:Temp:Abs-Feuchte:Windchill:Wind:
Aussen-T/F 2776 12-08-2019 15:15:00 23.7 C 11.55 g/m*3 23.7 C 9.7 km/h
2777 12-08-2019 15:20:00 23.5 C 11.42 g/m*3 23.5 C 9.7 km/h
2778 12-08-2019 15:25:00 23.3 C 11.71 g/m*3 23.3 C 12.9 km/h
2779 12-08-2019 15:30:00 23.2 C 11.64 g/m*3 23.2 C 6.4 km/h
2780 12-08-2019 15:35:00 23.4 C 11.99 g/m*3 23.4 C 11.3 km/h
2781 12-08-2019 15:40:00 23.2 C 11.43 g/m*3 23.2 C 16.1 km/h
2782 12-08-2019 15:45:00 23 C 11.51 g/m*3 23 C 14.5 km/h
2783 12-08-2019 15:50:00 23.5 C 11.63 g/m*3 23.5 C 12.9 km/h
2784 12-08-2019 15:55:00 24 C 11.53 g/m*3 24 C 14.5 km/h
2785 12-08-2019 16:00:00 23.7 C 11.34 g/m*3 23.7 C 14.5 km/h
2786 12-08-2019 16:05:00 23.6 C 11.48 g/m*3 23.6 C 11.3 km/h
2787 12-08-2019 16:10:00 23.4 C 11.57 g/m*3 23.4 C 11.3 km/h
2788 12-08-2019 16:15:00 23.3 C 11.71 g/m*3 23.3 C 8.1 km/h
2789 12-08-2019 16:20:00 23.1 C 11.78 g/m*3 23.1 C 12.9 km/h
2790 12-08-2019 16:25:00 22.9 C 11.65 g/m*3 22.9 C 8.1 km/h
2791 12-08-2019 16:30:00 23 C 11.92 g/m*3 23 C 9.7 km/h
2792 12-08-2019 16:35:00 22.9 C 12.06 g/m*3 22.9 C 14.5 km/h
2793 12-08-2019 16:40:00 22.6 C 11.45 g/m*3 22.6 C 24.1 km/h
2794 12-08-2019 16:45:00 21.5 C 11.88 g/m*3 21.5 C 20.9 km/h
2795 12-08-2019 16:50:00 20.5 C 11.74 g/m*3 20.5 C 19.3 km/h
2796 12-08-2019 16:55:00 20 C 11.58 g/m*3 20 C 19.3 km/h
2797 12-08-2019 17:00:00 19.7 C 11.55 g/m*3 19.7 C 6.4 km/h
2798 12-08-2019 17:05:00 19.6 C 11.65 g/m*3 19.6 C 6.4 km/h
2799 12-08-2019 17:10:00 19.4 C 11.18 g/m*3 19.4 C 9.7 km/h
2800 12-08-2019 17:15:00 19.1 C 11.47 g/m*3 19.1 C 14.5 km/h
Sensor: Nr:Datum:Temp:Abs-Feuchte:Windchill:Wind:
Aussen-T/F 2801 12-08-2019 17:20:00 18.7 C 11.69 g/m*3 18.7 C 8.1 km/h
2802 12-08-2019 17:25:00 18 C 11.83 g/m*3 18 C 6.4 km/h
2803 12-08-2019 17:30:00 17.5 C 11.93 g/m*3 17.5 C 1.6 km/h
2804 12-08-2019 17:35:00 17.1 C 12.08 g/m*3 17.1 C 3.2 km/h
2805 12-08-2019 17:40:00 16.8 C 12.01 g/m*3 16.8 C 1.6 km/h
2806 12-08-2019 17:45:00 16.5 C 11.94 g/m*3 16.5 C 4.8 km/h
2807 12-08-2019 17:50:00 16.2 C 11.72 g/m*3 16.2 C 6.4 km/h
2808 12-08-2019 17:55:00 16.1 C 11.79 g/m*3 16.1 C 1.6 km/h
2809 12-08-2019 18:00:00 16.1 C 12.06 g/m*3 16.1 C 0 km/h
2810 12-08-2019 18:05:00 16 C 11.99 g/m*3 16 C 3.2 km/h
2811 12-08-2019 18:10:00 16.1 C 12.2 g/m*3 16.1 C 0 km/h
2812 12-08-2019 18:15:00 16.1 C 12.34 g/m*3 16.1 C 0 km/h
2813 12-08-2019 18:20:00 16.1 C 12.34 g/m*3 16.1 C 0 km/h
2814 12-08-2019 18:25:00 15.9 C 12.19 g/m*3 15.9 C 1.6 km/h
2815 12-08-2019 18:30:00 15.8 C 12.11 g/m*3 15.8 C 0 km/h
2816 12-08-2019 18:35:00 15.8 C 12.11 g/m*3 15.8 C 0 km/h
2817 12-08-2019 18:40:00 15.8 C 12.25 g/m*3 15.8 C 0 km/h
2818 12-08-2019 18:45:00 15.8 C 12.25 g/m*3 15.8 C 0 km/h
2819 12-08-2019 18:50:00 15.8 C 12.25 g/m*3 15.8 C 0 km/h
2820 12-08-2019 18:55:00 15.8 C 12.38 g/m*3 15.8 C 0 km/h
2821 12-08-2019 19:00:00 15.8 C 12.38 g/m*3 15.8 C 0 km/h
2822 12-08-2019 19:05:00 15.9 C 12.46 g/m*3 15.9 C 4.8 km/h
2823 12-08-2019 19:10:00 15.9 C 12.46 g/m*3 15.9 C 0 km/h
2824 12-08-2019 19:15:00 16 C 12.53 g/m*3 16 C 1.6 km/h
2825 12-08-2019 19:20:00 16 C 12.53 g/m*3 16 C 0 km/h
Sensor: Nr:Datum:Temp:Abs-Feuchte:Windchill:Wind:
Aussen-T/F 2826 12-08-2019 19:25:00 16 C 12.53 g/m*3 16 C 0 km/h
2827 12-08-2019 19:30:00 16 C 12.53 g/m*3 16 C 0 km/h
2828 12-08-2019 19:35:00 16 C 12.53 g/m*3 16 C 0 km/h
2829 12-08-2019 19:40:00 15.9 C 12.46 g/m*3 15.9 C 0 km/h
2830 12-08-2019 19:45:00 15.9 C 12.46 g/m*3 15.9 C 0 km/h
2831 12-08-2019 19:50:00 15.9 C 12.46 g/m*3 15.9 C 0 km/h
2832 12-08-2019 19:55:00 15.8 C 12.38 g/m*3 15.8 C 0 km/h
2833 12-08-2019 20:00:00 15.9 C 12.46 g/m*3 15.9 C 0 km/h
2834 12-08-2019 20:05:00 15.9 C 12.46 g/m*3 15.9 C 0 km/h
2835 12-08-2019 20:10:00 15.9 C 12.59 g/m*3 15.9 C 0 km/h
2836 12-08-2019 20:15:00 15.9 C 12.46 g/m*3 15.9 C 0 km/h
2837 12-08-2019 20:20:00 15.7 C 12.31 g/m*3 15.7 C 3.2 km/h
2838 12-08-2019 20:25:00 15.6 C 12.1 g/m*3 15.6 C 0 km/h
2839 12-08-2019 20:30:00 15.4 C 12.09 g/m*3 15.4 C 0 km/h
2840 12-08-2019 20:35:00 15.3 C 12.01 g/m*3 15.3 C 0 km/h
2841 12-08-2019 20:40:00 15.3 C 12.01 g/m*3 15.3 C 0 km/h
2842 12-08-2019 20:45:00 15.2 C 11.94 g/m*3 15.2 C 0 km/h
2843 12-08-2019 20:50:00 15.2 C 12.07 g/m*3 15.2 C 0 km/h
2844 12-08-2019 20:55:00 15.2 C 12.07 g/m*3 15.2 C 0 km/h
2845 12-08-2019 21:00:00 15.2 C 12.07 g/m*3 15.2 C 0 km/h
2846 12-08-2019 21:05:00 15.1 C 12 g/m*3 15.1 C 0 km/h
2847 12-08-2019 21:10:00 15.2 C 12.07 g/m*3 15.2 C 0 km/h
2848 12-08-2019 21:15:00 15.2 C 12.07 g/m*3 15.2 C 0 km/h
2849 12-08-2019 21:20:00 15.2 C 12.2 g/m*3 15.2 C 0 km/h
2850 12-08-2019 21:25:00 15.2 C 12.07 g/m*3 15.2 C 0 km/h
Sensor: Nr:Datum:Temp:Abs-Feuchte:Windchill:Wind:
Aussen-T/F 2851 12-08-2019 21:30:00 15.2 C 12.2 g/m*3 15.2 C 1.6 km/h
2852 12-08-2019 21:35:00 15.2 C 12.2 g/m*3 15.2 C 0 km/h
2853 12-08-2019 21:40:00 15.2 C 12.2 g/m*3 15.2 C 1.6 km/h
2854 12-08-2019 21:45:00 15.2 C 12.2 g/m*3 15.2 C 0 km/h
2855 12-08-2019 21:50:00 15.2 C 12.2 g/m*3 15.2 C 0 km/h
2856 12-08-2019 21:55:00 15.2 C 12.2 g/m*3 15.2 C 0 km/h
2857 12-08-2019 22:00:00 15.2 C 12.2 g/m*3 15.2 C 0 km/h
2858 12-08-2019 22:05:00 15.1 C 12.13 g/m*3 15.1 C 0 km/h
2859 12-08-2019 22:10:00 15.1 C 12.13 g/m*3 15.1 C 1.6 km/h
2860 12-08-2019 22:15:00 15.1 C 12.13 g/m*3 15.1 C 0 km/h
2861 12-08-2019 22:20:00 15 C 12.05 g/m*3 15 C 0 km/h
2862 12-08-2019 22:25:00 14.9 C 11.98 g/m*3 14.9 C 0 km/h
2863 12-08-2019 22:30:00 14.9 C 11.98 g/m*3 14.9 C 3.2 km/h
2864 12-08-2019 22:35:00 14.9 C 11.98 g/m*3 14.9 C 1.6 km/h
2865 12-08-2019 22:40:00 14.9 C 11.98 g/m*3 14.9 C 0 km/h
2866 12-08-2019 22:45:00 14.9 C 11.98 g/m*3 14.9 C 0 km/h
2867 12-08-2019 22:50:00 14.9 C 11.98 g/m*3 14.9 C 0 km/h
2868 12-08-2019 22:55:00 14.8 C 11.91 g/m*3 14.8 C 1.6 km/h
2869 12-08-2019 23:00:00 14.7 C 11.83 g/m*3 14.7 C 1.6 km/h
2870 12-08-2019 23:05:00 14.7 C 11.71 g/m*3 14.7 C 1.6 km/h
2871 12-08-2019 23:10:00 14.5 C 11.57 g/m*3 14.5 C 0 km/h
2872 12-08-2019 23:15:00 14.4 C 11.5 g/m*3 14.4 C 0 km/h
2873 12-08-2019 23:20:00 14.2 C 11.36 g/m*3 14.2 C 1.6 km/h
2874 12-08-2019 23:25:00 14.1 C 11.17 g/m*3 14.1 C 0 km/h
2875 12-08-2019 23:30:00 13.9 C 11.03 g/m*3 13.9 C 0 km/h
Sensor: Nr:Datum:Temp:Abs-Feuchte:Windchill:Wind:
Aussen-T/F 2876 12-08-2019 23:35:00 13.8 C 10.96 g/m*3 13.8 C 0 km/h
2877 12-08-2019 23:40:00 13.7 C 10.89 g/m*3 13.7 C 0 km/h
2878 12-08-2019 23:45:00 13.5 C 10.76 g/m*3 13.5 C 0 km/h
2879 12-08-2019 23:50:00 13.4 C 10.81 g/m*3 13.4 C 1.6 km/h
2880 12-08-2019 23:55:00 13.3 C 10.74 g/m*3 13.3 C 0 km/h
2881 13-08-2019 00:00:00 13.4 C 10.93 g/m*3 13.4 C 0 km/h
2882 13-08-2019 00:05:00 13.4 C 10.93 g/m*3 13.4 C 0 km/h
2883 13-08-2019 00:10:00 13.4 C 10.93 g/m*3 13.4 C 0 km/h
2884 13-08-2019 00:15:00 13.5 C 10.99 g/m*3 13.5 C 0 km/h
2885 13-08-2019 00:20:00 13.6 C 11.18 g/m*3 13.6 C 0 km/h
2886 13-08-2019 00:25:00 13.6 C 11.18 g/m*3 13.6 C 1.6 km/h
2887 13-08-2019 00:30:00 13.7 C 11.25 g/m*3 13.7 C 0 km/h
2888 13-08-2019 00:35:00 13.7 C 11.13 g/m*3 13.7 C 0 km/h
2889 13-08-2019 00:40:00 13.7 C 11.13 g/m*3 13.7 C 0 km/h
2890 13-08-2019 00:45:00 13.6 C 11.06 g/m*3 13.6 C 1.6 km/h
2891 13-08-2019 00:50:00 13.6 C 11.06 g/m*3 13.6 C 0 km/h
2892 13-08-2019 00:55:00 13.5 C 10.99 g/m*3 13.5 C 0 km/h
2893 13-08-2019 01:00:00 13.4 C 10.93 g/m*3 13.4 C 0 km/h
2894 13-08-2019 01:05:00 13.3 C 10.86 g/m*3 13.3 C 0 km/h
2895 13-08-2019 01:10:00 13.2 C 10.79 g/m*3 13.2 C 0 km/h
2896 13-08-2019 01:15:00 13.2 C 10.79 g/m*3 13.2 C 0 km/h
2897 13-08-2019 01:20:00 13.1 C 10.73 g/m*3 13.1 C 0 km/h
2898 13-08-2019 01:25:00 13 C 10.66 g/m*3 13 C 1.6 km/h
2899 13-08-2019 01:30:00 13 C 10.66 g/m*3 13 C 0 km/h
2900 13-08-2019 01:35:00 12.9 C 10.59 g/m*3 12.9 C 0 km/h
Sensor: Nr:Datum:Temp:Abs-Feuchte:Windchill:Wind:
Aussen-T/F 2901 13-08-2019 01:40:00 12.9 C 10.59 g/m*3 12.9 C 0 km/h
2902 13-08-2019 01:45:00 12.8 C 10.64 g/m*3 12.8 C 0 km/h
2903 13-08-2019 01:50:00 12.8 C 10.64 g/m*3 12.8 C 0 km/h
2904 13-08-2019 01:55:00 12.7 C 10.58 g/m*3 12.7 C 1.6 km/h
2905 13-08-2019 02:00:00 12.7 C 10.58 g/m*3 12.7 C 0 km/h
2906 13-08-2019 02:05:00 12.7 C 10.58 g/m*3 12.7 C 0 km/h
2907 13-08-2019 02:10:00 12.8 C 10.64 g/m*3 12.8 C 0 km/h
2908 13-08-2019 02:15:00 12.8 C 10.64 g/m*3 12.8 C 0 km/h
2909 13-08-2019 02:20:00 12.8 C 10.64 g/m*3 12.8 C 0 km/h
2910 13-08-2019 02:25:00 12.8 C 10.64 g/m*3 12.8 C 1.6 km/h
2911 13-08-2019 02:30:00 12.8 C 10.64 g/m*3 12.8 C 1.6 km/h
2912 13-08-2019 02:35:00 12.8 C 10.64 g/m*3 12.8 C 0 km/h
2913 13-08-2019 02:40:00 12.8 C 10.64 g/m*3 12.8 C 0 km/h
2914 13-08-2019 02:45:00 12.9 C 10.82 g/m*3 12.9 C 1.6 km/h
2915 13-08-2019 02:50:00 13 C 10.89 g/m*3 13 C 1.6 km/h
2916 13-08-2019 02:55:00 13.1 C 10.95 g/m*3 13.1 C 0 km/h
2917 13-08-2019 03:00:00 13.1 C 10.95 g/m*3 13.1 C 0 km/h
2918 13-08-2019 03:05:00 13.1 C 10.95 g/m*3 13.1 C 0 km/h
2919 13-08-2019 03:10:00 13.1 C 10.95 g/m*3 13.1 C 0 km/h
2920 13-08-2019 03:15:00 13 C 10.89 g/m*3 13 C 0 km/h
2921 13-08-2019 03:20:00 12.9 C 10.71 g/m*3 12.9 C 0 km/h
2922 13-08-2019 03:25:00 12.8 C 10.64 g/m*3 12.8 C 0 km/h
2923 13-08-2019 03:30:00 12.8 C 10.64 g/m*3 12.8 C 0 km/h
2924 13-08-2019 03:35:00 12.8 C 10.64 g/m*3 12.8 C 0 km/h
2925 13-08-2019 03:40:00 12.8 C 10.64 g/m*3 12.8 C 0 km/h
Sensor: Nr:Datum:Temp:Abs-Feuchte:Windchill:Wind:
Aussen-T/F 2926 13-08-2019 03:45:00 12.8 C 10.75 g/m*3 12.8 C 0 km/h
2927 13-08-2019 03:50:00 12.8 C 10.75 g/m*3 12.8 C 0 km/h
2928 13-08-2019 03:55:00 12.8 C 10.75 g/m*3 12.8 C 0 km/h
2929 13-08-2019 04:00:00 12.8 C 10.75 g/m*3 12.8 C 0 km/h
2930 13-08-2019 04:05:00 12.9 C 10.82 g/m*3 12.9 C 0 km/h
2931 13-08-2019 04:10:00 13 C 10.89 g/m*3 13 C 0 km/h
2932 13-08-2019 04:15:00 13.1 C 10.95 g/m*3 13.1 C 4.8 km/h
2933 13-08-2019 04:20:00 13.2 C 11.02 g/m*3 13.2 C 1.6 km/h
2934 13-08-2019 04:25:00 13.3 C 11.09 g/m*3 13.3 C 8.1 km/h
2935 13-08-2019 04:30:00 13.4 C 11.16 g/m*3 13.4 C 4.8 km/h
2936 13-08-2019 04:35:00 13.5 C 11.23 g/m*3 13.5 C 1.6 km/h
2937 13-08-2019 04:40:00 13.6 C 11.3 g/m*3 13.6 C 0 km/h
2938 13-08-2019 04:45:00 13.5 C 11.23 g/m*3 13.5 C 1.6 km/h
2939 13-08-2019 04:50:00 13.5 C 11.11 g/m*3 13.5 C 1.6 km/h
2940 13-08-2019 04:55:00 13.5 C 11.11 g/m*3 13.5 C 1.6 km/h
2941 13-08-2019 05:00:00 13.5 C 11.11 g/m*3 13.5 C 8.1 km/h
2942 13-08-2019 05:05:00 13.4 C 11.04 g/m*3 13.4 C 1.6 km/h
2943 13-08-2019 05:10:00 13.4 C 11.04 g/m*3 13.4 C 1.6 km/h
2944 13-08-2019 05:15:00 13.3 C 10.98 g/m*3 13.3 C 1.6 km/h
2945 13-08-2019 05:20:00 13.2 C 10.91 g/m*3 13.2 C 0 km/h
2946 13-08-2019 05:25:00 13.2 C 10.91 g/m*3 13.2 C 1.6 km/h
2947 13-08-2019 05:30:00 13.2 C 10.91 g/m*3 13.2 C 0 km/h
2948 13-08-2019 05:35:00 13.1 C 10.84 g/m*3 13.1 C 1.6 km/h
2949 13-08-2019 05:40:00 13.1 C 10.84 g/m*3 13.1 C 1.6 km/h
2950 13-08-2019 05:45:00 13 C 10.77 g/m*3 13 C 0 km/h
Sensor: Nr:Datum:Temp:Abs-Feuchte:Windchill:Wind:
Aussen-T/F 2951 13-08-2019 05:50:00 12.9 C 10.71 g/m*3 12.9 C 0 km/h
2952 13-08-2019 05:55:00 12.9 C 10.71 g/m*3 12.9 C 0 km/h
2953 13-08-2019 06:00:00 12.9 C 10.71 g/m*3 12.9 C 1.6 km/h
2954 13-08-2019 06:05:00 12.9 C 10.71 g/m*3 12.9 C 0 km/h
2955 13-08-2019 06:10:00 12.8 C 10.64 g/m*3 12.8 C 0 km/h
2956 13-08-2019 06:15:00 12.8 C 10.64 g/m*3 12.8 C 0 km/h
2957 13-08-2019 06:20:00 12.8 C 10.64 g/m*3 12.8 C 1.6 km/h
2958 13-08-2019 06:25:00 12.7 C 10.58 g/m*3 12.7 C 0 km/h
2959 13-08-2019 06:30:00 12.7 C 10.58 g/m*3 12.7 C 0 km/h
2960 13-08-2019 06:35:00 12.6 C 10.51 g/m*3 12.6 C 0 km/h
2961 13-08-2019 06:40:00 12.6 C 10.51 g/m*3 12.6 C 0 km/h
2962 13-08-2019 06:45:00 12.7 C 10.58 g/m*3 12.7 C 0 km/h
2963 13-08-2019 06:50:00 12.7 C 10.69 g/m*3 12.7 C 3.2 km/h
2964 13-08-2019 06:55:00 12.8 C 10.75 g/m*3 12.8 C 0 km/h
2965 13-08-2019 07:00:00 12.8 C 10.75 g/m*3 12.8 C 1.6 km/h
2966 13-08-2019 07:05:00 12.9 C 10.82 g/m*3 12.9 C 0 km/h
2967 13-08-2019 07:10:00 12.9 C 10.82 g/m*3 12.9 C 0 km/h
2968 13-08-2019 07:15:00 12.9 C 10.82 g/m*3 12.9 C 0 km/h
2969 13-08-2019 07:20:00 12.9 C 10.82 g/m*3 12.9 C 4.8 km/h
2970 13-08-2019 07:25:00 12.9 C 10.71 g/m*3 12.9 C 0 km/h
2971 13-08-2019 07:30:00 12.9 C 10.71 g/m*3 12.9 C 3.2 km/h
2972 13-08-2019 07:35:00 12.9 C 10.71 g/m*3 12.9 C 1.6 km/h
2973 13-08-2019 07:40:00 12.9 C 10.71 g/m*3 12.9 C 1.6 km/h
2974 13-08-2019 07:45:00 12.9 C 10.71 g/m*3 12.9 C 6.4 km/h
2975 13-08-2019 07:50:00 12.9 C 10.59 g/m*3 12.9 C 4.8 km/h
Sensor: Nr:Datum:Temp:Abs-Feuchte:Windchill:Wind:
Aussen-T/F 2976 13-08-2019 07:55:00 13 C 10.66 g/m*3 13 C 1.6 km/h
2977 13-08-2019 08:00:00 13 C 10.66 g/m*3 13 C 3.2 km/h
2978 13-08-2019 08:05:00 13.1 C 10.73 g/m*3 13.1 C 6.4 km/h
2979 13-08-2019 08:10:00 13.1 C 10.73 g/m*3 13.1 C 1.6 km/h
2980 13-08-2019 08:15:00 13.2 C 10.79 g/m*3 13.2 C 8.1 km/h
2981 13-08-2019 08:20:00 13.2 C 10.68 g/m*3 13.2 C 9.7 km/h
2982 13-08-2019 08:25:00 13.3 C 10.74 g/m*3 13.3 C 1.6 km/h
2983 13-08-2019 08:30:00 13.3 C 10.86 g/m*3 13.3 C 3.2 km/h
2984 13-08-2019 08:35:00 13.4 C 10.81 g/m*3 13.4 C 6.4 km/h
2985 13-08-2019 08:40:00 13.6 C 10.83 g/m*3 13.6 C 9.7 km/h
2986 13-08-2019 08:45:00 13.7 C 10.89 g/m*3 13.7 C 9.7 km/h
2987 13-08-2019 08:50:00 13.8 C 10.72 g/m*3 13.8 C 11.3 km/h
2988 13-08-2019 08:55:00 14 C 10.86 g/m*3 14 C 11.3 km/h
2989 13-08-2019 09:00:00 14.2 C 10.87 g/m*3 14.2 C 11.3 km/h
2990 13-08-2019 09:05:00 14.3 C 10.93 g/m*3 14.3 C 4.8 km/h
2991 13-08-2019 09:10:00 14.5 C 11.07 g/m*3 14.5 C 4.8 km/h
2992 13-08-2019 09:15:00 14.6 C 11.01 g/m*3 14.6 C 6.4 km/h
2993 13-08-2019 09:20:00 14.7 C 11.08 g/m*3 14.7 C 6.4 km/h
2994 13-08-2019 09:25:00 14.8 C 11.15 g/m*3 14.8 C 8.1 km/h
2995 13-08-2019 09:30:00 14.9 C 11.09 g/m*3 14.9 C 11.3 km/h
2996 13-08-2019 09:35:00 15.1 C 11.22 g/m*3 15.1 C 4.8 km/h
2997 13-08-2019 09:40:00 15.2 C 11.16 g/m*3 15.2 C 6.4 km/h
2998 13-08-2019 09:45:00 15.3 C 11.23 g/m*3 15.3 C 6.4 km/h
2999 13-08-2019 09:50:00 15.3 C 10.84 g/m*3 15.3 C 4.8 km/h
3000 13-08-2019 09:55:00 15.3 C 10.71 g/m*3 15.3 C 8.1 km/h
Sensor: Nr:Datum:Temp:Abs-Feuchte:Windchill:Wind:
Aussen-T/F 3001 13-08-2019 10:00:00 15.5 C 10.44 g/m*3 15.5 C 11.3 km/h
3002 13-08-2019 10:05:00 15.8 C 10.5 g/m*3 15.8 C 9.7 km/h
3003 13-08-2019 10:10:00 15.9 C 10.29 g/m*3 15.9 C 6.4 km/h
3004 13-08-2019 10:15:00 16.2 C 10.48 g/m*3 16.2 C 14.5 km/h
3005 13-08-2019 10:20:00 16.2 C 10.48 g/m*3 16.2 C 14.5 km/h
3006 13-08-2019 10:25:00 16.3 C 10.41 g/m*3 16.3 C 9.7 km/h
3007 13-08-2019 10:30:00 16.3 C 10.41 g/m*3 16.3 C 11.3 km/h
3008 13-08-2019 10:35:00 16.2 C 10.07 g/m*3 16.2 C 9.7 km/h
3009 13-08-2019 10:40:00 16.3 C 9.99 g/m*3 16.3 C 8.1 km/h
3010 13-08-2019 10:45:00 16.6 C 10.31 g/m*3 16.6 C 6.4 km/h
3011 13-08-2019 10:50:00 16.7 C 10.23 g/m*3 16.7 C 11.3 km/h
3012 13-08-2019 10:55:00 16.7 C 10.09 g/m*3 16.7 C 8.1 km/h
3013 13-08-2019 11:00:00 16.8 C 10.01 g/m*3 16.8 C 9.7 km/h
3014 13-08-2019 11:05:00 16.8 C 9.87 g/m*3 16.8 C 14.5 km/h
3015 13-08-2019 11:10:00 16.8 C 9.72 g/m*3 16.8 C 9.7 km/h
3016 13-08-2019 11:15:00 16.9 C 9.92 g/m*3 16.9 C 11.3 km/h
3017 13-08-2019 11:20:00 17.1 C 9.61 g/m*3 17.1 C 9.7 km/h
3018 13-08-2019 11:25:00 17.1 C 9.46 g/m*3 17.1 C 11.3 km/h
3019 13-08-2019 11:30:00 17.2 C 9.96 g/m*3 17.2 C 8.1 km/h
3020 13-08-2019 11:35:00 17.3 C 10.02 g/m*3 17.3 C 17.7 km/h
3021 13-08-2019 11:40:00 17.3 C 9.72 g/m*3 17.3 C 9.7 km/h
3022 13-08-2019 11:45:00 17.6 C 10.2 g/m*3 17.6 C 6.4 km/h
3023 13-08-2019 11:50:00 17.6 C 9.6 g/m*3 17.6 C 9.7 km/h
3024 13-08-2019 11:55:00 17.6 C 9.9 g/m*3 17.6 C 9.7 km/h
3025 13-08-2019 12:00:00 17.6 C 9.9 g/m*3 17.6 C 9.7 km/h
Sensor: Nr:Datum:Temp:Abs-Feuchte:Windchill:Wind:
Aussen-T/F 3026 13-08-2019 12:05:00 17.7 C 9.96 g/m*3 17.7 C 8.1 km/h
3027 13-08-2019 12:10:00 17.9 C 9.77 g/m*3 17.9 C 8.1 km/h
3028 13-08-2019 12:15:00 18.2 C 9.64 g/m*3 18.2 C 9.7 km/h
3029 13-08-2019 12:20:00 18.3 C 9.69 g/m*3 18.3 C 12.9 km/h
3030 13-08-2019 12:25:00 18.3 C 9.54 g/m*3 18.3 C 14.5 km/h
3031 13-08-2019 12:30:00 18.2 C 10.26 g/m*3 18.2 C 16.1 km/h
3032 13-08-2019 12:35:00 17.9 C 9.77 g/m*3 17.9 C 11.3 km/h
3033 13-08-2019 12:40:00 18.1 C 9.73 g/m*3 18.1 C 17.7 km/h
3034 13-08-2019 12:45:00 18.3 C 9.69 g/m*3 18.3 C 12.9 km/h
3035 13-08-2019 12:50:00 18.5 C 9.97 g/m*3 18.5 C 8.1 km/h
3036 13-08-2019 12:55:00 18.6 C 9.87 g/m*3 18.6 C 4.8 km/h
3037 13-08-2019 13:00:00 18.6 C 9.55 g/m*3 18.6 C 8.1 km/h
3038 13-08-2019 13:05:00 18.7 C 9.77 g/m*3 18.7 C 11.3 km/h
3039 13-08-2019 13:10:00 18.8 C 9.34 g/m*3 18.8 C 11.3 km/h
3040 13-08-2019 13:15:00 18.9 C 9.07 g/m*3 18.9 C 11.3 km/h
3041 13-08-2019 13:20:00 18.9 C 9.4 g/m*3 18.9 C 8.1 km/h
3042 13-08-2019 13:25:00 19 C 9.29 g/m*3 19 C 12.9 km/h
3043 13-08-2019 13:30:00 19 C 8.8 g/m*3 19 C 11.3 km/h
3044 13-08-2019 13:35:00 18.9 C 8.91 g/m*3 18.9 C 9.7 km/h
3045 13-08-2019 13:40:00 19.1 C 8.36 g/m*3 19.1 C 12.9 km/h
3046 13-08-2019 13:45:00 19.3 C 8.96 g/m*3 19.3 C 9.7 km/h
3047 13-08-2019 13:50:00 19.4 C 9.01 g/m*3 19.4 C 11.3 km/h
3048 13-08-2019 13:55:00 19.7 C 8.49 g/m*3 19.7 C 11.3 km/h
3049 13-08-2019 14:00:00 19.8 C 8.54 g/m*3 19.8 C 11.3 km/h
3050 13-08-2019 14:05:00 19.9 C 8.93 g/m*3 19.9 C 16.1 km/h
Sensor: Nr:Datum:Temp:Abs-Feuchte:Windchill:Wind:
Aussen-T/F 3051 13-08-2019 14:10:00 19.9 C 8.93 g/m*3 19.9 C 14.5 km/h
3052 13-08-2019 14:15:00 19.8 C 8.88 g/m*3 19.8 C 12.9 km/h
3053 13-08-2019 14:20:00 19.7 C 9.17 g/m*3 19.7 C 11.3 km/h
3054 13-08-2019 14:25:00 19.5 C 9.4 g/m*3 19.5 C 8.1 km/h
3055 13-08-2019 14:30:00 19.6 C 9.28 g/m*3 19.6 C 6.4 km/h
3056 13-08-2019 14:35:00 19.7 C 8.66 g/m*3 19.7 C 8.1 km/h
3057 13-08-2019 14:40:00 19.9 C 9.79 g/m*3 19.9 C 4.8 km/h
3058 13-08-2019 14:45:00 20.2 C 9.27 g/m*3 20.2 C 11.3 km/h
3059 13-08-2019 14:50:00 20.3 C 8.97 g/m*3 20.3 C 14.5 km/h
3060 13-08-2019 14:55:00 20.2 C 8.92 g/m*3 20.2 C 12.9 km/h
3061 13-08-2019 15:00:00 20.3 C 9.15 g/m*3 20.3 C 11.3 km/h
3062 13-08-2019 15:05:00 20.6 C 9.49 g/m*3 20.6 C 12.9 km/h
3063 13-08-2019 15:10:00 20.9 C 9.29 g/m*3 20.9 C 17.7 km/h
3064 13-08-2019 15:15:00 21 C 9.34 g/m*3 21 C 14.5 km/h
3065 13-08-2019 15:20:00 21.2 C 9.08 g/m*3 21.2 C 14.5 km/h
3066 13-08-2019 15:25:00 21.5 C 9.62 g/m*3 21.5 C 11.3 km/h
3067 13-08-2019 15:30:00 21.7 C 9.35 g/m*3 21.7 C 14.5 km/h
3068 13-08-2019 15:35:00 21.5 C 9.24 g/m*3 21.5 C 11.3 km/h
3069 13-08-2019 15:40:00 21.6 C 9.29 g/m*3 21.6 C 12.9 km/h
3070 13-08-2019 15:45:00 21.7 C 9.73 g/m*3 21.7 C 16.1 km/h
3071 13-08-2019 15:50:00 21.7 C 9.35 g/m*3 21.7 C 14.5 km/h
3072 13-08-2019 15:55:00 21.6 C 9.48 g/m*3 21.6 C 11.3 km/h
3073 13-08-2019 16:00:00 21.5 C 9.43 g/m*3 21.5 C 8.1 km/h
3074 13-08-2019 16:05:00 21.6 C 9.86 g/m*3 21.6 C 3.2 km/h
3075 13-08-2019 16:10:00 21.4 C 9.37 g/m*3 21.4 C 14.5 km/h
Sensor: Nr:Datum:Temp:Abs-Feuchte:Windchill:Wind:
Aussen-T/F 3076 13-08-2019 16:15:00 21.2 C 9.64 g/m*3 21.2 C 9.7 km/h
3077 13-08-2019 16:20:00 20.9 C 9.29 g/m*3 20.9 C 9.7 km/h
3078 13-08-2019 16:25:00 20.8 C 9.96 g/m*3 20.8 C 9.7 km/h
3079 13-08-2019 16:30:00 21.1 C 9.4 g/m*3 21.1 C 11.3 km/h
3080 13-08-2019 16:35:00 21.3 C 9.69 g/m*3 21.3 C 16.1 km/h
3081 13-08-2019 16:40:00 21.2 C 9.64 g/m*3 21.2 C 11.3 km/h
3082 13-08-2019 16:45:00 21.5 C 9.62 g/m*3 21.5 C 12.9 km/h
3083 13-08-2019 16:50:00 21.9 C 9.26 g/m*3 21.9 C 9.7 km/h
3084 13-08-2019 16:55:00 22.2 C 9.23 g/m*3 22.2 C 17.7 km/h
3085 13-08-2019 17:00:00 22.3 C 9.28 g/m*3 22.3 C 9.7 km/h
3086 13-08-2019 17:05:00 22.4 C 8.94 g/m*3 22.4 C 12.9 km/h
3087 13-08-2019 17:10:00 22.2 C 9.03 g/m*3 22.2 C 14.5 km/h
3088 13-08-2019 17:15:00 21.6 C 9.29 g/m*3 21.6 C 8.1 km/h
3089 13-08-2019 17:20:00 21.1 C 9.4 g/m*3 21.1 C 9.7 km/h
3090 13-08-2019 17:25:00 20.8 C 9.6 g/m*3 20.8 C 11.3 km/h
3091 13-08-2019 17:30:00 20.7 C 9.18 g/m*3 20.7 C 9.7 km/h
3092 13-08-2019 17:35:00 20.7 C 9.72 g/m*3 20.7 C 9.7 km/h
3093 13-08-2019 17:40:00 20.9 C 9.65 g/m*3 20.9 C 6.4 km/h
3094 13-08-2019 17:45:00 20.9 C 9.47 g/m*3 20.9 C 8.1 km/h
3095 13-08-2019 17:50:00 20.8 C 9.6 g/m*3 20.8 C 8.1 km/h
3096 13-08-2019 17:55:00 20.7 C 9.36 g/m*3 20.7 C 4.8 km/h
3097 13-08-2019 18:00:00 20.7 C 9.9 g/m*3 20.7 C 6.4 km/h
3098 13-08-2019 18:05:00 20.7 C 9.54 g/m*3 20.7 C 6.4 km/h
3099 13-08-2019 18:10:00 20.7 C 9.36 g/m*3 20.7 C 8.1 km/h
3100 13-08-2019 18:15:00 21.2 C 10.01 g/m*3 21.2 C 6.4 km/h
Sensor: Nr:Datum:Temp:Abs-Feuchte:Windchill:Wind:
Aussen-T/F 3101 13-08-2019 18:20:00 21.6 C 9.48 g/m*3 21.6 C 9.7 km/h
3102 13-08-2019 18:25:00 21.8 C 9.4 g/m*3 21.8 C 12.9 km/h
3103 13-08-2019 18:30:00 21.9 C 9.26 g/m*3 21.9 C 8.1 km/h
3104 13-08-2019 18:35:00 21.7 C 9.73 g/m*3 21.7 C 9.7 km/h
3105 13-08-2019 18:40:00 21.4 C 9.37 g/m*3 21.4 C 8.1 km/h
3106 13-08-2019 18:45:00 21.1 C 9.58 g/m*3 21.1 C 11.3 km/h
3107 13-08-2019 18:50:00 20.8 C 9.78 g/m*3 20.8 C 11.3 km/h
3108 13-08-2019 18:55:00 20.5 C 9.61 g/m*3 20.5 C 6.4 km/h
3109 13-08-2019 19:00:00 20.3 C 10.02 g/m*3 20.3 C 3.2 km/h
3110 13-08-2019 19:05:00 20.1 C 10.26 g/m*3 20.1 C 3.2 km/h
3111 13-08-2019 19:10:00 19.9 C 10.31 g/m*3 19.9 C 4.8 km/h
3112 13-08-2019 19:15:00 19.8 C 9.74 g/m*3 19.8 C 0 km/h
3113 13-08-2019 19:20:00 19.6 C 9.96 g/m*3 19.6 C 0 km/h
3114 13-08-2019 19:25:00 19.3 C 9.79 g/m*3 19.3 C 22.5 km/h
3115 13-08-2019 19:30:00 18.5 C 9.81 g/m*3 18.5 C 14.5 km/h
3116 13-08-2019 19:35:00 17.9 C 10.23 g/m*3 17.9 C 17.7 km/h
3117 13-08-2019 19:40:00 17.3 C 10.61 g/m*3 17.3 C 11.3 km/h
3118 13-08-2019 19:45:00 16.9 C 10.36 g/m*3 16.9 C 14.5 km/h
3119 13-08-2019 19:50:00 16.6 C 10.59 g/m*3 16.6 C 9.7 km/h
3120 13-08-2019 19:55:00 16.2 C 10.76 g/m*3 16.2 C 11.3 km/h
3121 13-08-2019 20:00:00 15.9 C 10.97 g/m*3 15.9 C 1.6 km/h
3122 13-08-2019 20:05:00 15.6 C 10.91 g/m*3 15.6 C 1.6 km/h
3123 13-08-2019 20:10:00 15.4 C 11.04 g/m*3 15.4 C 1.6 km/h
3124 13-08-2019 20:15:00 15.2 C 11.03 g/m*3 15.2 C 0 km/h
3125 13-08-2019 20:20:00 15 C 11.03 g/m*3 15 C 3.2 km/h
Sensor: Nr:Datum:Temp:Abs-Feuchte:Windchill:Wind:
Aussen-T/F 3126 13-08-2019 20:25:00 14.8 C 11.02 g/m*3 14.8 C 3.2 km/h
3127 13-08-2019 20:30:00 14.7 C 11.08 g/m*3 14.7 C 0 km/h
3128 13-08-2019 20:35:00 14.6 C 11.01 g/m*3 14.6 C 0 km/h
3129 13-08-2019 20:40:00 14.6 C 11.14 g/m*3 14.6 C 0 km/h
3130 13-08-2019 20:45:00 14.5 C 11.19 g/m*3 14.5 C 0 km/h
3131 13-08-2019 20:50:00 14.4 C 11.13 g/m*3 14.4 C 0 km/h
3132 13-08-2019 20:55:00 14.3 C 11.06 g/m*3 14.3 C 0 km/h
3133 13-08-2019 21:00:00 14.3 C 11.06 g/m*3 14.3 C 0 km/h
3134 13-08-2019 21:05:00 14.2 C 11.11 g/m*3 14.2 C 0 km/h
3135 13-08-2019 21:10:00 14.2 C 11.11 g/m*3 14.2 C 0 km/h
3136 13-08-2019 21:15:00 14.2 C 11.11 g/m*3 14.2 C 0 km/h
3137 13-08-2019 21:20:00 14.1 C 11.04 g/m*3 14.1 C 0 km/h
3138 13-08-2019 21:25:00 14 C 10.98 g/m*3 14 C 0 km/h
3139 13-08-2019 21:30:00 13.9 C 10.91 g/m*3 13.9 C 0 km/h
3140 13-08-2019 21:35:00 13.9 C 11.03 g/m*3 13.9 C 0 km/h
3141 13-08-2019 21:40:00 13.8 C 10.96 g/m*3 13.8 C 0 km/h
3142 13-08-2019 21:45:00 13.8 C 10.96 g/m*3 13.8 C 0 km/h
3143 13-08-2019 21:50:00 13.8 C 10.96 g/m*3 13.8 C 0 km/h
3144 13-08-2019 21:55:00 13.7 C 10.89 g/m*3 13.7 C 0 km/h
3145 13-08-2019 22:00:00 13.7 C 10.89 g/m*3 13.7 C 0 km/h
3146 13-08-2019 22:05:00 13.7 C 10.89 g/m*3 13.7 C 0 km/h
3147 13-08-2019 22:10:00 13.7 C 10.89 g/m*3 13.7 C 0 km/h
3148 13-08-2019 22:15:00 13.7 C 10.89 g/m*3 13.7 C 0 km/h
3149 13-08-2019 22:20:00 13.6 C 10.83 g/m*3 13.6 C 0 km/h
3150 13-08-2019 22:25:00 13.6 C 10.95 g/m*3 13.6 C 0 km/h
Sensor: Nr:Datum:Temp:Abs-Feuchte:Windchill:Wind:
Aussen-T/F 3151 13-08-2019 22:30:00 13.6 C 10.95 g/m*3 13.6 C 0 km/h
3152 13-08-2019 22:35:00 13.6 C 10.95 g/m*3 13.6 C 0 km/h
3153 13-08-2019 22:40:00 13.6 C 10.95 g/m*3 13.6 C 0 km/h
3154 13-08-2019 22:45:00 13.6 C 10.95 g/m*3 13.6 C 0 km/h
3155 13-08-2019 22:50:00 13.6 C 10.95 g/m*3 13.6 C 0 km/h
3156 13-08-2019 22:55:00 13.6 C 10.95 g/m*3 13.6 C 0 km/h
3157 13-08-2019 23:00:00 13.5 C 10.88 g/m*3 13.5 C 0 km/h
3158 13-08-2019 23:05:00 13.5 C 10.88 g/m*3 13.5 C 0 km/h
3159 13-08-2019 23:10:00 13.4 C 10.81 g/m*3 13.4 C 0 km/h
3160 13-08-2019 23:15:00 13.4 C 10.81 g/m*3 13.4 C 0 km/h
3161 13-08-2019 23:20:00 13.4 C 10.81 g/m*3 13.4 C 0 km/h
3162 13-08-2019 23:25:00 13.4 C 10.81 g/m*3 13.4 C 0 km/h
3163 13-08-2019 23:30:00 13.3 C 10.74 g/m*3 13.3 C 0 km/h
3164 13-08-2019 23:35:00 13.3 C 10.74 g/m*3 13.3 C 0 km/h
3165 13-08-2019 23:40:00 13.3 C 10.74 g/m*3 13.3 C 0 km/h
3166 13-08-2019 23:45:00 13.3 C 10.74 g/m*3 13.3 C 0 km/h
3167 13-08-2019 23:50:00 13.3 C 10.74 g/m*3 13.3 C 0 km/h
3168 13-08-2019 23:55:00 13.3 C 10.74 g/m*3 13.3 C 0 km/h
3169 14-08-2019 00:00:00 13.3 C 10.74 g/m*3 13.3 C 0 km/h
3170 14-08-2019 00:05:00 13.2 C 10.68 g/m*3 13.2 C 0 km/h
3171 14-08-2019 00:10:00 13.2 C 10.68 g/m*3 13.2 C 0 km/h
3172 14-08-2019 00:15:00 13.1 C 10.61 g/m*3 13.1 C 0 km/h
3173 14-08-2019 00:20:00 13.1 C 10.61 g/m*3 13.1 C 0 km/h
3174 14-08-2019 00:25:00 13.1 C 10.61 g/m*3 13.1 C 0 km/h
3175 14-08-2019 00:30:00 13 C 10.55 g/m*3 13 C 0 km/h
Sensor: Nr:Datum:Temp:Abs-Feuchte:Windchill:Wind:
Aussen-T/F 3176 14-08-2019 00:35:00 13 C 10.55 g/m*3 13 C 0 km/h
3177 14-08-2019 00:40:00 13 C 10.66 g/m*3 13 C 0 km/h
3178 14-08-2019 00:45:00 12.9 C 10.48 g/m*3 12.9 C 0 km/h
3179 14-08-2019 00:50:00 12.9 C 10.48 g/m*3 12.9 C 0 km/h
3180 14-08-2019 00:55:00 12.8 C 10.42 g/m*3 12.8 C 0 km/h
3181 14-08-2019 01:00:00 12.8 C 10.42 g/m*3 12.8 C 0 km/h
3182 14-08-2019 01:05:00 12.7 C 10.35 g/m*3 12.7 C 0 km/h
3183 14-08-2019 01:10:00 12.7 C 10.35 g/m*3 12.7 C 0 km/h
3184 14-08-2019 01:15:00 12.6 C 10.29 g/m*3 12.6 C 0 km/h
3185 14-08-2019 01:20:00 12.6 C 10.29 g/m*3 12.6 C 0 km/h
3186 14-08-2019 01:25:00 12.6 C 10.4 g/m*3 12.6 C 0 km/h
3187 14-08-2019 01:30:00 12.6 C 10.4 g/m*3 12.6 C 0 km/h
3188 14-08-2019 01:35:00 12.6 C 10.29 g/m*3 12.6 C 0 km/h
3189 14-08-2019 01:40:00 12.6 C 10.29 g/m*3 12.6 C 0 km/h
3190 14-08-2019 01:45:00 12.6 C 10.29 g/m*3 12.6 C 0 km/h
3191 14-08-2019 01:50:00 12.5 C 10.22 g/m*3 12.5 C 0 km/h
3192 14-08-2019 01:55:00 12.5 C 10.22 g/m*3 12.5 C 0 km/h
3193 14-08-2019 02:00:00 12.4 C 10.16 g/m*3 12.4 C 0 km/h
3194 14-08-2019 02:05:00 12.4 C 10.16 g/m*3 12.4 C 0 km/h
3195 14-08-2019 02:10:00 12.3 C 10.1 g/m*3 12.3 C 0 km/h
3196 14-08-2019 02:15:00 12.2 C 10.04 g/m*3 12.2 C 0 km/h
3197 14-08-2019 02:20:00 12.2 C 10.04 g/m*3 12.2 C 0 km/h
3198 14-08-2019 02:25:00 12.1 C 9.97 g/m*3 12.1 C 0 km/h
3199 14-08-2019 02:30:00 12.1 C 9.97 g/m*3 12.1 C 0 km/h
3200 14-08-2019 02:35:00 12 C 9.91 g/m*3 12 C 0 km/h
Sensor: Nr:Datum:Temp:Abs-Feuchte:Windchill:Wind:
Aussen-T/F 3201 14-08-2019 02:40:00 11.9 C 9.85 g/m*3 11.9 C 0 km/h
3202 14-08-2019 02:45:00 11.9 C 9.85 g/m*3 11.9 C 0 km/h
3203 14-08-2019 02:50:00 11.9 C 9.96 g/m*3 11.9 C 0 km/h
3204 14-08-2019 02:55:00 11.9 C 9.96 g/m*3 11.9 C 0 km/h
3205 14-08-2019 03:00:00 11.9 C 9.96 g/m*3 11.9 C 0 km/h
3206 14-08-2019 03:05:00 11.9 C 9.96 g/m*3 11.9 C 0 km/h
3207 14-08-2019 03:10:00 12 C 10.02 g/m*3 12 C 0 km/h
3208 14-08-2019 03:15:00 11.9 C 9.96 g/m*3 11.9 C 0 km/h
3209 14-08-2019 03:20:00